<?xml version="1.0" encoding="UTF-8" standalone="no" ?>
<gpx xmlns="http://www.topografix.com/GPX/1/1" xmlns:xsi="http://www.w3.org/2001/XMLSchema-instance" xsi:schemaLocation="http://www.topografix.com/GPX/1/1 http://www.topografix.com/GPX/1/1/gpx.xsd" version="1.1" creator="VisuGPX - https://www.visugpx.com">
  <metadata>
    <name>Les chalets de Clapeyto</name>
    <desc><![CDATA[Brunissart, les chalets de Clapeyto, 26 janvier 2016.]]></desc>
  </metadata>
  <trk>
    <name><![CDATA[Clapeyto 26 01]]></name>
    <trkseg>
      <trkpt lat="44.79532" lon="6.72362">
        <ele>1729.07</ele>
        <time>2016-01-26T08:29:58Z</time>
      </trkpt>
      <trkpt lat="44.79537" lon="6.7237">
        <ele>1731.95</ele>
        <time>2016-01-26T08:30:07Z</time>
      </trkpt>
      <trkpt lat="44.79537" lon="6.72371">
        <ele>1738.2</ele>
        <time>2016-01-26T08:30:08Z</time>
      </trkpt>
      <trkpt lat="44.79537" lon="6.72371">
        <ele>1738.2</ele>
        <time>2016-01-26T08:30:09Z</time>
      </trkpt>
      <trkpt lat="44.79537" lon="6.72371">
        <ele>1743.49</ele>
        <time>2016-01-26T08:30:11Z</time>
      </trkpt>
      <trkpt lat="44.79538" lon="6.72371">
        <ele>1748.29</ele>
        <time>2016-01-26T08:30:13Z</time>
      </trkpt>
      <trkpt lat="44.79538" lon="6.72371">
        <ele>1753.1</ele>
        <time>2016-01-26T08:30:15Z</time>
      </trkpt>
      <trkpt lat="44.79537" lon="6.72371">
        <ele>1757.43</ele>
        <time>2016-01-26T08:30:17Z</time>
      </trkpt>
      <trkpt lat="44.79537" lon="6.72372">
        <ele>1761.27</ele>
        <time>2016-01-26T08:30:19Z</time>
      </trkpt>
      <trkpt lat="44.79538" lon="6.72372">
        <ele>1764.64</ele>
        <time>2016-01-26T08:30:21Z</time>
      </trkpt>
      <trkpt lat="44.79538" lon="6.72372">
        <ele>1768</ele>
        <time>2016-01-26T08:30:23Z</time>
      </trkpt>
      <trkpt lat="44.79538" lon="6.72372">
        <ele>1771.37</ele>
        <time>2016-01-26T08:30:25Z</time>
      </trkpt>
      <trkpt lat="44.79538" lon="6.72372">
        <ele>1776.65</ele>
        <time>2016-01-26T08:30:28Z</time>
      </trkpt>
      <trkpt lat="44.79537" lon="6.72371">
        <ele>1778.1</ele>
        <time>2016-01-26T08:30:30Z</time>
      </trkpt>
      <trkpt lat="44.79538" lon="6.7237">
        <ele>1781.94</ele>
        <time>2016-01-26T08:30:33Z</time>
      </trkpt>
      <trkpt lat="44.79538" lon="6.72371">
        <ele>1784.82</ele>
        <time>2016-01-26T08:30:36Z</time>
      </trkpt>
      <trkpt lat="44.79537" lon="6.72369">
        <ele>1788.67</ele>
        <time>2016-01-26T08:30:40Z</time>
      </trkpt>
      <trkpt lat="44.79537" lon="6.7237">
        <ele>1792.03</ele>
        <time>2016-01-26T08:30:45Z</time>
      </trkpt>
      <trkpt lat="44.79538" lon="6.7237">
        <ele>1795.4</ele>
        <time>2016-01-26T08:30:50Z</time>
      </trkpt>
      <trkpt lat="44.79538" lon="6.7237">
        <ele>1798.76</ele>
        <time>2016-01-26T08:30:55Z</time>
      </trkpt>
      <trkpt lat="44.79537" lon="6.72369">
        <ele>1801.65</ele>
        <time>2016-01-26T08:31:07Z</time>
      </trkpt>
      <trkpt lat="44.79537" lon="6.72369">
        <ele>1805.01</ele>
        <time>2016-01-26T08:31:17Z</time>
      </trkpt>
      <trkpt lat="44.79538" lon="6.72369">
        <ele>1807.9</ele>
        <time>2016-01-26T08:31:35Z</time>
      </trkpt>
      <trkpt lat="44.79539" lon="6.72371">
        <ele>1809.34</ele>
        <time>2016-01-26T08:31:49Z</time>
      </trkpt>
      <trkpt lat="44.79541" lon="6.72356">
        <ele>1810.78</ele>
        <time>2016-01-26T08:32:03Z</time>
      </trkpt>
      <trkpt lat="44.79544" lon="6.72351">
        <ele>1811.74</ele>
        <time>2016-01-26T08:32:21Z</time>
      </trkpt>
      <trkpt lat="44.79546" lon="6.7235">
        <ele>1811.74</ele>
        <time>2016-01-26T08:32:23Z</time>
      </trkpt>
      <trkpt lat="44.79552" lon="6.72338">
        <ele>1811.74</ele>
        <time>2016-01-26T08:32:39Z</time>
      </trkpt>
      <trkpt lat="44.79553" lon="6.72339">
        <ele>1811.74</ele>
        <time>2016-01-26T08:33:01Z</time>
      </trkpt>
      <trkpt lat="44.79555" lon="6.72338">
        <ele>1811.74</ele>
        <time>2016-01-26T08:33:27Z</time>
      </trkpt>
      <trkpt lat="44.79556" lon="6.72339">
        <ele>1811.74</ele>
        <time>2016-01-26T08:33:52Z</time>
      </trkpt>
      <trkpt lat="44.79555" lon="6.72341">
        <ele>1811.74</ele>
        <time>2016-01-26T08:34:24Z</time>
      </trkpt>
      <trkpt lat="44.79555" lon="6.72339">
        <ele>1811.74</ele>
        <time>2016-01-26T08:34:41Z</time>
      </trkpt>
      <trkpt lat="44.79558" lon="6.72333">
        <ele>1811.74</ele>
        <time>2016-01-26T08:34:57Z</time>
      </trkpt>
      <trkpt lat="44.79564" lon="6.72329">
        <ele>1811.74</ele>
        <time>2016-01-26T08:35:08Z</time>
      </trkpt>
      <trkpt lat="44.79573" lon="6.7232">
        <ele>1811.74</ele>
        <time>2016-01-26T08:35:21Z</time>
      </trkpt>
      <trkpt lat="44.79582" lon="6.7231">
        <ele>1811.74</ele>
        <time>2016-01-26T08:35:34Z</time>
      </trkpt>
      <trkpt lat="44.79591" lon="6.72296">
        <ele>1810.3</ele>
        <time>2016-01-26T08:35:47Z</time>
      </trkpt>
      <trkpt lat="44.79592" lon="6.72294">
        <ele>1810.3</ele>
        <time>2016-01-26T08:35:49Z</time>
      </trkpt>
      <trkpt lat="44.79597" lon="6.7229">
        <ele>1810.3</ele>
        <time>2016-01-26T08:35:55Z</time>
      </trkpt>
      <trkpt lat="44.79601" lon="6.72286">
        <ele>1809.82</ele>
        <time>2016-01-26T08:36:05Z</time>
      </trkpt>
      <trkpt lat="44.79601" lon="6.72283">
        <ele>1809.82</ele>
        <time>2016-01-26T08:36:07Z</time>
      </trkpt>
      <trkpt lat="44.79602" lon="6.7228">
        <ele>1809.82</ele>
        <time>2016-01-26T08:36:09Z</time>
      </trkpt>
      <trkpt lat="44.79606" lon="6.72268">
        <ele>1809.34</ele>
        <time>2016-01-26T08:36:24Z</time>
      </trkpt>
      <trkpt lat="44.79609" lon="6.72253">
        <ele>1808.38</ele>
        <time>2016-01-26T08:36:38Z</time>
      </trkpt>
      <trkpt lat="44.79616" lon="6.72243">
        <ele>1808.38</ele>
        <time>2016-01-26T08:36:53Z</time>
      </trkpt>
      <trkpt lat="44.79627" lon="6.72232">
        <ele>1808.38</ele>
        <time>2016-01-26T08:37:08Z</time>
      </trkpt>
      <trkpt lat="44.79635" lon="6.7222">
        <ele>1808.38</ele>
        <time>2016-01-26T08:37:24Z</time>
      </trkpt>
      <trkpt lat="44.79636" lon="6.72215">
        <ele>1809.34</ele>
        <time>2016-01-26T08:37:30Z</time>
      </trkpt>
      <trkpt lat="44.79642" lon="6.72203">
        <ele>1809.34</ele>
        <time>2016-01-26T08:37:43Z</time>
      </trkpt>
      <trkpt lat="44.79649" lon="6.72196">
        <ele>1809.82</ele>
        <time>2016-01-26T08:37:59Z</time>
      </trkpt>
      <trkpt lat="44.79655" lon="6.72187">
        <ele>1810.3</ele>
        <time>2016-01-26T08:38:14Z</time>
      </trkpt>
      <trkpt lat="44.79666" lon="6.72179">
        <ele>1810.78</ele>
        <time>2016-01-26T08:38:29Z</time>
      </trkpt>
      <trkpt lat="44.79677" lon="6.72184">
        <ele>1811.26</ele>
        <time>2016-01-26T08:38:43Z</time>
      </trkpt>
      <trkpt lat="44.79687" lon="6.72171">
        <ele>1812.22</ele>
        <time>2016-01-26T08:38:58Z</time>
      </trkpt>
      <trkpt lat="44.79692" lon="6.72157">
        <ele>1812.7</ele>
        <time>2016-01-26T08:39:13Z</time>
      </trkpt>
      <trkpt lat="44.79704" lon="6.72147">
        <ele>1813.18</ele>
        <time>2016-01-26T08:39:29Z</time>
      </trkpt>
      <trkpt lat="44.79712" lon="6.72135">
        <ele>1813.66</ele>
        <time>2016-01-26T08:39:43Z</time>
      </trkpt>
      <trkpt lat="44.79723" lon="6.72128">
        <ele>1814.15</ele>
        <time>2016-01-26T08:39:57Z</time>
      </trkpt>
      <trkpt lat="44.79733" lon="6.72121">
        <ele>1815.11</ele>
        <time>2016-01-26T08:40:11Z</time>
      </trkpt>
      <trkpt lat="44.79743" lon="6.72111">
        <ele>1814.63</ele>
        <time>2016-01-26T08:40:26Z</time>
      </trkpt>
      <trkpt lat="44.79746" lon="6.72096">
        <ele>1815.59</ele>
        <time>2016-01-26T08:40:39Z</time>
      </trkpt>
      <trkpt lat="44.79751" lon="6.72093">
        <ele>1816.07</ele>
        <time>2016-01-26T08:40:55Z</time>
      </trkpt>
      <trkpt lat="44.7975" lon="6.72095">
        <ele>1816.07</ele>
        <time>2016-01-26T08:41:09Z</time>
      </trkpt>
      <trkpt lat="44.79751" lon="6.72092">
        <ele>1816.07</ele>
        <time>2016-01-26T08:41:24Z</time>
      </trkpt>
      <trkpt lat="44.79752" lon="6.7209">
        <ele>1816.07</ele>
        <time>2016-01-26T08:41:42Z</time>
      </trkpt>
      <trkpt lat="44.79754" lon="6.72094">
        <ele>1816.07</ele>
        <time>2016-01-26T08:42:05Z</time>
      </trkpt>
      <trkpt lat="44.79755" lon="6.72096">
        <ele>1816.07</ele>
        <time>2016-01-26T08:42:34Z</time>
      </trkpt>
      <trkpt lat="44.79757" lon="6.72093">
        <ele>1816.07</ele>
        <time>2016-01-26T08:42:59Z</time>
      </trkpt>
      <trkpt lat="44.79761" lon="6.72074">
        <ele>1817.51</ele>
        <time>2016-01-26T08:43:14Z</time>
      </trkpt>
      <trkpt lat="44.79768" lon="6.72069">
        <ele>1817.99</ele>
        <time>2016-01-26T08:43:31Z</time>
      </trkpt>
      <trkpt lat="44.79773" lon="6.72065">
        <ele>1817.99</ele>
        <time>2016-01-26T08:43:44Z</time>
      </trkpt>
      <trkpt lat="44.79782" lon="6.72054">
        <ele>1817.99</ele>
        <time>2016-01-26T08:43:58Z</time>
      </trkpt>
      <trkpt lat="44.79788" lon="6.72047">
        <ele>1818.47</ele>
        <time>2016-01-26T08:44:10Z</time>
      </trkpt>
      <trkpt lat="44.79792" lon="6.72035">
        <ele>1818.95</ele>
        <time>2016-01-26T08:44:24Z</time>
      </trkpt>
      <trkpt lat="44.79806" lon="6.7202">
        <ele>1819.43</ele>
        <time>2016-01-26T08:44:39Z</time>
      </trkpt>
      <trkpt lat="44.79812" lon="6.72012">
        <ele>1820.39</ele>
        <time>2016-01-26T08:44:53Z</time>
      </trkpt>
      <trkpt lat="44.79822" lon="6.71999">
        <ele>1820.87</ele>
        <time>2016-01-26T08:45:09Z</time>
      </trkpt>
      <trkpt lat="44.79824" lon="6.71996">
        <ele>1820.87</ele>
        <time>2016-01-26T08:45:12Z</time>
      </trkpt>
      <trkpt lat="44.79829" lon="6.71981">
        <ele>1821.35</ele>
        <time>2016-01-26T08:45:27Z</time>
      </trkpt>
      <trkpt lat="44.7983" lon="6.71975">
        <ele>1821.84</ele>
        <time>2016-01-26T08:45:32Z</time>
      </trkpt>
      <trkpt lat="44.79832" lon="6.71959">
        <ele>1822.32</ele>
        <time>2016-01-26T08:45:44Z</time>
      </trkpt>
      <trkpt lat="44.79832" lon="6.71943">
        <ele>1822.8</ele>
        <time>2016-01-26T08:45:56Z</time>
      </trkpt>
      <trkpt lat="44.79832" lon="6.7194">
        <ele>1822.8</ele>
        <time>2016-01-26T08:45:59Z</time>
      </trkpt>
      <trkpt lat="44.79833" lon="6.71936">
        <ele>1822.8</ele>
        <time>2016-01-26T08:46:02Z</time>
      </trkpt>
      <trkpt lat="44.79836" lon="6.71924">
        <ele>1823.28</ele>
        <time>2016-01-26T08:46:11Z</time>
      </trkpt>
      <trkpt lat="44.79834" lon="6.71909">
        <ele>1823.76</ele>
        <time>2016-01-26T08:46:23Z</time>
      </trkpt>
      <trkpt lat="44.79833" lon="6.71904">
        <ele>1823.76</ele>
        <time>2016-01-26T08:46:27Z</time>
      </trkpt>
      <trkpt lat="44.79833" lon="6.71895">
        <ele>1824.72</ele>
        <time>2016-01-26T08:46:35Z</time>
      </trkpt>
      <trkpt lat="44.79836" lon="6.7188">
        <ele>1825.68</ele>
        <time>2016-01-26T08:46:47Z</time>
      </trkpt>
      <trkpt lat="44.79843" lon="6.71866">
        <ele>1826.16</ele>
        <time>2016-01-26T08:47:00Z</time>
      </trkpt>
      <trkpt lat="44.79846" lon="6.71853">
        <ele>1826.64</ele>
        <time>2016-01-26T08:47:13Z</time>
      </trkpt>
      <trkpt lat="44.79848" lon="6.71836">
        <ele>1826.64</ele>
        <time>2016-01-26T08:47:29Z</time>
      </trkpt>
      <trkpt lat="44.79851" lon="6.71826">
        <ele>1827.6</ele>
        <time>2016-01-26T08:47:41Z</time>
      </trkpt>
      <trkpt lat="44.79855" lon="6.7182">
        <ele>1828.08</ele>
        <time>2016-01-26T08:47:53Z</time>
      </trkpt>
      <trkpt lat="44.79861" lon="6.71812">
        <ele>1828.08</ele>
        <time>2016-01-26T08:48:10Z</time>
      </trkpt>
      <trkpt lat="44.79868" lon="6.71799">
        <ele>1828.56</ele>
        <time>2016-01-26T08:48:24Z</time>
      </trkpt>
      <trkpt lat="44.79872" lon="6.71794">
        <ele>1828.56</ele>
        <time>2016-01-26T08:48:31Z</time>
      </trkpt>
      <trkpt lat="44.79882" lon="6.71783">
        <ele>1829.53</ele>
        <time>2016-01-26T08:48:45Z</time>
      </trkpt>
      <trkpt lat="44.79889" lon="6.71772">
        <ele>1830.01</ele>
        <time>2016-01-26T08:48:56Z</time>
      </trkpt>
      <trkpt lat="44.79892" lon="6.71759">
        <ele>1830.49</ele>
        <time>2016-01-26T08:49:09Z</time>
      </trkpt>
      <trkpt lat="44.79898" lon="6.71744">
        <ele>1831.45</ele>
        <time>2016-01-26T08:49:24Z</time>
      </trkpt>
      <trkpt lat="44.79901" lon="6.71724">
        <ele>1831.93</ele>
        <time>2016-01-26T08:49:41Z</time>
      </trkpt>
      <trkpt lat="44.79904" lon="6.71715">
        <ele>1832.41</ele>
        <time>2016-01-26T08:49:53Z</time>
      </trkpt>
      <trkpt lat="44.79906" lon="6.71718">
        <ele>1832.41</ele>
        <time>2016-01-26T08:50:16Z</time>
      </trkpt>
      <trkpt lat="44.79908" lon="6.71718">
        <ele>1832.89</ele>
        <time>2016-01-26T08:50:43Z</time>
      </trkpt>
      <trkpt lat="44.79909" lon="6.71718">
        <ele>1832.89</ele>
        <time>2016-01-26T08:51:12Z</time>
      </trkpt>
      <trkpt lat="44.79908" lon="6.71717">
        <ele>1832.89</ele>
        <time>2016-01-26T08:51:32Z</time>
      </trkpt>
      <trkpt lat="44.79906" lon="6.7172">
        <ele>1833.37</ele>
        <time>2016-01-26T08:51:49Z</time>
      </trkpt>
      <trkpt lat="44.79907" lon="6.7172">
        <ele>1833.85</ele>
        <time>2016-01-26T08:52:09Z</time>
      </trkpt>
      <trkpt lat="44.79908" lon="6.71719">
        <ele>1834.33</ele>
        <time>2016-01-26T08:52:33Z</time>
      </trkpt>
      <trkpt lat="44.79907" lon="6.71712">
        <ele>1834.33</ele>
        <time>2016-01-26T08:53:01Z</time>
      </trkpt>
      <trkpt lat="44.79909" lon="6.71717">
        <ele>1834.33</ele>
        <time>2016-01-26T08:53:23Z</time>
      </trkpt>
      <trkpt lat="44.79909" lon="6.71719">
        <ele>1834.33</ele>
        <time>2016-01-26T08:53:39Z</time>
      </trkpt>
      <trkpt lat="44.79909" lon="6.71717">
        <ele>1834.33</ele>
        <time>2016-01-26T08:53:57Z</time>
      </trkpt>
      <trkpt lat="44.79908" lon="6.71715">
        <ele>1833.37</ele>
        <time>2016-01-26T08:54:27Z</time>
      </trkpt>
      <trkpt lat="44.79912" lon="6.71717">
        <ele>1833.37</ele>
        <time>2016-01-26T08:54:52Z</time>
      </trkpt>
      <trkpt lat="44.79914" lon="6.71711">
        <ele>1833.37</ele>
        <time>2016-01-26T08:55:13Z</time>
      </trkpt>
      <trkpt lat="44.79918" lon="6.71701">
        <ele>1833.37</ele>
        <time>2016-01-26T08:55:27Z</time>
      </trkpt>
      <trkpt lat="44.79919" lon="6.71698">
        <ele>1834.81</ele>
        <time>2016-01-26T08:55:30Z</time>
      </trkpt>
      <trkpt lat="44.79919" lon="6.71696">
        <ele>1834.81</ele>
        <time>2016-01-26T08:55:32Z</time>
      </trkpt>
      <trkpt lat="44.79912" lon="6.71685">
        <ele>1834.81</ele>
        <time>2016-01-26T08:55:44Z</time>
      </trkpt>
      <trkpt lat="44.79917" lon="6.7167">
        <ele>1834.81</ele>
        <time>2016-01-26T08:55:57Z</time>
      </trkpt>
      <trkpt lat="44.79917" lon="6.71662">
        <ele>1835.29</ele>
        <time>2016-01-26T08:56:03Z</time>
      </trkpt>
      <trkpt lat="44.7992" lon="6.71643">
        <ele>1836.26</ele>
        <time>2016-01-26T08:56:19Z</time>
      </trkpt>
      <trkpt lat="44.7992" lon="6.71625">
        <ele>1837.22</ele>
        <time>2016-01-26T08:56:35Z</time>
      </trkpt>
      <trkpt lat="44.79922" lon="6.71617">
        <ele>1837.7</ele>
        <time>2016-01-26T08:56:51Z</time>
      </trkpt>
      <trkpt lat="44.79925" lon="6.71603">
        <ele>1838.18</ele>
        <time>2016-01-26T08:57:05Z</time>
      </trkpt>
      <trkpt lat="44.79928" lon="6.71583">
        <ele>1838.66</ele>
        <time>2016-01-26T08:57:23Z</time>
      </trkpt>
      <trkpt lat="44.7993" lon="6.71568">
        <ele>1839.14</ele>
        <time>2016-01-26T08:57:36Z</time>
      </trkpt>
      <trkpt lat="44.79929" lon="6.7155">
        <ele>1839.62</ele>
        <time>2016-01-26T08:57:52Z</time>
      </trkpt>
      <trkpt lat="44.79934" lon="6.71535">
        <ele>1840.1</ele>
        <time>2016-01-26T08:58:07Z</time>
      </trkpt>
      <trkpt lat="44.79943" lon="6.7152">
        <ele>1841.06</ele>
        <time>2016-01-26T08:58:23Z</time>
      </trkpt>
      <trkpt lat="44.79945" lon="6.71505">
        <ele>1842.02</ele>
        <time>2016-01-26T08:58:39Z</time>
      </trkpt>
      <trkpt lat="44.7995" lon="6.71489">
        <ele>1842.5</ele>
        <time>2016-01-26T08:58:56Z</time>
      </trkpt>
      <trkpt lat="44.79954" lon="6.71475">
        <ele>1844.43</ele>
        <time>2016-01-26T08:59:12Z</time>
      </trkpt>
      <trkpt lat="44.79946" lon="6.71465">
        <ele>1844.43</ele>
        <time>2016-01-26T08:59:26Z</time>
      </trkpt>
      <trkpt lat="44.79941" lon="6.71453">
        <ele>1845.39</ele>
        <time>2016-01-26T08:59:39Z</time>
      </trkpt>
      <trkpt lat="44.79934" lon="6.71442">
        <ele>1845.87</ele>
        <time>2016-01-26T08:59:54Z</time>
      </trkpt>
      <trkpt lat="44.79932" lon="6.71428">
        <ele>1846.83</ele>
        <time>2016-01-26T09:00:08Z</time>
      </trkpt>
      <trkpt lat="44.79932" lon="6.71411">
        <ele>1847.31</ele>
        <time>2016-01-26T09:00:24Z</time>
      </trkpt>
      <trkpt lat="44.7993" lon="6.71397">
        <ele>1847.79</ele>
        <time>2016-01-26T09:00:39Z</time>
      </trkpt>
      <trkpt lat="44.79932" lon="6.71383">
        <ele>1848.27</ele>
        <time>2016-01-26T09:00:52Z</time>
      </trkpt>
      <trkpt lat="44.79931" lon="6.71369">
        <ele>1849.23</ele>
        <time>2016-01-26T09:01:08Z</time>
      </trkpt>
      <trkpt lat="44.7993" lon="6.71352">
        <ele>1850.19</ele>
        <time>2016-01-26T09:01:25Z</time>
      </trkpt>
      <trkpt lat="44.79931" lon="6.71344">
        <ele>1851.16</ele>
        <time>2016-01-26T09:01:37Z</time>
      </trkpt>
      <trkpt lat="44.79926" lon="6.71333">
        <ele>1851.16</ele>
        <time>2016-01-26T09:01:49Z</time>
      </trkpt>
      <trkpt lat="44.79923" lon="6.71323">
        <ele>1851.64</ele>
        <time>2016-01-26T09:02:02Z</time>
      </trkpt>
      <trkpt lat="44.79924" lon="6.71313">
        <ele>1852.6</ele>
        <time>2016-01-26T09:02:13Z</time>
      </trkpt>
      <trkpt lat="44.79924" lon="6.713">
        <ele>1853.56</ele>
        <time>2016-01-26T09:02:26Z</time>
      </trkpt>
      <trkpt lat="44.79927" lon="6.71289">
        <ele>1854.52</ele>
        <time>2016-01-26T09:02:39Z</time>
      </trkpt>
      <trkpt lat="44.7993" lon="6.71274">
        <ele>1855</ele>
        <time>2016-01-26T09:02:55Z</time>
      </trkpt>
      <trkpt lat="44.79927" lon="6.71261">
        <ele>1856.44</ele>
        <time>2016-01-26T09:03:09Z</time>
      </trkpt>
      <trkpt lat="44.79932" lon="6.71252">
        <ele>1855.96</ele>
        <time>2016-01-26T09:03:22Z</time>
      </trkpt>
      <trkpt lat="44.79932" lon="6.7124">
        <ele>1856.92</ele>
        <time>2016-01-26T09:03:34Z</time>
      </trkpt>
      <trkpt lat="44.79929" lon="6.71226">
        <ele>1857.89</ele>
        <time>2016-01-26T09:03:50Z</time>
      </trkpt>
      <trkpt lat="44.79935" lon="6.71215">
        <ele>1858.85</ele>
        <time>2016-01-26T09:04:04Z</time>
      </trkpt>
      <trkpt lat="44.79935" lon="6.71203">
        <ele>1859.81</ele>
        <time>2016-01-26T09:04:17Z</time>
      </trkpt>
      <trkpt lat="44.79935" lon="6.71192">
        <ele>1860.77</ele>
        <time>2016-01-26T09:04:32Z</time>
      </trkpt>
      <trkpt lat="44.79934" lon="6.71189">
        <ele>1860.77</ele>
        <time>2016-01-26T09:04:57Z</time>
      </trkpt>
      <trkpt lat="44.79931" lon="6.7119">
        <ele>1860.77</ele>
        <time>2016-01-26T09:05:17Z</time>
      </trkpt>
      <trkpt lat="44.79931" lon="6.7119">
        <ele>1860.77</ele>
        <time>2016-01-26T09:05:53Z</time>
      </trkpt>
      <trkpt lat="44.79929" lon="6.71191">
        <ele>1861.25</ele>
        <time>2016-01-26T09:06:19Z</time>
      </trkpt>
      <trkpt lat="44.79929" lon="6.71187">
        <ele>1861.25</ele>
        <time>2016-01-26T09:06:43Z</time>
      </trkpt>
      <trkpt lat="44.7993" lon="6.71186">
        <ele>1861.25</ele>
        <time>2016-01-26T09:07:09Z</time>
      </trkpt>
      <trkpt lat="44.7993" lon="6.71186">
        <ele>1861.25</ele>
        <time>2016-01-26T09:07:27Z</time>
      </trkpt>
      <trkpt lat="44.79929" lon="6.71185">
        <ele>1861.25</ele>
        <time>2016-01-26T09:07:41Z</time>
      </trkpt>
      <trkpt lat="44.79932" lon="6.71186">
        <ele>1861.25</ele>
        <time>2016-01-26T09:07:57Z</time>
      </trkpt>
      <trkpt lat="44.79931" lon="6.71186">
        <ele>1861.25</ele>
        <time>2016-01-26T09:08:16Z</time>
      </trkpt>
      <trkpt lat="44.79932" lon="6.71188">
        <ele>1861.25</ele>
        <time>2016-01-26T09:08:32Z</time>
      </trkpt>
      <trkpt lat="44.79934" lon="6.71186">
        <ele>1861.73</ele>
        <time>2016-01-26T09:08:52Z</time>
      </trkpt>
      <trkpt lat="44.79932" lon="6.71186">
        <ele>1861.73</ele>
        <time>2016-01-26T09:09:08Z</time>
      </trkpt>
      <trkpt lat="44.79932" lon="6.71184">
        <ele>1861.73</ele>
        <time>2016-01-26T09:09:34Z</time>
      </trkpt>
      <trkpt lat="44.79932" lon="6.71184">
        <ele>1861.73</ele>
        <time>2016-01-26T09:09:53Z</time>
      </trkpt>
      <trkpt lat="44.7993" lon="6.71176">
        <ele>1862.21</ele>
        <time>2016-01-26T09:10:07Z</time>
      </trkpt>
      <trkpt lat="44.79928" lon="6.71162">
        <ele>1862.69</ele>
        <time>2016-01-26T09:10:21Z</time>
      </trkpt>
      <trkpt lat="44.79928" lon="6.71144">
        <ele>1864.61</ele>
        <time>2016-01-26T09:10:39Z</time>
      </trkpt>
      <trkpt lat="44.79929" lon="6.71143">
        <ele>1864.61</ele>
        <time>2016-01-26T09:10:40Z</time>
      </trkpt>
      <trkpt lat="44.79929" lon="6.71129">
        <ele>1865.09</ele>
        <time>2016-01-26T09:10:54Z</time>
      </trkpt>
      <trkpt lat="44.79934" lon="6.71119">
        <ele>1865.58</ele>
        <time>2016-01-26T09:11:06Z</time>
      </trkpt>
      <trkpt lat="44.79939" lon="6.71105">
        <ele>1866.06</ele>
        <time>2016-01-26T09:11:21Z</time>
      </trkpt>
      <trkpt lat="44.79941" lon="6.71088">
        <ele>1867.02</ele>
        <time>2016-01-26T09:11:36Z</time>
      </trkpt>
      <trkpt lat="44.79943" lon="6.71072">
        <ele>1867.98</ele>
        <time>2016-01-26T09:11:52Z</time>
      </trkpt>
      <trkpt lat="44.79947" lon="6.71057">
        <ele>1868.94</ele>
        <time>2016-01-26T09:12:07Z</time>
      </trkpt>
      <trkpt lat="44.79951" lon="6.71043">
        <ele>1869.9</ele>
        <time>2016-01-26T09:12:21Z</time>
      </trkpt>
      <trkpt lat="44.79955" lon="6.71034">
        <ele>1870.86</ele>
        <time>2016-01-26T09:12:33Z</time>
      </trkpt>
      <trkpt lat="44.79958" lon="6.71022">
        <ele>1872.3</ele>
        <time>2016-01-26T09:12:47Z</time>
      </trkpt>
      <trkpt lat="44.79968" lon="6.71016">
        <ele>1872.79</ele>
        <time>2016-01-26T09:13:00Z</time>
      </trkpt>
      <trkpt lat="44.79973" lon="6.71015">
        <ele>1872.79</ele>
        <time>2016-01-26T09:13:11Z</time>
      </trkpt>
      <trkpt lat="44.79979" lon="6.71012">
        <ele>1873.27</ele>
        <time>2016-01-26T09:13:29Z</time>
      </trkpt>
      <trkpt lat="44.79991" lon="6.71014">
        <ele>1873.75</ele>
        <time>2016-01-26T09:13:44Z</time>
      </trkpt>
      <trkpt lat="44.80001" lon="6.71013">
        <ele>1874.71</ele>
        <time>2016-01-26T09:13:57Z</time>
      </trkpt>
      <trkpt lat="44.80013" lon="6.7101">
        <ele>1875.67</ele>
        <time>2016-01-26T09:14:12Z</time>
      </trkpt>
      <trkpt lat="44.8002" lon="6.70997">
        <ele>1876.15</ele>
        <time>2016-01-26T09:14:26Z</time>
      </trkpt>
      <trkpt lat="44.80026" lon="6.70987">
        <ele>1876.63</ele>
        <time>2016-01-26T09:14:39Z</time>
      </trkpt>
      <trkpt lat="44.80031" lon="6.70978">
        <ele>1877.59</ele>
        <time>2016-01-26T09:14:52Z</time>
      </trkpt>
      <trkpt lat="44.8004" lon="6.70969">
        <ele>1878.55</ele>
        <time>2016-01-26T09:15:06Z</time>
      </trkpt>
      <trkpt lat="44.80048" lon="6.70961">
        <ele>1879.03</ele>
        <time>2016-01-26T09:15:19Z</time>
      </trkpt>
      <trkpt lat="44.80055" lon="6.70949">
        <ele>1880.48</ele>
        <time>2016-01-26T09:15:34Z</time>
      </trkpt>
      <trkpt lat="44.80059" lon="6.70934">
        <ele>1880.96</ele>
        <time>2016-01-26T09:15:49Z</time>
      </trkpt>
      <trkpt lat="44.80064" lon="6.70927">
        <ele>1881.44</ele>
        <time>2016-01-26T09:16:03Z</time>
      </trkpt>
      <trkpt lat="44.8007" lon="6.70918">
        <ele>1882.88</ele>
        <time>2016-01-26T09:16:18Z</time>
      </trkpt>
      <trkpt lat="44.80075" lon="6.70908">
        <ele>1883.84</ele>
        <time>2016-01-26T09:16:32Z</time>
      </trkpt>
      <trkpt lat="44.80073" lon="6.70904">
        <ele>1883.84</ele>
        <time>2016-01-26T09:16:49Z</time>
      </trkpt>
      <trkpt lat="44.80075" lon="6.70891">
        <ele>1884.8</ele>
        <time>2016-01-26T09:17:04Z</time>
      </trkpt>
      <trkpt lat="44.80076" lon="6.7089">
        <ele>1885.28</ele>
        <time>2016-01-26T09:17:17Z</time>
      </trkpt>
      <trkpt lat="44.80079" lon="6.70891">
        <ele>1885.76</ele>
        <time>2016-01-26T09:17:37Z</time>
      </trkpt>
      <trkpt lat="44.80076" lon="6.70898">
        <ele>1885.76</ele>
        <time>2016-01-26T09:18:04Z</time>
      </trkpt>
      <trkpt lat="44.80078" lon="6.70884">
        <ele>1886.24</ele>
        <time>2016-01-26T09:18:24Z</time>
      </trkpt>
      <trkpt lat="44.80083" lon="6.70869">
        <ele>1886.72</ele>
        <time>2016-01-26T09:18:38Z</time>
      </trkpt>
      <trkpt lat="44.80093" lon="6.70862">
        <ele>1888.17</ele>
        <time>2016-01-26T09:18:52Z</time>
      </trkpt>
      <trkpt lat="44.80097" lon="6.70863">
        <ele>1888.17</ele>
        <time>2016-01-26T09:19:06Z</time>
      </trkpt>
      <trkpt lat="44.80096" lon="6.70868">
        <ele>1888.17</ele>
        <time>2016-01-26T09:19:30Z</time>
      </trkpt>
      <trkpt lat="44.80097" lon="6.70867">
        <ele>1888.65</ele>
        <time>2016-01-26T09:19:52Z</time>
      </trkpt>
      <trkpt lat="44.80101" lon="6.70862">
        <ele>1888.65</ele>
        <time>2016-01-26T09:20:09Z</time>
      </trkpt>
      <trkpt lat="44.80101" lon="6.70864">
        <ele>1888.65</ele>
        <time>2016-01-26T09:20:25Z</time>
      </trkpt>
      <trkpt lat="44.80103" lon="6.70864">
        <ele>1888.65</ele>
        <time>2016-01-26T09:20:47Z</time>
      </trkpt>
      <trkpt lat="44.80101" lon="6.70866">
        <ele>1888.65</ele>
        <time>2016-01-26T09:21:13Z</time>
      </trkpt>
      <trkpt lat="44.80103" lon="6.70863">
        <ele>1888.65</ele>
        <time>2016-01-26T09:21:34Z</time>
      </trkpt>
      <trkpt lat="44.80101" lon="6.70864">
        <ele>1888.65</ele>
        <time>2016-01-26T09:21:50Z</time>
      </trkpt>
      <trkpt lat="44.80101" lon="6.70864">
        <ele>1888.65</ele>
        <time>2016-01-26T09:22:09Z</time>
      </trkpt>
      <trkpt lat="44.801" lon="6.70864">
        <ele>1888.65</ele>
        <time>2016-01-26T09:22:22Z</time>
      </trkpt>
      <trkpt lat="44.80103" lon="6.70859">
        <ele>1888.65</ele>
        <time>2016-01-26T09:22:37Z</time>
      </trkpt>
      <trkpt lat="44.80102" lon="6.70859">
        <ele>1888.65</ele>
        <time>2016-01-26T09:22:52Z</time>
      </trkpt>
      <trkpt lat="44.801" lon="6.70858">
        <ele>1888.65</ele>
        <time>2016-01-26T09:23:07Z</time>
      </trkpt>
      <trkpt lat="44.80101" lon="6.70859">
        <ele>1888.65</ele>
        <time>2016-01-26T09:23:29Z</time>
      </trkpt>
      <trkpt lat="44.80099" lon="6.70858">
        <ele>1887.69</ele>
        <time>2016-01-26T09:23:45Z</time>
      </trkpt>
      <trkpt lat="44.80101" lon="6.70857">
        <ele>1887.69</ele>
        <time>2016-01-26T09:24:02Z</time>
      </trkpt>
      <trkpt lat="44.80101" lon="6.70857">
        <ele>1887.69</ele>
        <time>2016-01-26T09:24:17Z</time>
      </trkpt>
      <trkpt lat="44.80101" lon="6.70857">
        <ele>1887.69</ele>
        <time>2016-01-26T09:24:33Z</time>
      </trkpt>
      <trkpt lat="44.80101" lon="6.70858">
        <ele>1888.17</ele>
        <time>2016-01-26T09:24:47Z</time>
      </trkpt>
      <trkpt lat="44.80103" lon="6.70859">
        <ele>1888.17</ele>
        <time>2016-01-26T09:25:06Z</time>
      </trkpt>
      <trkpt lat="44.80105" lon="6.70861">
        <ele>1889.13</ele>
        <time>2016-01-26T09:25:17Z</time>
      </trkpt>
      <trkpt lat="44.80104" lon="6.70861">
        <ele>1888.17</ele>
        <time>2016-01-26T09:25:19Z</time>
      </trkpt>
      <trkpt lat="44.80105" lon="6.70862">
        <ele>1888.17</ele>
        <time>2016-01-26T09:25:31Z</time>
      </trkpt>
      <trkpt lat="44.80115" lon="6.70859">
        <ele>1889.13</ele>
        <time>2016-01-26T09:25:45Z</time>
      </trkpt>
      <trkpt lat="44.80127" lon="6.70858">
        <ele>1890.57</ele>
        <time>2016-01-26T09:26:01Z</time>
      </trkpt>
      <trkpt lat="44.80136" lon="6.70857">
        <ele>1891.05</ele>
        <time>2016-01-26T09:26:17Z</time>
      </trkpt>
      <trkpt lat="44.80142" lon="6.70851">
        <ele>1892.01</ele>
        <time>2016-01-26T09:26:31Z</time>
      </trkpt>
      <trkpt lat="44.80151" lon="6.70843">
        <ele>1892.97</ele>
        <time>2016-01-26T09:26:45Z</time>
      </trkpt>
      <trkpt lat="44.80159" lon="6.70833">
        <ele>1893.93</ele>
        <time>2016-01-26T09:26:59Z</time>
      </trkpt>
      <trkpt lat="44.8016" lon="6.70827">
        <ele>1894.9</ele>
        <time>2016-01-26T09:27:13Z</time>
      </trkpt>
      <trkpt lat="44.80166" lon="6.70817">
        <ele>1895.86</ele>
        <time>2016-01-26T09:27:29Z</time>
      </trkpt>
      <trkpt lat="44.80175" lon="6.70811">
        <ele>1896.34</ele>
        <time>2016-01-26T09:27:45Z</time>
      </trkpt>
      <trkpt lat="44.8018" lon="6.70805">
        <ele>1896.82</ele>
        <time>2016-01-26T09:27:57Z</time>
      </trkpt>
      <trkpt lat="44.80189" lon="6.70793">
        <ele>1897.78</ele>
        <time>2016-01-26T09:28:15Z</time>
      </trkpt>
      <trkpt lat="44.80194" lon="6.70788">
        <ele>1898.26</ele>
        <time>2016-01-26T09:28:29Z</time>
      </trkpt>
      <trkpt lat="44.802" lon="6.70788">
        <ele>1899.22</ele>
        <time>2016-01-26T09:28:46Z</time>
      </trkpt>
      <trkpt lat="44.80205" lon="6.70787">
        <ele>1899.22</ele>
        <time>2016-01-26T09:29:02Z</time>
      </trkpt>
      <trkpt lat="44.80209" lon="6.7079">
        <ele>1899.7</ele>
        <time>2016-01-26T09:29:15Z</time>
      </trkpt>
      <trkpt lat="44.80217" lon="6.70791">
        <ele>1900.18</ele>
        <time>2016-01-26T09:29:30Z</time>
      </trkpt>
      <trkpt lat="44.80225" lon="6.70787">
        <ele>1901.14</ele>
        <time>2016-01-26T09:29:45Z</time>
      </trkpt>
      <trkpt lat="44.80228" lon="6.70777">
        <ele>1901.63</ele>
        <time>2016-01-26T09:29:59Z</time>
      </trkpt>
      <trkpt lat="44.80236" lon="6.70769">
        <ele>1903.07</ele>
        <time>2016-01-26T09:30:15Z</time>
      </trkpt>
      <trkpt lat="44.80243" lon="6.70763">
        <ele>1904.03</ele>
        <time>2016-01-26T09:30:31Z</time>
      </trkpt>
      <trkpt lat="44.80252" lon="6.70763">
        <ele>1904.99</ele>
        <time>2016-01-26T09:30:45Z</time>
      </trkpt>
      <trkpt lat="44.80252" lon="6.70748">
        <ele>1905.47</ele>
        <time>2016-01-26T09:31:01Z</time>
      </trkpt>
      <trkpt lat="44.80262" lon="6.70741">
        <ele>1905.95</ele>
        <time>2016-01-26T09:31:17Z</time>
      </trkpt>
      <trkpt lat="44.80266" lon="6.70732">
        <ele>1906.43</ele>
        <time>2016-01-26T09:31:30Z</time>
      </trkpt>
      <trkpt lat="44.80276" lon="6.70728">
        <ele>1907.39</ele>
        <time>2016-01-26T09:31:46Z</time>
      </trkpt>
      <trkpt lat="44.8028" lon="6.70723">
        <ele>1907.39</ele>
        <time>2016-01-26T09:32:00Z</time>
      </trkpt>
      <trkpt lat="44.80282" lon="6.70723">
        <ele>1908.83</ele>
        <time>2016-01-26T09:32:03Z</time>
      </trkpt>
      <trkpt lat="44.80292" lon="6.70721">
        <ele>1909.32</ele>
        <time>2016-01-26T09:32:20Z</time>
      </trkpt>
      <trkpt lat="44.80298" lon="6.70717">
        <ele>1910.28</ele>
        <time>2016-01-26T09:32:31Z</time>
      </trkpt>
      <trkpt lat="44.80306" lon="6.70716">
        <ele>1910.76</ele>
        <time>2016-01-26T09:32:44Z</time>
      </trkpt>
      <trkpt lat="44.80309" lon="6.70705">
        <ele>1911.72</ele>
        <time>2016-01-26T09:32:58Z</time>
      </trkpt>
      <trkpt lat="44.80312" lon="6.70692">
        <ele>1912.68</ele>
        <time>2016-01-26T09:33:14Z</time>
      </trkpt>
      <trkpt lat="44.80318" lon="6.70688">
        <ele>1913.16</ele>
        <time>2016-01-26T09:33:26Z</time>
      </trkpt>
      <trkpt lat="44.80323" lon="6.7068">
        <ele>1914.12</ele>
        <time>2016-01-26T09:33:40Z</time>
      </trkpt>
      <trkpt lat="44.80328" lon="6.70673">
        <ele>1915.56</ele>
        <time>2016-01-26T09:33:57Z</time>
      </trkpt>
      <trkpt lat="44.80333" lon="6.70675">
        <ele>1916.04</ele>
        <time>2016-01-26T09:34:10Z</time>
      </trkpt>
      <trkpt lat="44.80345" lon="6.70675">
        <ele>1916.53</ele>
        <time>2016-01-26T09:34:26Z</time>
      </trkpt>
      <trkpt lat="44.80354" lon="6.70676">
        <ele>1917.49</ele>
        <time>2016-01-26T09:34:43Z</time>
      </trkpt>
      <trkpt lat="44.80359" lon="6.70669">
        <ele>1918.45</ele>
        <time>2016-01-26T09:35:00Z</time>
      </trkpt>
      <trkpt lat="44.80362" lon="6.70658">
        <ele>1918.93</ele>
        <time>2016-01-26T09:35:14Z</time>
      </trkpt>
      <trkpt lat="44.80365" lon="6.70654">
        <ele>1920.37</ele>
        <time>2016-01-26T09:35:26Z</time>
      </trkpt>
      <trkpt lat="44.80368" lon="6.70651">
        <ele>1921.81</ele>
        <time>2016-01-26T09:35:42Z</time>
      </trkpt>
      <trkpt lat="44.80378" lon="6.70651">
        <ele>1922.29</ele>
        <time>2016-01-26T09:36:01Z</time>
      </trkpt>
      <trkpt lat="44.80384" lon="6.70651">
        <ele>1922.77</ele>
        <time>2016-01-26T09:36:16Z</time>
      </trkpt>
      <trkpt lat="44.80385" lon="6.70645">
        <ele>1922.77</ele>
        <time>2016-01-26T09:36:39Z</time>
      </trkpt>
      <trkpt lat="44.80383" lon="6.70643">
        <ele>1923.25</ele>
        <time>2016-01-26T09:37:00Z</time>
      </trkpt>
      <trkpt lat="44.80382" lon="6.7064">
        <ele>1923.25</ele>
        <time>2016-01-26T09:37:22Z</time>
      </trkpt>
      <trkpt lat="44.80382" lon="6.70635">
        <ele>1923.25</ele>
        <time>2016-01-26T09:37:42Z</time>
      </trkpt>
      <trkpt lat="44.80383" lon="6.70635">
        <ele>1923.25</ele>
        <time>2016-01-26T09:38:05Z</time>
      </trkpt>
      <trkpt lat="44.80383" lon="6.70636">
        <ele>1923.25</ele>
        <time>2016-01-26T09:38:18Z</time>
      </trkpt>
      <trkpt lat="44.80385" lon="6.70637">
        <ele>1923.74</ele>
        <time>2016-01-26T09:38:45Z</time>
      </trkpt>
      <trkpt lat="44.80382" lon="6.70635">
        <ele>1923.74</ele>
        <time>2016-01-26T09:39:07Z</time>
      </trkpt>
      <trkpt lat="44.80382" lon="6.70634">
        <ele>1923.74</ele>
        <time>2016-01-26T09:39:32Z</time>
      </trkpt>
      <trkpt lat="44.80382" lon="6.70631">
        <ele>1923.74</ele>
        <time>2016-01-26T09:39:57Z</time>
      </trkpt>
      <trkpt lat="44.8038" lon="6.70632">
        <ele>1924.22</ele>
        <time>2016-01-26T09:40:24Z</time>
      </trkpt>
      <trkpt lat="44.80387" lon="6.70637">
        <ele>1924.22</ele>
        <time>2016-01-26T09:40:43Z</time>
      </trkpt>
      <trkpt lat="44.80398" lon="6.70633">
        <ele>1925.66</ele>
        <time>2016-01-26T09:40:58Z</time>
      </trkpt>
      <trkpt lat="44.80403" lon="6.70628">
        <ele>1926.62</ele>
        <time>2016-01-26T09:41:12Z</time>
      </trkpt>
      <trkpt lat="44.80408" lon="6.70623">
        <ele>1927.58</ele>
        <time>2016-01-26T09:41:27Z</time>
      </trkpt>
      <trkpt lat="44.80409" lon="6.70616">
        <ele>1928.06</ele>
        <time>2016-01-26T09:41:42Z</time>
      </trkpt>
      <trkpt lat="44.8041" lon="6.70607">
        <ele>1929.02</ele>
        <time>2016-01-26T09:41:58Z</time>
      </trkpt>
      <trkpt lat="44.80418" lon="6.70602">
        <ele>1929.98</ele>
        <time>2016-01-26T09:42:14Z</time>
      </trkpt>
      <trkpt lat="44.8042" lon="6.70598">
        <ele>1930.95</ele>
        <time>2016-01-26T09:42:36Z</time>
      </trkpt>
      <trkpt lat="44.80425" lon="6.70594">
        <ele>1931.91</ele>
        <time>2016-01-26T09:42:52Z</time>
      </trkpt>
      <trkpt lat="44.80423" lon="6.70586">
        <ele>1933.35</ele>
        <time>2016-01-26T09:43:08Z</time>
      </trkpt>
      <trkpt lat="44.80426" lon="6.70579">
        <ele>1934.31</ele>
        <time>2016-01-26T09:43:26Z</time>
      </trkpt>
      <trkpt lat="44.80435" lon="6.70578">
        <ele>1935.27</ele>
        <time>2016-01-26T09:43:42Z</time>
      </trkpt>
      <trkpt lat="44.80438" lon="6.7058">
        <ele>1935.75</ele>
        <time>2016-01-26T09:43:57Z</time>
      </trkpt>
      <trkpt lat="44.80441" lon="6.70574">
        <ele>1936.71</ele>
        <time>2016-01-26T09:44:10Z</time>
      </trkpt>
      <trkpt lat="44.80444" lon="6.70566">
        <ele>1938.16</ele>
        <time>2016-01-26T09:44:25Z</time>
      </trkpt>
      <trkpt lat="44.80447" lon="6.70564">
        <ele>1938.16</ele>
        <time>2016-01-26T09:44:33Z</time>
      </trkpt>
      <trkpt lat="44.80451" lon="6.70559">
        <ele>1939.12</ele>
        <time>2016-01-26T09:44:46Z</time>
      </trkpt>
      <trkpt lat="44.80452" lon="6.70555">
        <ele>1940.08</ele>
        <time>2016-01-26T09:45:01Z</time>
      </trkpt>
      <trkpt lat="44.80451" lon="6.70551">
        <ele>1940.08</ele>
        <time>2016-01-26T09:45:24Z</time>
      </trkpt>
      <trkpt lat="44.80456" lon="6.70547">
        <ele>1942</ele>
        <time>2016-01-26T09:45:41Z</time>
      </trkpt>
      <trkpt lat="44.80462" lon="6.70548">
        <ele>1942.96</ele>
        <time>2016-01-26T09:45:55Z</time>
      </trkpt>
      <trkpt lat="44.80463" lon="6.70543">
        <ele>1942.96</ele>
        <time>2016-01-26T09:46:08Z</time>
      </trkpt>
      <trkpt lat="44.80464" lon="6.70535">
        <ele>1944.4</ele>
        <time>2016-01-26T09:46:21Z</time>
      </trkpt>
      <trkpt lat="44.80464" lon="6.7053">
        <ele>1944.4</ele>
        <time>2016-01-26T09:46:43Z</time>
      </trkpt>
      <trkpt lat="44.80466" lon="6.70524">
        <ele>1945.85</ele>
        <time>2016-01-26T09:47:01Z</time>
      </trkpt>
      <trkpt lat="44.80469" lon="6.7052">
        <ele>1946.81</ele>
        <time>2016-01-26T09:47:15Z</time>
      </trkpt>
      <trkpt lat="44.80467" lon="6.7052">
        <ele>1947.29</ele>
        <time>2016-01-26T09:47:37Z</time>
      </trkpt>
      <trkpt lat="44.80474" lon="6.70517">
        <ele>1947.77</ele>
        <time>2016-01-26T09:47:53Z</time>
      </trkpt>
      <trkpt lat="44.80475" lon="6.7051">
        <ele>1949.21</ele>
        <time>2016-01-26T09:48:08Z</time>
      </trkpt>
      <trkpt lat="44.8048" lon="6.70502">
        <ele>1950.65</ele>
        <time>2016-01-26T09:48:23Z</time>
      </trkpt>
      <trkpt lat="44.80482" lon="6.70492">
        <ele>1951.61</ele>
        <time>2016-01-26T09:48:38Z</time>
      </trkpt>
      <trkpt lat="44.80484" lon="6.70485">
        <ele>1953.06</ele>
        <time>2016-01-26T09:48:53Z</time>
      </trkpt>
      <trkpt lat="44.8049" lon="6.70481">
        <ele>1954.98</ele>
        <time>2016-01-26T09:49:10Z</time>
      </trkpt>
      <trkpt lat="44.80492" lon="6.70482">
        <ele>1955.46</ele>
        <time>2016-01-26T09:49:28Z</time>
      </trkpt>
      <trkpt lat="44.80492" lon="6.70485">
        <ele>1955.46</ele>
        <time>2016-01-26T09:49:53Z</time>
      </trkpt>
      <trkpt lat="44.80493" lon="6.70485">
        <ele>1955.46</ele>
        <time>2016-01-26T09:50:17Z</time>
      </trkpt>
      <trkpt lat="44.80493" lon="6.70487">
        <ele>1955.46</ele>
        <time>2016-01-26T09:50:34Z</time>
      </trkpt>
      <trkpt lat="44.80492" lon="6.70489">
        <ele>1955.46</ele>
        <time>2016-01-26T09:50:56Z</time>
      </trkpt>
      <trkpt lat="44.80493" lon="6.70488">
        <ele>1955.46</ele>
        <time>2016-01-26T09:51:26Z</time>
      </trkpt>
      <trkpt lat="44.80493" lon="6.70488">
        <ele>1955.46</ele>
        <time>2016-01-26T09:51:45Z</time>
      </trkpt>
      <trkpt lat="44.80496" lon="6.70489">
        <ele>1955.46</ele>
        <time>2016-01-26T09:52:07Z</time>
      </trkpt>
      <trkpt lat="44.80494" lon="6.70488">
        <ele>1955.46</ele>
        <time>2016-01-26T09:52:35Z</time>
      </trkpt>
      <trkpt lat="44.80493" lon="6.7049">
        <ele>1955.46</ele>
        <time>2016-01-26T09:53:03Z</time>
      </trkpt>
      <trkpt lat="44.80493" lon="6.70488">
        <ele>1955.46</ele>
        <time>2016-01-26T09:53:26Z</time>
      </trkpt>
      <trkpt lat="44.80496" lon="6.70487">
        <ele>1956.42</ele>
        <time>2016-01-26T09:53:44Z</time>
      </trkpt>
      <trkpt lat="44.80497" lon="6.70484">
        <ele>1956.42</ele>
        <time>2016-01-26T09:54:01Z</time>
      </trkpt>
      <trkpt lat="44.80501" lon="6.70478">
        <ele>1957.86</ele>
        <time>2016-01-26T09:54:19Z</time>
      </trkpt>
      <trkpt lat="44.805" lon="6.70469">
        <ele>1959.3</ele>
        <time>2016-01-26T09:54:32Z</time>
      </trkpt>
      <trkpt lat="44.80504" lon="6.70465">
        <ele>1961.23</ele>
        <time>2016-01-26T09:54:47Z</time>
      </trkpt>
      <trkpt lat="44.80504" lon="6.7046">
        <ele>1961.23</ele>
        <time>2016-01-26T09:55:00Z</time>
      </trkpt>
      <trkpt lat="44.80506" lon="6.70455">
        <ele>1962.67</ele>
        <time>2016-01-26T09:55:14Z</time>
      </trkpt>
      <trkpt lat="44.8051" lon="6.7045">
        <ele>1964.11</ele>
        <time>2016-01-26T09:55:29Z</time>
      </trkpt>
      <trkpt lat="44.80516" lon="6.70449">
        <ele>1965.55</ele>
        <time>2016-01-26T09:55:44Z</time>
      </trkpt>
      <trkpt lat="44.80519" lon="6.70449">
        <ele>1966.51</ele>
        <time>2016-01-26T09:56:00Z</time>
      </trkpt>
      <trkpt lat="44.80525" lon="6.70445">
        <ele>1967.96</ele>
        <time>2016-01-26T09:56:16Z</time>
      </trkpt>
      <trkpt lat="44.80528" lon="6.70444">
        <ele>1968.92</ele>
        <time>2016-01-26T09:56:30Z</time>
      </trkpt>
      <trkpt lat="44.80532" lon="6.7044">
        <ele>1970.36</ele>
        <time>2016-01-26T09:56:48Z</time>
      </trkpt>
      <trkpt lat="44.80538" lon="6.70442">
        <ele>1970.84</ele>
        <time>2016-01-26T09:57:03Z</time>
      </trkpt>
      <trkpt lat="44.8054" lon="6.70442">
        <ele>1971.32</ele>
        <time>2016-01-26T09:57:23Z</time>
      </trkpt>
      <trkpt lat="44.80547" lon="6.70443">
        <ele>1972.28</ele>
        <time>2016-01-26T09:57:36Z</time>
      </trkpt>
      <trkpt lat="44.80553" lon="6.70441">
        <ele>1973.72</ele>
        <time>2016-01-26T09:57:51Z</time>
      </trkpt>
      <trkpt lat="44.80552" lon="6.70435">
        <ele>1974.2</ele>
        <time>2016-01-26T09:58:07Z</time>
      </trkpt>
      <trkpt lat="44.80551" lon="6.70432">
        <ele>1974.2</ele>
        <time>2016-01-26T09:58:25Z</time>
      </trkpt>
      <trkpt lat="44.80554" lon="6.7043">
        <ele>1975.17</ele>
        <time>2016-01-26T09:58:37Z</time>
      </trkpt>
      <trkpt lat="44.80554" lon="6.70425">
        <ele>1977.09</ele>
        <time>2016-01-26T09:58:52Z</time>
      </trkpt>
      <trkpt lat="44.80554" lon="6.70417">
        <ele>1978.53</ele>
        <time>2016-01-26T09:59:10Z</time>
      </trkpt>
      <trkpt lat="44.80551" lon="6.70416">
        <ele>1979.49</ele>
        <time>2016-01-26T09:59:30Z</time>
      </trkpt>
      <trkpt lat="44.80556" lon="6.70418">
        <ele>1979.97</ele>
        <time>2016-01-26T09:59:49Z</time>
      </trkpt>
      <trkpt lat="44.80558" lon="6.70422">
        <ele>1979.97</ele>
        <time>2016-01-26T10:00:04Z</time>
      </trkpt>
      <trkpt lat="44.80559" lon="6.7042">
        <ele>1980.45</ele>
        <time>2016-01-26T10:00:26Z</time>
      </trkpt>
      <trkpt lat="44.80562" lon="6.70424">
        <ele>1980.45</ele>
        <time>2016-01-26T10:00:51Z</time>
      </trkpt>
      <trkpt lat="44.80558" lon="6.70421">
        <ele>1980.45</ele>
        <time>2016-01-26T10:01:13Z</time>
      </trkpt>
      <trkpt lat="44.80558" lon="6.70423">
        <ele>1980.45</ele>
        <time>2016-01-26T10:01:35Z</time>
      </trkpt>
      <trkpt lat="44.80558" lon="6.70425">
        <ele>1980.45</ele>
        <time>2016-01-26T10:01:58Z</time>
      </trkpt>
      <trkpt lat="44.80558" lon="6.70419">
        <ele>1980.45</ele>
        <time>2016-01-26T10:02:22Z</time>
      </trkpt>
      <trkpt lat="44.8056" lon="6.70424">
        <ele>1980.45</ele>
        <time>2016-01-26T10:02:42Z</time>
      </trkpt>
      <trkpt lat="44.80565" lon="6.70426">
        <ele>1980.45</ele>
        <time>2016-01-26T10:02:56Z</time>
      </trkpt>
      <trkpt lat="44.80568" lon="6.70424">
        <ele>1982.86</ele>
        <time>2016-01-26T10:03:11Z</time>
      </trkpt>
      <trkpt lat="44.80574" lon="6.70426">
        <ele>1983.82</ele>
        <time>2016-01-26T10:03:26Z</time>
      </trkpt>
      <trkpt lat="44.80577" lon="6.70425">
        <ele>1984.3</ele>
        <time>2016-01-26T10:03:38Z</time>
      </trkpt>
      <trkpt lat="44.80579" lon="6.70421">
        <ele>1985.74</ele>
        <time>2016-01-26T10:03:52Z</time>
      </trkpt>
      <trkpt lat="44.80581" lon="6.70428">
        <ele>1987.18</ele>
        <time>2016-01-26T10:04:09Z</time>
      </trkpt>
      <trkpt lat="44.80583" lon="6.70422">
        <ele>1988.14</ele>
        <time>2016-01-26T10:04:25Z</time>
      </trkpt>
      <trkpt lat="44.80585" lon="6.70424">
        <ele>1989.1</ele>
        <time>2016-01-26T10:04:37Z</time>
      </trkpt>
      <trkpt lat="44.80587" lon="6.70426">
        <ele>1990.07</ele>
        <time>2016-01-26T10:04:56Z</time>
      </trkpt>
      <trkpt lat="44.80593" lon="6.70432">
        <ele>1992.47</ele>
        <time>2016-01-26T10:05:15Z</time>
      </trkpt>
      <trkpt lat="44.80598" lon="6.70437">
        <ele>1994.39</ele>
        <time>2016-01-26T10:05:32Z</time>
      </trkpt>
      <trkpt lat="44.80602" lon="6.70437">
        <ele>1995.35</ele>
        <time>2016-01-26T10:05:48Z</time>
      </trkpt>
      <trkpt lat="44.80605" lon="6.70435">
        <ele>1995.83</ele>
        <time>2016-01-26T10:06:06Z</time>
      </trkpt>
      <trkpt lat="44.80603" lon="6.70428">
        <ele>1997.28</ele>
        <time>2016-01-26T10:06:23Z</time>
      </trkpt>
      <trkpt lat="44.80606" lon="6.70427">
        <ele>1998.72</ele>
        <time>2016-01-26T10:06:38Z</time>
      </trkpt>
      <trkpt lat="44.80609" lon="6.70427">
        <ele>1999.68</ele>
        <time>2016-01-26T10:06:57Z</time>
      </trkpt>
      <trkpt lat="44.80613" lon="6.70423">
        <ele>2000.64</ele>
        <time>2016-01-26T10:07:13Z</time>
      </trkpt>
      <trkpt lat="44.80617" lon="6.70425">
        <ele>2003.04</ele>
        <time>2016-01-26T10:07:27Z</time>
      </trkpt>
      <trkpt lat="44.80619" lon="6.70426">
        <ele>2004.49</ele>
        <time>2016-01-26T10:07:44Z</time>
      </trkpt>
      <trkpt lat="44.80623" lon="6.70428">
        <ele>2006.89</ele>
        <time>2016-01-26T10:07:56Z</time>
      </trkpt>
      <trkpt lat="44.80621" lon="6.7043">
        <ele>2007.37</ele>
        <time>2016-01-26T10:08:15Z</time>
      </trkpt>
      <trkpt lat="44.80624" lon="6.7044">
        <ele>2008.33</ele>
        <time>2016-01-26T10:08:34Z</time>
      </trkpt>
      <trkpt lat="44.80626" lon="6.7044">
        <ele>2009.29</ele>
        <time>2016-01-26T10:08:49Z</time>
      </trkpt>
      <trkpt lat="44.80629" lon="6.70436">
        <ele>2009.29</ele>
        <time>2016-01-26T10:09:06Z</time>
      </trkpt>
      <trkpt lat="44.80632" lon="6.70436">
        <ele>2011.7</ele>
        <time>2016-01-26T10:09:21Z</time>
      </trkpt>
      <trkpt lat="44.80634" lon="6.70439">
        <ele>2012.66</ele>
        <time>2016-01-26T10:09:35Z</time>
      </trkpt>
      <trkpt lat="44.80635" lon="6.70437">
        <ele>2012.66</ele>
        <time>2016-01-26T10:09:54Z</time>
      </trkpt>
      <trkpt lat="44.80636" lon="6.70437">
        <ele>2012.66</ele>
        <time>2016-01-26T10:10:14Z</time>
      </trkpt>
      <trkpt lat="44.80637" lon="6.70432">
        <ele>2013.14</ele>
        <time>2016-01-26T10:10:32Z</time>
      </trkpt>
      <trkpt lat="44.80639" lon="6.70424">
        <ele>2013.62</ele>
        <time>2016-01-26T10:10:49Z</time>
      </trkpt>
      <trkpt lat="44.8064" lon="6.70416">
        <ele>2015.54</ele>
        <time>2016-01-26T10:11:04Z</time>
      </trkpt>
      <trkpt lat="44.80646" lon="6.7041">
        <ele>2016.98</ele>
        <time>2016-01-26T10:11:18Z</time>
      </trkpt>
      <trkpt lat="44.80649" lon="6.70401">
        <ele>2019.39</ele>
        <time>2016-01-26T10:11:34Z</time>
      </trkpt>
      <trkpt lat="44.80651" lon="6.70389">
        <ele>2020.83</ele>
        <time>2016-01-26T10:11:51Z</time>
      </trkpt>
      <trkpt lat="44.80655" lon="6.70379">
        <ele>2023.23</ele>
        <time>2016-01-26T10:12:06Z</time>
      </trkpt>
      <trkpt lat="44.80657" lon="6.70372">
        <ele>2024.19</ele>
        <time>2016-01-26T10:12:23Z</time>
      </trkpt>
      <trkpt lat="44.80657" lon="6.70364">
        <ele>2025.15</ele>
        <time>2016-01-26T10:12:38Z</time>
      </trkpt>
      <trkpt lat="44.80659" lon="6.70355">
        <ele>2027.56</ele>
        <time>2016-01-26T10:12:55Z</time>
      </trkpt>
      <trkpt lat="44.8066" lon="6.70349">
        <ele>2029</ele>
        <time>2016-01-26T10:13:08Z</time>
      </trkpt>
      <trkpt lat="44.80661" lon="6.70337">
        <ele>2030.92</ele>
        <time>2016-01-26T10:13:26Z</time>
      </trkpt>
      <trkpt lat="44.80658" lon="6.70328">
        <ele>2033.81</ele>
        <time>2016-01-26T10:13:41Z</time>
      </trkpt>
      <trkpt lat="44.80656" lon="6.7033">
        <ele>2034.29</ele>
        <time>2016-01-26T10:13:55Z</time>
      </trkpt>
      <trkpt lat="44.80656" lon="6.7033">
        <ele>2034.29</ele>
        <time>2016-01-26T10:14:13Z</time>
      </trkpt>
      <trkpt lat="44.80658" lon="6.70329">
        <ele>2034.77</ele>
        <time>2016-01-26T10:14:38Z</time>
      </trkpt>
      <trkpt lat="44.80655" lon="6.70329">
        <ele>2034.77</ele>
        <time>2016-01-26T10:14:52Z</time>
      </trkpt>
      <trkpt lat="44.80652" lon="6.70329">
        <ele>2034.77</ele>
        <time>2016-01-26T10:15:11Z</time>
      </trkpt>
      <trkpt lat="44.80645" lon="6.70318">
        <ele>2035.25</ele>
        <time>2016-01-26T10:15:26Z</time>
      </trkpt>
      <trkpt lat="44.80637" lon="6.70304">
        <ele>2036.21</ele>
        <time>2016-01-26T10:15:45Z</time>
      </trkpt>
      <trkpt lat="44.80629" lon="6.70293">
        <ele>2036.69</ele>
        <time>2016-01-26T10:15:59Z</time>
      </trkpt>
      <trkpt lat="44.80625" lon="6.70278">
        <ele>2038.13</ele>
        <time>2016-01-26T10:16:16Z</time>
      </trkpt>
      <trkpt lat="44.80622" lon="6.70266">
        <ele>2039.57</ele>
        <time>2016-01-26T10:16:31Z</time>
      </trkpt>
      <trkpt lat="44.80619" lon="6.70253">
        <ele>2041.5</ele>
        <time>2016-01-26T10:16:45Z</time>
      </trkpt>
      <trkpt lat="44.80612" lon="6.70242">
        <ele>2042.94</ele>
        <time>2016-01-26T10:17:00Z</time>
      </trkpt>
      <trkpt lat="44.80601" lon="6.7023">
        <ele>2044.38</ele>
        <time>2016-01-26T10:17:19Z</time>
      </trkpt>
      <trkpt lat="44.80596" lon="6.70223">
        <ele>2045.82</ele>
        <time>2016-01-26T10:17:32Z</time>
      </trkpt>
      <trkpt lat="44.80587" lon="6.70217">
        <ele>2047.26</ele>
        <time>2016-01-26T10:17:46Z</time>
      </trkpt>
      <trkpt lat="44.80585" lon="6.70213">
        <ele>2048.71</ele>
        <time>2016-01-26T10:18:03Z</time>
      </trkpt>
      <trkpt lat="44.80589" lon="6.70208">
        <ele>2048.71</ele>
        <time>2016-01-26T10:18:19Z</time>
      </trkpt>
      <trkpt lat="44.80588" lon="6.70207">
        <ele>2048.71</ele>
        <time>2016-01-26T10:18:35Z</time>
      </trkpt>
      <trkpt lat="44.80589" lon="6.70204">
        <ele>2048.71</ele>
        <time>2016-01-26T10:18:50Z</time>
      </trkpt>
      <trkpt lat="44.80588" lon="6.70205">
        <ele>2048.71</ele>
        <time>2016-01-26T10:19:06Z</time>
      </trkpt>
      <trkpt lat="44.80588" lon="6.70204">
        <ele>2048.23</ele>
        <time>2016-01-26T10:19:27Z</time>
      </trkpt>
      <trkpt lat="44.80587" lon="6.70209">
        <ele>2047.75</ele>
        <time>2016-01-26T10:19:44Z</time>
      </trkpt>
      <trkpt lat="44.80588" lon="6.70209">
        <ele>2047.26</ele>
        <time>2016-01-26T10:19:59Z</time>
      </trkpt>
      <trkpt lat="44.80588" lon="6.70211">
        <ele>2047.26</ele>
        <time>2016-01-26T10:20:21Z</time>
      </trkpt>
      <trkpt lat="44.80588" lon="6.70213">
        <ele>2051.11</ele>
        <time>2016-01-26T10:20:28Z</time>
      </trkpt>
      <trkpt lat="44.80588" lon="6.70213">
        <ele>2048.23</ele>
        <time>2016-01-26T10:20:29Z</time>
      </trkpt>
      <trkpt lat="44.80587" lon="6.70211">
        <ele>2047.75</ele>
        <time>2016-01-26T10:20:53Z</time>
      </trkpt>
      <trkpt lat="44.80584" lon="6.70211">
        <ele>2047.75</ele>
        <time>2016-01-26T10:21:15Z</time>
      </trkpt>
      <trkpt lat="44.80586" lon="6.70219">
        <ele>2047.75</ele>
        <time>2016-01-26T10:21:29Z</time>
      </trkpt>
      <trkpt lat="44.80582" lon="6.70217">
        <ele>2047.75</ele>
        <time>2016-01-26T10:21:42Z</time>
      </trkpt>
      <trkpt lat="44.80583" lon="6.70213">
        <ele>2049.19</ele>
        <time>2016-01-26T10:21:49Z</time>
      </trkpt>
      <trkpt lat="44.80588" lon="6.70212">
        <ele>2049.19</ele>
        <time>2016-01-26T10:22:13Z</time>
      </trkpt>
      <trkpt lat="44.80588" lon="6.70208">
        <ele>2049.19</ele>
        <time>2016-01-26T10:22:32Z</time>
      </trkpt>
      <trkpt lat="44.80588" lon="6.70208">
        <ele>2049.19</ele>
        <time>2016-01-26T10:23:04Z</time>
      </trkpt>
      <trkpt lat="44.8059" lon="6.70207">
        <ele>2049.19</ele>
        <time>2016-01-26T10:23:29Z</time>
      </trkpt>
      <trkpt lat="44.8059" lon="6.70209">
        <ele>2047.75</ele>
        <time>2016-01-26T10:23:48Z</time>
      </trkpt>
      <trkpt lat="44.80588" lon="6.7021">
        <ele>2049.67</ele>
        <time>2016-01-26T10:23:50Z</time>
      </trkpt>
      <trkpt lat="44.80586" lon="6.70212">
        <ele>2048.71</ele>
        <time>2016-01-26T10:23:54Z</time>
      </trkpt>
      <trkpt lat="44.80583" lon="6.70216">
        <ele>2048.71</ele>
        <time>2016-01-26T10:24:16Z</time>
      </trkpt>
      <trkpt lat="44.80583" lon="6.70213">
        <ele>2048.23</ele>
        <time>2016-01-26T10:24:40Z</time>
      </trkpt>
      <trkpt lat="44.80587" lon="6.70215">
        <ele>2048.23</ele>
        <time>2016-01-26T10:25:00Z</time>
      </trkpt>
      <trkpt lat="44.8059" lon="6.7021">
        <ele>2048.23</ele>
        <time>2016-01-26T10:25:16Z</time>
      </trkpt>
      <trkpt lat="44.80592" lon="6.70197">
        <ele>2048.23</ele>
        <time>2016-01-26T10:25:34Z</time>
      </trkpt>
      <trkpt lat="44.80591" lon="6.70184">
        <ele>2050.63</ele>
        <time>2016-01-26T10:25:52Z</time>
      </trkpt>
      <trkpt lat="44.80592" lon="6.70172">
        <ele>2052.07</ele>
        <time>2016-01-26T10:26:09Z</time>
      </trkpt>
      <trkpt lat="44.80592" lon="6.70158">
        <ele>2053.51</ele>
        <time>2016-01-26T10:26:26Z</time>
      </trkpt>
      <trkpt lat="44.80592" lon="6.70143">
        <ele>2054.47</ele>
        <time>2016-01-26T10:26:45Z</time>
      </trkpt>
      <trkpt lat="44.80592" lon="6.70133">
        <ele>2055.92</ele>
        <time>2016-01-26T10:27:01Z</time>
      </trkpt>
      <trkpt lat="44.80591" lon="6.70124">
        <ele>2056.4</ele>
        <time>2016-01-26T10:27:16Z</time>
      </trkpt>
      <trkpt lat="44.8059" lon="6.70113">
        <ele>2057.36</ele>
        <time>2016-01-26T10:27:31Z</time>
      </trkpt>
      <trkpt lat="44.80589" lon="6.70103">
        <ele>2058.32</ele>
        <time>2016-01-26T10:27:45Z</time>
      </trkpt>
      <trkpt lat="44.8059" lon="6.70088">
        <ele>2059.28</ele>
        <time>2016-01-26T10:28:02Z</time>
      </trkpt>
      <trkpt lat="44.80588" lon="6.70079">
        <ele>2059.76</ele>
        <time>2016-01-26T10:28:18Z</time>
      </trkpt>
      <trkpt lat="44.8059" lon="6.70075">
        <ele>2060.72</ele>
        <time>2016-01-26T10:28:34Z</time>
      </trkpt>
      <trkpt lat="44.80587" lon="6.70057">
        <ele>2062.17</ele>
        <time>2016-01-26T10:28:53Z</time>
      </trkpt>
      <trkpt lat="44.80588" lon="6.70046">
        <ele>2063.61</ele>
        <time>2016-01-26T10:29:06Z</time>
      </trkpt>
      <trkpt lat="44.80587" lon="6.70036">
        <ele>2064.57</ele>
        <time>2016-01-26T10:29:19Z</time>
      </trkpt>
      <trkpt lat="44.80586" lon="6.7003">
        <ele>2065.53</ele>
        <time>2016-01-26T10:29:35Z</time>
      </trkpt>
      <trkpt lat="44.80588" lon="6.70029">
        <ele>2066.49</ele>
        <time>2016-01-26T10:29:55Z</time>
      </trkpt>
      <trkpt lat="44.80584" lon="6.70019">
        <ele>2066.97</ele>
        <time>2016-01-26T10:30:13Z</time>
      </trkpt>
      <trkpt lat="44.8058" lon="6.70007">
        <ele>2067.93</ele>
        <time>2016-01-26T10:30:28Z</time>
      </trkpt>
      <trkpt lat="44.80575" lon="6.69997">
        <ele>2069.38</ele>
        <time>2016-01-26T10:30:44Z</time>
      </trkpt>
      <trkpt lat="44.80574" lon="6.6999">
        <ele>2071.3</ele>
        <time>2016-01-26T10:30:57Z</time>
      </trkpt>
      <trkpt lat="44.8058" lon="6.69987">
        <ele>2072.26</ele>
        <time>2016-01-26T10:31:15Z</time>
      </trkpt>
      <trkpt lat="44.80582" lon="6.70003">
        <ele>2073.22</ele>
        <time>2016-01-26T10:31:30Z</time>
      </trkpt>
      <trkpt lat="44.80589" lon="6.70012">
        <ele>2074.18</ele>
        <time>2016-01-26T10:31:42Z</time>
      </trkpt>
      <trkpt lat="44.80593" lon="6.70027">
        <ele>2074.18</ele>
        <time>2016-01-26T10:31:58Z</time>
      </trkpt>
      <trkpt lat="44.806" lon="6.70043">
        <ele>2075.14</ele>
        <time>2016-01-26T10:32:15Z</time>
      </trkpt>
      <trkpt lat="44.80603" lon="6.70054">
        <ele>2075.62</ele>
        <time>2016-01-26T10:32:30Z</time>
      </trkpt>
      <trkpt lat="44.80608" lon="6.70067">
        <ele>2077.07</ele>
        <time>2016-01-26T10:32:48Z</time>
      </trkpt>
      <trkpt lat="44.80612" lon="6.70082">
        <ele>2078.03</ele>
        <time>2016-01-26T10:33:04Z</time>
      </trkpt>
      <trkpt lat="44.80617" lon="6.701">
        <ele>2078.99</ele>
        <time>2016-01-26T10:33:24Z</time>
      </trkpt>
      <trkpt lat="44.80625" lon="6.70104">
        <ele>2079.47</ele>
        <time>2016-01-26T10:33:37Z</time>
      </trkpt>
      <trkpt lat="44.80625" lon="6.70099">
        <ele>2079.47</ele>
        <time>2016-01-26T10:33:55Z</time>
      </trkpt>
      <trkpt lat="44.80625" lon="6.70097">
        <ele>2079.95</ele>
        <time>2016-01-26T10:34:23Z</time>
      </trkpt>
      <trkpt lat="44.80624" lon="6.701">
        <ele>2079.47</ele>
        <time>2016-01-26T10:34:41Z</time>
      </trkpt>
      <trkpt lat="44.80622" lon="6.701">
        <ele>2079.95</ele>
        <time>2016-01-26T10:35:08Z</time>
      </trkpt>
      <trkpt lat="44.80625" lon="6.70096">
        <ele>2080.43</ele>
        <time>2016-01-26T10:35:35Z</time>
      </trkpt>
      <trkpt lat="44.80621" lon="6.70094">
        <ele>2080.43</ele>
        <time>2016-01-26T10:36:04Z</time>
      </trkpt>
      <trkpt lat="44.80617" lon="6.70089">
        <ele>2079.95</ele>
        <time>2016-01-26T10:36:25Z</time>
      </trkpt>
      <trkpt lat="44.8062" lon="6.70076">
        <ele>2080.43</ele>
        <time>2016-01-26T10:36:41Z</time>
      </trkpt>
      <trkpt lat="44.80622" lon="6.70056">
        <ele>2082.35</ele>
        <time>2016-01-26T10:36:59Z</time>
      </trkpt>
      <trkpt lat="44.80624" lon="6.7004">
        <ele>2082.83</ele>
        <time>2016-01-26T10:37:14Z</time>
      </trkpt>
      <trkpt lat="44.80623" lon="6.7003">
        <ele>2083.79</ele>
        <time>2016-01-26T10:37:27Z</time>
      </trkpt>
      <trkpt lat="44.80625" lon="6.70019">
        <ele>2085.24</ele>
        <time>2016-01-26T10:37:41Z</time>
      </trkpt>
      <trkpt lat="44.80623" lon="6.70008">
        <ele>2086.2</ele>
        <time>2016-01-26T10:37:56Z</time>
      </trkpt>
      <trkpt lat="44.80623" lon="6.7">
        <ele>2087.16</ele>
        <time>2016-01-26T10:38:08Z</time>
      </trkpt>
      <trkpt lat="44.80619" lon="6.69991">
        <ele>2088.12</ele>
        <time>2016-01-26T10:38:25Z</time>
      </trkpt>
      <trkpt lat="44.80619" lon="6.69979">
        <ele>2089.56</ele>
        <time>2016-01-26T10:38:40Z</time>
      </trkpt>
      <trkpt lat="44.8062" lon="6.69964">
        <ele>2091</ele>
        <time>2016-01-26T10:38:57Z</time>
      </trkpt>
      <trkpt lat="44.80622" lon="6.69956">
        <ele>2092.93</ele>
        <time>2016-01-26T10:39:13Z</time>
      </trkpt>
      <trkpt lat="44.80623" lon="6.69971">
        <ele>2092.93</ele>
        <time>2016-01-26T10:39:27Z</time>
      </trkpt>
      <trkpt lat="44.80623" lon="6.69986">
        <ele>2093.41</ele>
        <time>2016-01-26T10:39:41Z</time>
      </trkpt>
      <trkpt lat="44.80626" lon="6.70006">
        <ele>2093.41</ele>
        <time>2016-01-26T10:40:01Z</time>
      </trkpt>
      <trkpt lat="44.80632" lon="6.70021">
        <ele>2094.37</ele>
        <time>2016-01-26T10:40:20Z</time>
      </trkpt>
      <trkpt lat="44.80636" lon="6.70031">
        <ele>2095.33</ele>
        <time>2016-01-26T10:40:34Z</time>
      </trkpt>
      <trkpt lat="44.80639" lon="6.70027">
        <ele>2096.29</ele>
        <time>2016-01-26T10:40:50Z</time>
      </trkpt>
      <trkpt lat="44.80635" lon="6.70019">
        <ele>2096.77</ele>
        <time>2016-01-26T10:41:04Z</time>
      </trkpt>
      <trkpt lat="44.80636" lon="6.7001">
        <ele>2097.25</ele>
        <time>2016-01-26T10:41:25Z</time>
      </trkpt>
      <trkpt lat="44.80638" lon="6.69999">
        <ele>2098.21</ele>
        <time>2016-01-26T10:41:37Z</time>
      </trkpt>
      <trkpt lat="44.8064" lon="6.69976">
        <ele>2099.18</ele>
        <time>2016-01-26T10:41:53Z</time>
      </trkpt>
      <trkpt lat="44.80638" lon="6.69961">
        <ele>2100.62</ele>
        <time>2016-01-26T10:42:07Z</time>
      </trkpt>
      <trkpt lat="44.80635" lon="6.69946">
        <ele>2100.62</ele>
        <time>2016-01-26T10:42:22Z</time>
      </trkpt>
      <trkpt lat="44.80632" lon="6.69932">
        <ele>2101.58</ele>
        <time>2016-01-26T10:42:36Z</time>
      </trkpt>
      <trkpt lat="44.80625" lon="6.69925">
        <ele>2102.54</ele>
        <time>2016-01-26T10:42:50Z</time>
      </trkpt>
      <trkpt lat="44.80624" lon="6.69917">
        <ele>2103.5</ele>
        <time>2016-01-26T10:43:08Z</time>
      </trkpt>
      <trkpt lat="44.80626" lon="6.69923">
        <ele>2103.5</ele>
        <time>2016-01-26T10:43:21Z</time>
      </trkpt>
      <trkpt lat="44.80624" lon="6.69916">
        <ele>2103.5</ele>
        <time>2016-01-26T10:43:43Z</time>
      </trkpt>
      <trkpt lat="44.80621" lon="6.69897">
        <ele>2103.5</ele>
        <time>2016-01-26T10:43:57Z</time>
      </trkpt>
      <trkpt lat="44.80617" lon="6.69886">
        <ele>2104.46</ele>
        <time>2016-01-26T10:44:12Z</time>
      </trkpt>
      <trkpt lat="44.80608" lon="6.69877">
        <ele>2105.91</ele>
        <time>2016-01-26T10:44:28Z</time>
      </trkpt>
      <trkpt lat="44.80597" lon="6.69878">
        <ele>2106.87</ele>
        <time>2016-01-26T10:44:44Z</time>
      </trkpt>
      <trkpt lat="44.8059" lon="6.69872">
        <ele>2107.35</ele>
        <time>2016-01-26T10:44:58Z</time>
      </trkpt>
      <trkpt lat="44.8058" lon="6.69864">
        <ele>2108.79</ele>
        <time>2016-01-26T10:45:13Z</time>
      </trkpt>
      <trkpt lat="44.80576" lon="6.69852">
        <ele>2109.75</ele>
        <time>2016-01-26T10:45:29Z</time>
      </trkpt>
      <trkpt lat="44.80578" lon="6.69846">
        <ele>2109.75</ele>
        <time>2016-01-26T10:45:45Z</time>
      </trkpt>
      <trkpt lat="44.80573" lon="6.69855">
        <ele>2109.75</ele>
        <time>2016-01-26T10:46:02Z</time>
      </trkpt>
      <trkpt lat="44.80572" lon="6.69849">
        <ele>2109.27</ele>
        <time>2016-01-26T10:46:15Z</time>
      </trkpt>
      <trkpt lat="44.80566" lon="6.69836">
        <ele>2111.19</ele>
        <time>2016-01-26T10:46:30Z</time>
      </trkpt>
      <trkpt lat="44.80555" lon="6.69825">
        <ele>2112.63</ele>
        <time>2016-01-26T10:46:48Z</time>
      </trkpt>
      <trkpt lat="44.80546" lon="6.69822">
        <ele>2113.6</ele>
        <time>2016-01-26T10:47:04Z</time>
      </trkpt>
      <trkpt lat="44.80538" lon="6.69815">
        <ele>2114.56</ele>
        <time>2016-01-26T10:47:19Z</time>
      </trkpt>
      <trkpt lat="44.80533" lon="6.69809">
        <ele>2116.48</ele>
        <time>2016-01-26T10:47:37Z</time>
      </trkpt>
      <trkpt lat="44.80531" lon="6.69809">
        <ele>2116.48</ele>
        <time>2016-01-26T10:47:55Z</time>
      </trkpt>
      <trkpt lat="44.80524" lon="6.69802">
        <ele>2116.96</ele>
        <time>2016-01-26T10:48:13Z</time>
      </trkpt>
      <trkpt lat="44.80515" lon="6.69793">
        <ele>2118.4</ele>
        <time>2016-01-26T10:48:30Z</time>
      </trkpt>
      <trkpt lat="44.80507" lon="6.69788">
        <ele>2120.81</ele>
        <time>2016-01-26T10:48:46Z</time>
      </trkpt>
      <trkpt lat="44.80499" lon="6.69784">
        <ele>2121.77</ele>
        <time>2016-01-26T10:49:00Z</time>
      </trkpt>
      <trkpt lat="44.80493" lon="6.69781">
        <ele>2123.21</ele>
        <time>2016-01-26T10:49:14Z</time>
      </trkpt>
      <trkpt lat="44.80487" lon="6.69771">
        <ele>2124.17</ele>
        <time>2016-01-26T10:49:30Z</time>
      </trkpt>
      <trkpt lat="44.80477" lon="6.69762">
        <ele>2125.61</ele>
        <time>2016-01-26T10:49:46Z</time>
      </trkpt>
      <trkpt lat="44.80473" lon="6.69762">
        <ele>2127.05</ele>
        <time>2016-01-26T10:50:01Z</time>
      </trkpt>
      <trkpt lat="44.80471" lon="6.69766">
        <ele>2127.05</ele>
        <time>2016-01-26T10:50:21Z</time>
      </trkpt>
      <trkpt lat="44.8047" lon="6.69768">
        <ele>2127.05</ele>
        <time>2016-01-26T10:50:44Z</time>
      </trkpt>
      <trkpt lat="44.80467" lon="6.69764">
        <ele>2127.05</ele>
        <time>2016-01-26T10:50:59Z</time>
      </trkpt>
      <trkpt lat="44.80464" lon="6.69769">
        <ele>2127.05</ele>
        <time>2016-01-26T10:51:21Z</time>
      </trkpt>
      <trkpt lat="44.80461" lon="6.6977">
        <ele>2127.53</ele>
        <time>2016-01-26T10:51:39Z</time>
      </trkpt>
      <trkpt lat="44.80457" lon="6.69769">
        <ele>2128.5</ele>
        <time>2016-01-26T10:51:54Z</time>
      </trkpt>
      <trkpt lat="44.80449" lon="6.69773">
        <ele>2129.94</ele>
        <time>2016-01-26T10:52:10Z</time>
      </trkpt>
      <trkpt lat="44.80444" lon="6.69778">
        <ele>2130.42</ele>
        <time>2016-01-26T10:52:24Z</time>
      </trkpt>
      <trkpt lat="44.80444" lon="6.69776">
        <ele>2130.42</ele>
        <time>2016-01-26T10:52:48Z</time>
      </trkpt>
      <trkpt lat="44.80441" lon="6.69779">
        <ele>2130.9</ele>
        <time>2016-01-26T10:53:02Z</time>
      </trkpt>
      <trkpt lat="44.80439" lon="6.69776">
        <ele>2130.9</ele>
        <time>2016-01-26T10:53:23Z</time>
      </trkpt>
      <trkpt lat="44.80428" lon="6.69765">
        <ele>2132.82</ele>
        <time>2016-01-26T10:53:42Z</time>
      </trkpt>
      <trkpt lat="44.80418" lon="6.69757">
        <ele>2133.3</ele>
        <time>2016-01-26T10:53:58Z</time>
      </trkpt>
      <trkpt lat="44.80417" lon="6.69757">
        <ele>2133.3</ele>
        <time>2016-01-26T10:54:12Z</time>
      </trkpt>
      <trkpt lat="44.80419" lon="6.69754">
        <ele>2133.3</ele>
        <time>2016-01-26T10:54:37Z</time>
      </trkpt>
      <trkpt lat="44.80417" lon="6.69755">
        <ele>2133.3</ele>
        <time>2016-01-26T10:54:57Z</time>
      </trkpt>
      <trkpt lat="44.80415" lon="6.69762">
        <ele>2133.3</ele>
        <time>2016-01-26T10:55:18Z</time>
      </trkpt>
      <trkpt lat="44.80415" lon="6.69764">
        <ele>2133.3</ele>
        <time>2016-01-26T10:55:44Z</time>
      </trkpt>
      <trkpt lat="44.80413" lon="6.69764">
        <ele>2133.3</ele>
        <time>2016-01-26T10:56:05Z</time>
      </trkpt>
      <trkpt lat="44.80416" lon="6.69763">
        <ele>2133.78</ele>
        <time>2016-01-26T10:56:45Z</time>
      </trkpt>
      <trkpt lat="44.80416" lon="6.69766">
        <ele>2133.78</ele>
        <time>2016-01-26T10:57:14Z</time>
      </trkpt>
      <trkpt lat="44.80414" lon="6.69759">
        <ele>2133.78</ele>
        <time>2016-01-26T10:57:33Z</time>
      </trkpt>
      <trkpt lat="44.80413" lon="6.69761">
        <ele>2134.26</ele>
        <time>2016-01-26T10:58:01Z</time>
      </trkpt>
      <trkpt lat="44.80414" lon="6.69759">
        <ele>2134.74</ele>
        <time>2016-01-26T10:58:15Z</time>
      </trkpt>
      <trkpt lat="44.80413" lon="6.69757">
        <ele>2134.74</ele>
        <time>2016-01-26T10:58:30Z</time>
      </trkpt>
      <trkpt lat="44.80413" lon="6.69756">
        <ele>2134.74</ele>
        <time>2016-01-26T10:58:31Z</time>
      </trkpt>
      <trkpt lat="44.80409" lon="6.69745">
        <ele>2134.74</ele>
        <time>2016-01-26T10:58:43Z</time>
      </trkpt>
      <trkpt lat="44.80406" lon="6.69727">
        <ele>2134.74</ele>
        <time>2016-01-26T10:58:58Z</time>
      </trkpt>
      <trkpt lat="44.80403" lon="6.69714">
        <ele>2134.74</ele>
        <time>2016-01-26T10:59:10Z</time>
      </trkpt>
      <trkpt lat="44.80402" lon="6.69702">
        <ele>2135.23</ele>
        <time>2016-01-26T10:59:24Z</time>
      </trkpt>
      <trkpt lat="44.80401" lon="6.69688">
        <ele>2135.23</ele>
        <time>2016-01-26T10:59:38Z</time>
      </trkpt>
      <trkpt lat="44.80397" lon="6.69674">
        <ele>2135.23</ele>
        <time>2016-01-26T10:59:51Z</time>
      </trkpt>
      <trkpt lat="44.80397" lon="6.6966">
        <ele>2134.26</ele>
        <time>2016-01-26T11:00:05Z</time>
      </trkpt>
      <trkpt lat="44.80397" lon="6.69658">
        <ele>2134.26</ele>
        <time>2016-01-26T11:00:14Z</time>
      </trkpt>
      <trkpt lat="44.80399" lon="6.69645">
        <ele>2133.78</ele>
        <time>2016-01-26T11:00:25Z</time>
      </trkpt>
      <trkpt lat="44.80401" lon="6.6964">
        <ele>2133.78</ele>
        <time>2016-01-26T11:00:30Z</time>
      </trkpt>
      <trkpt lat="44.80398" lon="6.69623">
        <ele>2132.82</ele>
        <time>2016-01-26T11:00:43Z</time>
      </trkpt>
      <trkpt lat="44.80396" lon="6.69605">
        <ele>2132.82</ele>
        <time>2016-01-26T11:00:57Z</time>
      </trkpt>
      <trkpt lat="44.80394" lon="6.69587">
        <ele>2134.26</ele>
        <time>2016-01-26T11:01:11Z</time>
      </trkpt>
      <trkpt lat="44.80392" lon="6.69579">
        <ele>2134.26</ele>
        <time>2016-01-26T11:01:17Z</time>
      </trkpt>
      <trkpt lat="44.80391" lon="6.69576">
        <ele>2134.26</ele>
        <time>2016-01-26T11:01:19Z</time>
      </trkpt>
      <trkpt lat="44.80384" lon="6.69557">
        <ele>2134.26</ele>
        <time>2016-01-26T11:01:33Z</time>
      </trkpt>
      <trkpt lat="44.80383" lon="6.69552">
        <ele>2134.26</ele>
        <time>2016-01-26T11:01:37Z</time>
      </trkpt>
      <trkpt lat="44.80379" lon="6.69543">
        <ele>2134.26</ele>
        <time>2016-01-26T11:01:53Z</time>
      </trkpt>
      <trkpt lat="44.80378" lon="6.69543">
        <ele>2134.26</ele>
        <time>2016-01-26T11:02:11Z</time>
      </trkpt>
      <trkpt lat="44.8038" lon="6.69547">
        <ele>2134.26</ele>
        <time>2016-01-26T11:02:38Z</time>
      </trkpt>
      <trkpt lat="44.80379" lon="6.69547">
        <ele>2134.26</ele>
        <time>2016-01-26T11:03:01Z</time>
      </trkpt>
      <trkpt lat="44.80378" lon="6.69548">
        <ele>2134.26</ele>
        <time>2016-01-26T11:03:23Z</time>
      </trkpt>
      <trkpt lat="44.80376" lon="6.69543">
        <ele>2134.74</ele>
        <time>2016-01-26T11:03:40Z</time>
      </trkpt>
      <trkpt lat="44.80364" lon="6.69539">
        <ele>2135.71</ele>
        <time>2016-01-26T11:03:57Z</time>
      </trkpt>
      <trkpt lat="44.80349" lon="6.69537">
        <ele>2136.19</ele>
        <time>2016-01-26T11:04:14Z</time>
      </trkpt>
      <trkpt lat="44.80339" lon="6.69536">
        <ele>2134.26</ele>
        <time>2016-01-26T11:04:28Z</time>
      </trkpt>
      <trkpt lat="44.80335" lon="6.69535">
        <ele>2133.78</ele>
        <time>2016-01-26T11:04:32Z</time>
      </trkpt>
      <trkpt lat="44.80322" lon="6.69527">
        <ele>2132.82</ele>
        <time>2016-01-26T11:04:48Z</time>
      </trkpt>
      <trkpt lat="44.80308" lon="6.6952">
        <ele>2132.34</ele>
        <time>2016-01-26T11:05:04Z</time>
      </trkpt>
      <trkpt lat="44.80297" lon="6.69513">
        <ele>2132.34</ele>
        <time>2016-01-26T11:05:18Z</time>
      </trkpt>
      <trkpt lat="44.80289" lon="6.69511">
        <ele>2132.34</ele>
        <time>2016-01-26T11:05:34Z</time>
      </trkpt>
      <trkpt lat="44.80277" lon="6.69506">
        <ele>2131.38</ele>
        <time>2016-01-26T11:05:47Z</time>
      </trkpt>
      <trkpt lat="44.80263" lon="6.69499">
        <ele>2130.9</ele>
        <time>2016-01-26T11:06:02Z</time>
      </trkpt>
      <trkpt lat="44.80252" lon="6.69495">
        <ele>2131.86</ele>
        <time>2016-01-26T11:06:15Z</time>
      </trkpt>
      <trkpt lat="44.80238" lon="6.69489">
        <ele>2132.82</ele>
        <time>2016-01-26T11:06:31Z</time>
      </trkpt>
      <trkpt lat="44.80237" lon="6.69488">
        <ele>2132.82</ele>
        <time>2016-01-26T11:06:32Z</time>
      </trkpt>
      <trkpt lat="44.80227" lon="6.69486">
        <ele>2132.82</ele>
        <time>2016-01-26T11:06:45Z</time>
      </trkpt>
      <trkpt lat="44.80219" lon="6.69486">
        <ele>2133.78</ele>
        <time>2016-01-26T11:07:01Z</time>
      </trkpt>
      <trkpt lat="44.80216" lon="6.69487">
        <ele>2133.78</ele>
        <time>2016-01-26T11:07:28Z</time>
      </trkpt>
      <trkpt lat="44.80215" lon="6.6949">
        <ele>2133.78</ele>
        <time>2016-01-26T11:07:54Z</time>
      </trkpt>
      <trkpt lat="44.80217" lon="6.6949">
        <ele>2134.26</ele>
        <time>2016-01-26T11:08:22Z</time>
      </trkpt>
      <trkpt lat="44.80207" lon="6.6949">
        <ele>2134.26</ele>
        <time>2016-01-26T11:08:37Z</time>
      </trkpt>
      <trkpt lat="44.80194" lon="6.69493">
        <ele>2135.23</ele>
        <time>2016-01-26T11:08:55Z</time>
      </trkpt>
      <trkpt lat="44.80183" lon="6.69494">
        <ele>2135.71</ele>
        <time>2016-01-26T11:09:12Z</time>
      </trkpt>
      <trkpt lat="44.80172" lon="6.69497">
        <ele>2136.67</ele>
        <time>2016-01-26T11:09:29Z</time>
      </trkpt>
      <trkpt lat="44.80162" lon="6.69503">
        <ele>2138.11</ele>
        <time>2016-01-26T11:09:48Z</time>
      </trkpt>
      <trkpt lat="44.80158" lon="6.69503">
        <ele>2139.07</ele>
        <time>2016-01-26T11:10:03Z</time>
      </trkpt>
      <trkpt lat="44.80151" lon="6.69504">
        <ele>2140.03</ele>
        <time>2016-01-26T11:10:21Z</time>
      </trkpt>
      <trkpt lat="44.80138" lon="6.69509">
        <ele>2141.95</ele>
        <time>2016-01-26T11:10:43Z</time>
      </trkpt>
      <trkpt lat="44.80128" lon="6.69512">
        <ele>2143.4</ele>
        <time>2016-01-26T11:11:02Z</time>
      </trkpt>
      <trkpt lat="44.80121" lon="6.69508">
        <ele>2144.84</ele>
        <time>2016-01-26T11:11:18Z</time>
      </trkpt>
      <trkpt lat="44.80114" lon="6.69499">
        <ele>2145.8</ele>
        <time>2016-01-26T11:11:37Z</time>
      </trkpt>
      <trkpt lat="44.80106" lon="6.6949">
        <ele>2146.76</ele>
        <time>2016-01-26T11:11:54Z</time>
      </trkpt>
      <trkpt lat="44.80098" lon="6.6948">
        <ele>2148.2</ele>
        <time>2016-01-26T11:12:11Z</time>
      </trkpt>
      <trkpt lat="44.80097" lon="6.69477">
        <ele>2148.68</ele>
        <time>2016-01-26T11:12:25Z</time>
      </trkpt>
      <trkpt lat="44.80093" lon="6.6947">
        <ele>2149.16</ele>
        <time>2016-01-26T11:12:41Z</time>
      </trkpt>
      <trkpt lat="44.80088" lon="6.69456">
        <ele>2150.61</ele>
        <time>2016-01-26T11:12:56Z</time>
      </trkpt>
      <trkpt lat="44.80086" lon="6.69442">
        <ele>2152.05</ele>
        <time>2016-01-26T11:13:12Z</time>
      </trkpt>
      <trkpt lat="44.80083" lon="6.69441">
        <ele>2152.53</ele>
        <time>2016-01-26T11:13:26Z</time>
      </trkpt>
      <trkpt lat="44.8008" lon="6.69441">
        <ele>2152.53</ele>
        <time>2016-01-26T11:13:45Z</time>
      </trkpt>
      <trkpt lat="44.8008" lon="6.69441">
        <ele>2152.53</ele>
        <time>2016-01-26T11:14:12Z</time>
      </trkpt>
      <trkpt lat="44.80079" lon="6.69441">
        <ele>2152.53</ele>
        <time>2016-01-26T11:14:41Z</time>
      </trkpt>
      <trkpt lat="44.80067" lon="6.69438">
        <ele>2153.97</ele>
        <time>2016-01-26T11:15:00Z</time>
      </trkpt>
      <trkpt lat="44.80059" lon="6.69443">
        <ele>2154.93</ele>
        <time>2016-01-26T11:15:18Z</time>
      </trkpt>
      <trkpt lat="44.80051" lon="6.6945">
        <ele>2155.89</ele>
        <time>2016-01-26T11:15:35Z</time>
      </trkpt>
      <trkpt lat="44.80043" lon="6.69451">
        <ele>2158.3</ele>
        <time>2016-01-26T11:15:54Z</time>
      </trkpt>
      <trkpt lat="44.80035" lon="6.6945">
        <ele>2160.22</ele>
        <time>2016-01-26T11:16:09Z</time>
      </trkpt>
      <trkpt lat="44.80034" lon="6.69448">
        <ele>2160.7</ele>
        <time>2016-01-26T11:16:27Z</time>
      </trkpt>
      <trkpt lat="44.80029" lon="6.69445">
        <ele>2161.66</ele>
        <time>2016-01-26T11:16:45Z</time>
      </trkpt>
      <trkpt lat="44.80022" lon="6.69437">
        <ele>2163.58</ele>
        <time>2016-01-26T11:17:02Z</time>
      </trkpt>
      <trkpt lat="44.80019" lon="6.69429">
        <ele>2165.03</ele>
        <time>2016-01-26T11:17:16Z</time>
      </trkpt>
      <trkpt lat="44.80016" lon="6.69419">
        <ele>2167.43</ele>
        <time>2016-01-26T11:17:33Z</time>
      </trkpt>
      <trkpt lat="44.80021" lon="6.69417">
        <ele>2167.91</ele>
        <time>2016-01-26T11:17:50Z</time>
      </trkpt>
      <trkpt lat="44.80031" lon="6.69424">
        <ele>2169.83</ele>
        <time>2016-01-26T11:18:04Z</time>
      </trkpt>
      <trkpt lat="44.80033" lon="6.69428">
        <ele>2170.31</ele>
        <time>2016-01-26T11:18:23Z</time>
      </trkpt>
      <trkpt lat="44.80041" lon="6.69431">
        <ele>2171.76</ele>
        <time>2016-01-26T11:18:40Z</time>
      </trkpt>
      <trkpt lat="44.80041" lon="6.69421">
        <ele>2172.72</ele>
        <time>2016-01-26T11:18:56Z</time>
      </trkpt>
      <trkpt lat="44.80033" lon="6.69406">
        <ele>2173.68</ele>
        <time>2016-01-26T11:19:11Z</time>
      </trkpt>
      <trkpt lat="44.80029" lon="6.69395">
        <ele>2174.64</ele>
        <time>2016-01-26T11:19:22Z</time>
      </trkpt>
      <trkpt lat="44.80022" lon="6.69384">
        <ele>2176.08</ele>
        <time>2016-01-26T11:19:36Z</time>
      </trkpt>
      <trkpt lat="44.80016" lon="6.69374">
        <ele>2177.52</ele>
        <time>2016-01-26T11:19:51Z</time>
      </trkpt>
      <trkpt lat="44.80015" lon="6.69377">
        <ele>2178</ele>
        <time>2016-01-26T11:20:05Z</time>
      </trkpt>
      <trkpt lat="44.80013" lon="6.69378">
        <ele>2178</ele>
        <time>2016-01-26T11:20:22Z</time>
      </trkpt>
      <trkpt lat="44.80011" lon="6.69376">
        <ele>2178</ele>
        <time>2016-01-26T11:20:44Z</time>
      </trkpt>
      <trkpt lat="44.80007" lon="6.69366">
        <ele>2178.48</ele>
        <time>2016-01-26T11:20:57Z</time>
      </trkpt>
      <trkpt lat="44.80002" lon="6.69356">
        <ele>2179.93</ele>
        <time>2016-01-26T11:21:13Z</time>
      </trkpt>
      <trkpt lat="44.79995" lon="6.69343">
        <ele>2181.85</ele>
        <time>2016-01-26T11:21:28Z</time>
      </trkpt>
      <trkpt lat="44.79991" lon="6.69336">
        <ele>2183.29</ele>
        <time>2016-01-26T11:21:43Z</time>
      </trkpt>
      <trkpt lat="44.79987" lon="6.69327">
        <ele>2184.25</ele>
        <time>2016-01-26T11:21:58Z</time>
      </trkpt>
      <trkpt lat="44.79981" lon="6.69317">
        <ele>2186.18</ele>
        <time>2016-01-26T11:22:13Z</time>
      </trkpt>
      <trkpt lat="44.79975" lon="6.69308">
        <ele>2188.1</ele>
        <time>2016-01-26T11:22:29Z</time>
      </trkpt>
      <trkpt lat="44.79973" lon="6.69304">
        <ele>2189.54</ele>
        <time>2016-01-26T11:22:46Z</time>
      </trkpt>
      <trkpt lat="44.79974" lon="6.69305">
        <ele>2190.02</ele>
        <time>2016-01-26T11:23:08Z</time>
      </trkpt>
      <trkpt lat="44.79971" lon="6.69301">
        <ele>2190.02</ele>
        <time>2016-01-26T11:23:25Z</time>
      </trkpt>
      <trkpt lat="44.79967" lon="6.693">
        <ele>2190.98</ele>
        <time>2016-01-26T11:23:41Z</time>
      </trkpt>
      <trkpt lat="44.79972" lon="6.69301">
        <ele>2191.46</ele>
        <time>2016-01-26T11:24:03Z</time>
      </trkpt>
      <trkpt lat="44.79969" lon="6.693">
        <ele>2190.98</ele>
        <time>2016-01-26T11:24:21Z</time>
      </trkpt>
      <trkpt lat="44.79969" lon="6.69299">
        <ele>2190.98</ele>
        <time>2016-01-26T11:24:22Z</time>
      </trkpt>
      <trkpt lat="44.79963" lon="6.69293">
        <ele>2192.42</ele>
        <time>2016-01-26T11:24:37Z</time>
      </trkpt>
      <trkpt lat="44.79957" lon="6.69291">
        <ele>2193.39</ele>
        <time>2016-01-26T11:24:54Z</time>
      </trkpt>
      <trkpt lat="44.79956" lon="6.69283">
        <ele>2195.31</ele>
        <time>2016-01-26T11:25:07Z</time>
      </trkpt>
      <trkpt lat="44.79959" lon="6.69283">
        <ele>2195.79</ele>
        <time>2016-01-26T11:25:25Z</time>
      </trkpt>
      <trkpt lat="44.79964" lon="6.69276">
        <ele>2197.71</ele>
        <time>2016-01-26T11:25:38Z</time>
      </trkpt>
      <trkpt lat="44.79967" lon="6.69272">
        <ele>2197.71</ele>
        <time>2016-01-26T11:25:52Z</time>
      </trkpt>
      <trkpt lat="44.79967" lon="6.69267">
        <ele>2198.19</ele>
        <time>2016-01-26T11:26:09Z</time>
      </trkpt>
      <trkpt lat="44.79964" lon="6.69269">
        <ele>2198.19</ele>
        <time>2016-01-26T11:26:36Z</time>
      </trkpt>
      <trkpt lat="44.79965" lon="6.69269">
        <ele>2198.67</ele>
        <time>2016-01-26T11:26:59Z</time>
      </trkpt>
      <trkpt lat="44.79965" lon="6.69257">
        <ele>2199.15</ele>
        <time>2016-01-26T11:27:20Z</time>
      </trkpt>
      <trkpt lat="44.7996" lon="6.69242">
        <ele>2200.11</ele>
        <time>2016-01-26T11:27:37Z</time>
      </trkpt>
      <trkpt lat="44.79956" lon="6.69231">
        <ele>2202.04</ele>
        <time>2016-01-26T11:27:54Z</time>
      </trkpt>
      <trkpt lat="44.79953" lon="6.6922">
        <ele>2203.48</ele>
        <time>2016-01-26T11:28:09Z</time>
      </trkpt>
      <trkpt lat="44.79951" lon="6.69207">
        <ele>2205.4</ele>
        <time>2016-01-26T11:28:26Z</time>
      </trkpt>
      <trkpt lat="44.79947" lon="6.69197">
        <ele>2206.84</ele>
        <time>2016-01-26T11:28:41Z</time>
      </trkpt>
      <trkpt lat="44.79942" lon="6.69188">
        <ele>2209.73</ele>
        <time>2016-01-26T11:29:01Z</time>
      </trkpt>
      <trkpt lat="44.79937" lon="6.69183">
        <ele>2211.65</ele>
        <time>2016-01-26T11:29:17Z</time>
      </trkpt>
      <trkpt lat="44.79932" lon="6.69175">
        <ele>2212.61</ele>
        <time>2016-01-26T11:29:31Z</time>
      </trkpt>
      <trkpt lat="44.79929" lon="6.6916">
        <ele>2214.53</ele>
        <time>2016-01-26T11:29:48Z</time>
      </trkpt>
      <trkpt lat="44.79924" lon="6.69149">
        <ele>2216.46</ele>
        <time>2016-01-26T11:30:06Z</time>
      </trkpt>
      <trkpt lat="44.79918" lon="6.69142">
        <ele>2217.9</ele>
        <time>2016-01-26T11:30:20Z</time>
      </trkpt>
      <trkpt lat="44.79918" lon="6.69144">
        <ele>2218.38</ele>
        <time>2016-01-26T11:30:34Z</time>
      </trkpt>
      <trkpt lat="44.79919" lon="6.69146">
        <ele>2218.38</ele>
        <time>2016-01-26T11:30:54Z</time>
      </trkpt>
      <trkpt lat="44.79919" lon="6.69147">
        <ele>2218.86</ele>
        <time>2016-01-26T11:31:22Z</time>
      </trkpt>
      <trkpt lat="44.7992" lon="6.69147">
        <ele>2218.86</ele>
        <time>2016-01-26T11:31:51Z</time>
      </trkpt>
      <trkpt lat="44.79919" lon="6.69145">
        <ele>2218.86</ele>
        <time>2016-01-26T11:32:09Z</time>
      </trkpt>
      <trkpt lat="44.79912" lon="6.69136">
        <ele>2219.34</ele>
        <time>2016-01-26T11:32:25Z</time>
      </trkpt>
      <trkpt lat="44.79906" lon="6.69131">
        <ele>2220.3</ele>
        <time>2016-01-26T11:32:39Z</time>
      </trkpt>
      <trkpt lat="44.79899" lon="6.69129">
        <ele>2220.3</ele>
        <time>2016-01-26T11:32:53Z</time>
      </trkpt>
      <trkpt lat="44.79894" lon="6.69126">
        <ele>2220.3</ele>
        <time>2016-01-26T11:33:04Z</time>
      </trkpt>
      <trkpt lat="44.79887" lon="6.6912">
        <ele>2219.82</ele>
        <time>2016-01-26T11:33:16Z</time>
      </trkpt>
      <trkpt lat="44.79876" lon="6.69109">
        <ele>2220.3</ele>
        <time>2016-01-26T11:33:31Z</time>
      </trkpt>
      <trkpt lat="44.79865" lon="6.69099">
        <ele>2220.3</ele>
        <time>2016-01-26T11:33:46Z</time>
      </trkpt>
      <trkpt lat="44.79855" lon="6.69092">
        <ele>2220.3</ele>
        <time>2016-01-26T11:34:01Z</time>
      </trkpt>
      <trkpt lat="44.79846" lon="6.69085">
        <ele>2220.3</ele>
        <time>2016-01-26T11:34:15Z</time>
      </trkpt>
      <trkpt lat="44.79838" lon="6.69074">
        <ele>2220.3</ele>
        <time>2016-01-26T11:34:28Z</time>
      </trkpt>
      <trkpt lat="44.79833" lon="6.69067">
        <ele>2219.34</ele>
        <time>2016-01-26T11:34:35Z</time>
      </trkpt>
      <trkpt lat="44.79824" lon="6.69055">
        <ele>2219.34</ele>
        <time>2016-01-26T11:34:49Z</time>
      </trkpt>
      <trkpt lat="44.79815" lon="6.69048">
        <ele>2218.86</ele>
        <time>2016-01-26T11:35:01Z</time>
      </trkpt>
      <trkpt lat="44.79804" lon="6.69037">
        <ele>2218.86</ele>
        <time>2016-01-26T11:35:16Z</time>
      </trkpt>
      <trkpt lat="44.79801" lon="6.69034">
        <ele>2220.3</ele>
        <time>2016-01-26T11:35:21Z</time>
      </trkpt>
      <trkpt lat="44.79791" lon="6.69026">
        <ele>2221.74</ele>
        <time>2016-01-26T11:35:37Z</time>
      </trkpt>
      <trkpt lat="44.7978" lon="6.69014">
        <ele>2223.19</ele>
        <time>2016-01-26T11:35:54Z</time>
      </trkpt>
      <trkpt lat="44.79774" lon="6.69009">
        <ele>2223.67</ele>
        <time>2016-01-26T11:36:08Z</time>
      </trkpt>
      <trkpt lat="44.79769" lon="6.69005">
        <ele>2223.67</ele>
        <time>2016-01-26T11:36:15Z</time>
      </trkpt>
      <trkpt lat="44.79759" lon="6.69007">
        <ele>2223.67</ele>
        <time>2016-01-26T11:36:29Z</time>
      </trkpt>
      <trkpt lat="44.79745" lon="6.69006">
        <ele>2223.67</ele>
        <time>2016-01-26T11:36:44Z</time>
      </trkpt>
      <trkpt lat="44.79731" lon="6.69003">
        <ele>2223.67</ele>
        <time>2016-01-26T11:36:59Z</time>
      </trkpt>
      <trkpt lat="44.79727" lon="6.68999">
        <ele>2223.67</ele>
        <time>2016-01-26T11:37:10Z</time>
      </trkpt>
      <trkpt lat="44.79719" lon="6.68989">
        <ele>2225.11</ele>
        <time>2016-01-26T11:37:25Z</time>
      </trkpt>
      <trkpt lat="44.79713" lon="6.68979">
        <ele>2225.11</ele>
        <time>2016-01-26T11:37:39Z</time>
      </trkpt>
      <trkpt lat="44.79711" lon="6.68974">
        <ele>2225.11</ele>
        <time>2016-01-26T11:37:58Z</time>
      </trkpt>
      <trkpt lat="44.79709" lon="6.68969">
        <ele>2225.11</ele>
        <time>2016-01-26T11:38:03Z</time>
      </trkpt>
      <trkpt lat="44.79705" lon="6.68951">
        <ele>2226.07</ele>
        <time>2016-01-26T11:38:19Z</time>
      </trkpt>
      <trkpt lat="44.79702" lon="6.68934">
        <ele>2227.03</ele>
        <time>2016-01-26T11:38:35Z</time>
      </trkpt>
      <trkpt lat="44.79705" lon="6.68924">
        <ele>2227.51</ele>
        <time>2016-01-26T11:38:50Z</time>
      </trkpt>
      <trkpt lat="44.79707" lon="6.68924">
        <ele>2227.99</ele>
        <time>2016-01-26T11:39:04Z</time>
      </trkpt>
      <trkpt lat="44.79711" lon="6.68922">
        <ele>2227.99</ele>
        <time>2016-01-26T11:39:21Z</time>
      </trkpt>
      <trkpt lat="44.79711" lon="6.68919">
        <ele>2227.99</ele>
        <time>2016-01-26T11:39:38Z</time>
      </trkpt>
      <trkpt lat="44.79711" lon="6.68921">
        <ele>2228.47</ele>
        <time>2016-01-26T11:39:54Z</time>
      </trkpt>
      <trkpt lat="44.79712" lon="6.6892">
        <ele>2228.47</ele>
        <time>2016-01-26T11:40:07Z</time>
      </trkpt>
      <trkpt lat="44.79712" lon="6.68919">
        <ele>2228.47</ele>
        <time>2016-01-26T11:40:26Z</time>
      </trkpt>
      <trkpt lat="44.79713" lon="6.68919">
        <ele>2228.47</ele>
        <time>2016-01-26T11:40:45Z</time>
      </trkpt>
      <trkpt lat="44.79714" lon="6.68918">
        <ele>2228.47</ele>
        <time>2016-01-26T11:41:01Z</time>
      </trkpt>
      <trkpt lat="44.79712" lon="6.68918">
        <ele>2228.47</ele>
        <time>2016-01-26T11:41:19Z</time>
      </trkpt>
      <trkpt lat="44.79712" lon="6.68919">
        <ele>2228.47</ele>
        <time>2016-01-26T11:41:34Z</time>
      </trkpt>
      <trkpt lat="44.79712" lon="6.68921">
        <ele>2228.47</ele>
        <time>2016-01-26T11:41:49Z</time>
      </trkpt>
      <trkpt lat="44.79713" lon="6.68922">
        <ele>2228.47</ele>
        <time>2016-01-26T11:42:01Z</time>
      </trkpt>
      <trkpt lat="44.79712" lon="6.68921">
        <ele>2228.47</ele>
        <time>2016-01-26T11:42:20Z</time>
      </trkpt>
      <trkpt lat="44.79713" lon="6.68921">
        <ele>2228.47</ele>
        <time>2016-01-26T11:42:35Z</time>
      </trkpt>
      <trkpt lat="44.79713" lon="6.6892">
        <ele>2228.47</ele>
        <time>2016-01-26T11:42:50Z</time>
      </trkpt>
      <trkpt lat="44.79711" lon="6.68919">
        <ele>2227.99</ele>
        <time>2016-01-26T11:43:05Z</time>
      </trkpt>
      <trkpt lat="44.7971" lon="6.68919">
        <ele>2227.99</ele>
        <time>2016-01-26T11:43:22Z</time>
      </trkpt>
      <trkpt lat="44.7971" lon="6.68919">
        <ele>2227.51</ele>
        <time>2016-01-26T11:43:41Z</time>
      </trkpt>
      <trkpt lat="44.7971" lon="6.68918">
        <ele>2227.51</ele>
        <time>2016-01-26T11:43:57Z</time>
      </trkpt>
      <trkpt lat="44.79711" lon="6.68918">
        <ele>2228.95</ele>
        <time>2016-01-26T11:44:08Z</time>
      </trkpt>
      <trkpt lat="44.79711" lon="6.6892">
        <ele>2228.95</ele>
        <time>2016-01-26T11:44:22Z</time>
      </trkpt>
      <trkpt lat="44.79711" lon="6.6892">
        <ele>2227.51</ele>
        <time>2016-01-26T11:44:40Z</time>
      </trkpt>
      <trkpt lat="44.79711" lon="6.68919">
        <ele>2227.51</ele>
        <time>2016-01-26T11:44:47Z</time>
      </trkpt>
      <trkpt lat="44.7971" lon="6.68919">
        <ele>2227.51</ele>
        <time>2016-01-26T11:45:01Z</time>
      </trkpt>
      <trkpt lat="44.79712" lon="6.68919">
        <ele>2227.51</ele>
        <time>2016-01-26T11:45:15Z</time>
      </trkpt>
      <trkpt lat="44.79716" lon="6.6892">
        <ele>2227.51</ele>
        <time>2016-01-26T11:45:39Z</time>
      </trkpt>
      <trkpt lat="44.79717" lon="6.68919">
        <ele>2227.99</ele>
        <time>2016-01-26T11:46:02Z</time>
      </trkpt>
      <trkpt lat="44.79716" lon="6.6892">
        <ele>2227.99</ele>
        <time>2016-01-26T11:46:29Z</time>
      </trkpt>
      <trkpt lat="44.79716" lon="6.68921">
        <ele>2227.99</ele>
        <time>2016-01-26T11:46:52Z</time>
      </trkpt>
      <trkpt lat="44.79716" lon="6.68922">
        <ele>2227.99</ele>
        <time>2016-01-26T11:47:22Z</time>
      </trkpt>
      <trkpt lat="44.79717" lon="6.68922">
        <ele>2227.99</ele>
        <time>2016-01-26T11:47:51Z</time>
      </trkpt>
      <trkpt lat="44.79718" lon="6.6892">
        <ele>2229.43</ele>
        <time>2016-01-26T11:48:13Z</time>
      </trkpt>
      <trkpt lat="44.79717" lon="6.6892">
        <ele>2226.55</ele>
        <time>2016-01-26T11:48:28Z</time>
      </trkpt>
      <trkpt lat="44.79712" lon="6.68917">
        <ele>2229.43</ele>
        <time>2016-01-26T12:17:20Z</time>
      </trkpt>
      <trkpt lat="44.79712" lon="6.6892">
        <ele>2229.43</ele>
        <time>2016-01-26T12:17:21Z</time>
      </trkpt>
      <trkpt lat="44.7971" lon="6.68921">
        <ele>2229.43</ele>
        <time>2016-01-26T12:17:38Z</time>
      </trkpt>
      <trkpt lat="44.7971" lon="6.68924">
        <ele>2229.43</ele>
        <time>2016-01-26T12:18:00Z</time>
      </trkpt>
      <trkpt lat="44.79708" lon="6.68923">
        <ele>2228.95</ele>
        <time>2016-01-26T12:18:13Z</time>
      </trkpt>
      <trkpt lat="44.79708" lon="6.68923">
        <ele>2228.95</ele>
        <time>2016-01-26T12:18:27Z</time>
      </trkpt>
      <trkpt lat="44.79708" lon="6.68922">
        <ele>2228.95</ele>
        <time>2016-01-26T12:18:39Z</time>
      </trkpt>
      <trkpt lat="44.79709" lon="6.68922">
        <ele>2228.95</ele>
        <time>2016-01-26T12:18:54Z</time>
      </trkpt>
      <trkpt lat="44.79708" lon="6.68925">
        <ele>2228.95</ele>
        <time>2016-01-26T12:19:08Z</time>
      </trkpt>
      <trkpt lat="44.79707" lon="6.68923">
        <ele>2228.95</ele>
        <time>2016-01-26T12:19:22Z</time>
      </trkpt>
      <trkpt lat="44.79708" lon="6.68922">
        <ele>2228.95</ele>
        <time>2016-01-26T12:19:34Z</time>
      </trkpt>
      <trkpt lat="44.79707" lon="6.68921">
        <ele>2228.95</ele>
        <time>2016-01-26T12:19:52Z</time>
      </trkpt>
      <trkpt lat="44.79707" lon="6.68919">
        <ele>2228.95</ele>
        <time>2016-01-26T12:20:07Z</time>
      </trkpt>
      <trkpt lat="44.79707" lon="6.68916">
        <ele>2228.95</ele>
        <time>2016-01-26T12:20:25Z</time>
      </trkpt>
      <trkpt lat="44.79708" lon="6.68916">
        <ele>2228.95</ele>
        <time>2016-01-26T12:20:41Z</time>
      </trkpt>
      <trkpt lat="44.79708" lon="6.68918">
        <ele>2229.92</ele>
        <time>2016-01-26T12:20:55Z</time>
      </trkpt>
      <trkpt lat="44.79709" lon="6.68919">
        <ele>2229.92</ele>
        <time>2016-01-26T12:21:15Z</time>
      </trkpt>
      <trkpt lat="44.79708" lon="6.68918">
        <ele>2229.92</ele>
        <time>2016-01-26T12:21:35Z</time>
      </trkpt>
      <trkpt lat="44.79708" lon="6.68921">
        <ele>2229.92</ele>
        <time>2016-01-26T12:21:57Z</time>
      </trkpt>
      <trkpt lat="44.79708" lon="6.68924">
        <ele>2229.92</ele>
        <time>2016-01-26T12:22:13Z</time>
      </trkpt>
      <trkpt lat="44.79707" lon="6.68924">
        <ele>2229.92</ele>
        <time>2016-01-26T12:22:29Z</time>
      </trkpt>
      <trkpt lat="44.79705" lon="6.68926">
        <ele>2229.92</ele>
        <time>2016-01-26T12:22:51Z</time>
      </trkpt>
      <trkpt lat="44.79702" lon="6.6893">
        <ele>2229.92</ele>
        <time>2016-01-26T12:23:05Z</time>
      </trkpt>
      <trkpt lat="44.79702" lon="6.6893">
        <ele>2229.92</ele>
        <time>2016-01-26T12:23:22Z</time>
      </trkpt>
      <trkpt lat="44.79701" lon="6.68932">
        <ele>2229.92</ele>
        <time>2016-01-26T12:23:43Z</time>
      </trkpt>
      <trkpt lat="44.79701" lon="6.68932">
        <ele>2229.92</ele>
        <time>2016-01-26T12:24:02Z</time>
      </trkpt>
      <trkpt lat="44.797" lon="6.68935">
        <ele>2229.43</ele>
        <time>2016-01-26T12:24:18Z</time>
      </trkpt>
      <trkpt lat="44.79703" lon="6.68932">
        <ele>2229.43</ele>
        <time>2016-01-26T12:24:32Z</time>
      </trkpt>
      <trkpt lat="44.79702" lon="6.68931">
        <ele>2229.43</ele>
        <time>2016-01-26T12:24:48Z</time>
      </trkpt>
      <trkpt lat="44.79702" lon="6.68932">
        <ele>2229.43</ele>
        <time>2016-01-26T12:25:09Z</time>
      </trkpt>
      <trkpt lat="44.797" lon="6.68936">
        <ele>2229.43</ele>
        <time>2016-01-26T12:25:35Z</time>
      </trkpt>
      <trkpt lat="44.79701" lon="6.68933">
        <ele>2229.43</ele>
        <time>2016-01-26T12:25:52Z</time>
      </trkpt>
      <trkpt lat="44.79703" lon="6.68932">
        <ele>2228.95</ele>
        <time>2016-01-26T12:26:10Z</time>
      </trkpt>
      <trkpt lat="44.79704" lon="6.68935">
        <ele>2228.95</ele>
        <time>2016-01-26T12:26:27Z</time>
      </trkpt>
      <trkpt lat="44.79699" lon="6.68936">
        <ele>2228.95</ele>
        <time>2016-01-26T12:26:40Z</time>
      </trkpt>
      <trkpt lat="44.79699" lon="6.68935">
        <ele>2228.95</ele>
        <time>2016-01-26T12:26:57Z</time>
      </trkpt>
      <trkpt lat="44.79699" lon="6.68932">
        <ele>2228.95</ele>
        <time>2016-01-26T12:27:15Z</time>
      </trkpt>
      <trkpt lat="44.797" lon="6.68929">
        <ele>2228.95</ele>
        <time>2016-01-26T12:27:31Z</time>
      </trkpt>
      <trkpt lat="44.79701" lon="6.68932">
        <ele>2228.95</ele>
        <time>2016-01-26T12:27:50Z</time>
      </trkpt>
      <trkpt lat="44.79701" lon="6.68932">
        <ele>2228.95</ele>
        <time>2016-01-26T12:28:12Z</time>
      </trkpt>
      <trkpt lat="44.79701" lon="6.68933">
        <ele>2228.95</ele>
        <time>2016-01-26T12:28:36Z</time>
      </trkpt>
      <trkpt lat="44.797" lon="6.68931">
        <ele>2228.95</ele>
        <time>2016-01-26T12:28:58Z</time>
      </trkpt>
      <trkpt lat="44.79699" lon="6.68931">
        <ele>2228.95</ele>
        <time>2016-01-26T12:29:25Z</time>
      </trkpt>
      <trkpt lat="44.797" lon="6.6893">
        <ele>2228.95</ele>
        <time>2016-01-26T12:29:42Z</time>
      </trkpt>
      <trkpt lat="44.797" lon="6.6893">
        <ele>2228.95</ele>
        <time>2016-01-26T12:30:10Z</time>
      </trkpt>
      <trkpt lat="44.79701" lon="6.68929">
        <ele>2228.95</ele>
        <time>2016-01-26T12:30:28Z</time>
      </trkpt>
      <trkpt lat="44.797" lon="6.68929">
        <ele>2228.95</ele>
        <time>2016-01-26T12:30:52Z</time>
      </trkpt>
      <trkpt lat="44.79699" lon="6.6893">
        <ele>2228.95</ele>
        <time>2016-01-26T12:31:22Z</time>
      </trkpt>
      <trkpt lat="44.797" lon="6.68929">
        <ele>2228.95</ele>
        <time>2016-01-26T12:31:43Z</time>
      </trkpt>
      <trkpt lat="44.79698" lon="6.68931">
        <ele>2228.47</ele>
        <time>2016-01-26T12:32:02Z</time>
      </trkpt>
      <trkpt lat="44.797" lon="6.6893">
        <ele>2228.47</ele>
        <time>2016-01-26T12:32:27Z</time>
      </trkpt>
      <trkpt lat="44.79701" lon="6.68931">
        <ele>2228.47</ele>
        <time>2016-01-26T12:32:48Z</time>
      </trkpt>
      <trkpt lat="44.79697" lon="6.68934">
        <ele>2228.95</ele>
        <time>2016-01-26T12:33:02Z</time>
      </trkpt>
      <trkpt lat="44.79696" lon="6.6894">
        <ele>2228.95</ele>
        <time>2016-01-26T12:33:24Z</time>
      </trkpt>
      <trkpt lat="44.79701" lon="6.68959">
        <ele>2227.51</ele>
        <time>2016-01-26T12:33:39Z</time>
      </trkpt>
      <trkpt lat="44.79706" lon="6.6898">
        <ele>2226.55</ele>
        <time>2016-01-26T12:33:55Z</time>
      </trkpt>
      <trkpt lat="44.79709" lon="6.68987">
        <ele>2226.55</ele>
        <time>2016-01-26T12:34:01Z</time>
      </trkpt>
      <trkpt lat="44.79721" lon="6.69007">
        <ele>2225.11</ele>
        <time>2016-01-26T12:34:16Z</time>
      </trkpt>
      <trkpt lat="44.79722" lon="6.69008">
        <ele>2225.11</ele>
        <time>2016-01-26T12:34:17Z</time>
      </trkpt>
      <trkpt lat="44.7974" lon="6.69016">
        <ele>2225.11</ele>
        <time>2016-01-26T12:34:35Z</time>
      </trkpt>
      <trkpt lat="44.79752" lon="6.69026">
        <ele>2225.11</ele>
        <time>2016-01-26T12:34:50Z</time>
      </trkpt>
      <trkpt lat="44.79763" lon="6.69023">
        <ele>2224.63</ele>
        <time>2016-01-26T12:35:04Z</time>
      </trkpt>
      <trkpt lat="44.79771" lon="6.69026">
        <ele>2224.63</ele>
        <time>2016-01-26T12:35:16Z</time>
      </trkpt>
      <trkpt lat="44.79782" lon="6.69035">
        <ele>2224.15</ele>
        <time>2016-01-26T12:35:32Z</time>
      </trkpt>
      <trkpt lat="44.79794" lon="6.69046">
        <ele>2221.26</ele>
        <time>2016-01-26T12:35:47Z</time>
      </trkpt>
      <trkpt lat="44.79808" lon="6.69055">
        <ele>2220.3</ele>
        <time>2016-01-26T12:36:03Z</time>
      </trkpt>
      <trkpt lat="44.79816" lon="6.6907">
        <ele>2220.3</ele>
        <time>2016-01-26T12:36:16Z</time>
      </trkpt>
      <trkpt lat="44.79828" lon="6.69081">
        <ele>2220.3</ele>
        <time>2016-01-26T12:36:31Z</time>
      </trkpt>
      <trkpt lat="44.79839" lon="6.69095">
        <ele>2221.26</ele>
        <time>2016-01-26T12:36:47Z</time>
      </trkpt>
      <trkpt lat="44.79849" lon="6.69102">
        <ele>2221.74</ele>
        <time>2016-01-26T12:37:02Z</time>
      </trkpt>
      <trkpt lat="44.79848" lon="6.69099">
        <ele>2221.74</ele>
        <time>2016-01-26T12:37:20Z</time>
      </trkpt>
      <trkpt lat="44.79851" lon="6.69097">
        <ele>2221.26</ele>
        <time>2016-01-26T12:38:01Z</time>
      </trkpt>
      <trkpt lat="44.79852" lon="6.69099">
        <ele>2221.26</ele>
        <time>2016-01-26T12:38:34Z</time>
      </trkpt>
      <trkpt lat="44.79854" lon="6.69101">
        <ele>2221.26</ele>
        <time>2016-01-26T12:38:40Z</time>
      </trkpt>
      <trkpt lat="44.79855" lon="6.69102">
        <ele>2221.26</ele>
        <time>2016-01-26T12:38:42Z</time>
      </trkpt>
      <trkpt lat="44.79867" lon="6.69112">
        <ele>2221.26</ele>
        <time>2016-01-26T12:38:58Z</time>
      </trkpt>
      <trkpt lat="44.79878" lon="6.69122">
        <ele>2221.26</ele>
        <time>2016-01-26T12:39:12Z</time>
      </trkpt>
      <trkpt lat="44.79884" lon="6.69125">
        <ele>2221.26</ele>
        <time>2016-01-26T12:39:28Z</time>
      </trkpt>
      <trkpt lat="44.79898" lon="6.69135">
        <ele>2221.26</ele>
        <time>2016-01-26T12:39:45Z</time>
      </trkpt>
      <trkpt lat="44.79907" lon="6.69145">
        <ele>2221.26</ele>
        <time>2016-01-26T12:39:59Z</time>
      </trkpt>
      <trkpt lat="44.79912" lon="6.69149">
        <ele>2219.82</ele>
        <time>2016-01-26T12:40:11Z</time>
      </trkpt>
      <trkpt lat="44.79924" lon="6.6916">
        <ele>2217.9</ele>
        <time>2016-01-26T12:40:28Z</time>
      </trkpt>
      <trkpt lat="44.79929" lon="6.69172">
        <ele>2215.98</ele>
        <time>2016-01-26T12:40:43Z</time>
      </trkpt>
      <trkpt lat="44.79936" lon="6.6919">
        <ele>2213.09</ele>
        <time>2016-01-26T12:41:00Z</time>
      </trkpt>
      <trkpt lat="44.79942" lon="6.69204">
        <ele>2209.73</ele>
        <time>2016-01-26T12:41:15Z</time>
      </trkpt>
      <trkpt lat="44.7995" lon="6.69218">
        <ele>2206.84</ele>
        <time>2016-01-26T12:41:34Z</time>
      </trkpt>
      <trkpt lat="44.79952" lon="6.69229">
        <ele>2205.4</ele>
        <time>2016-01-26T12:41:46Z</time>
      </trkpt>
      <trkpt lat="44.79959" lon="6.69246">
        <ele>2202.52</ele>
        <time>2016-01-26T12:42:03Z</time>
      </trkpt>
      <trkpt lat="44.79963" lon="6.69265">
        <ele>2200.59</ele>
        <time>2016-01-26T12:42:20Z</time>
      </trkpt>
      <trkpt lat="44.79963" lon="6.69273">
        <ele>2200.11</ele>
        <time>2016-01-26T12:42:26Z</time>
      </trkpt>
      <trkpt lat="44.79956" lon="6.69288">
        <ele>2198.19</ele>
        <time>2016-01-26T12:42:40Z</time>
      </trkpt>
      <trkpt lat="44.79958" lon="6.693">
        <ele>2194.83</ele>
        <time>2016-01-26T12:42:52Z</time>
      </trkpt>
      <trkpt lat="44.79966" lon="6.69304">
        <ele>2193.39</ele>
        <time>2016-01-26T12:43:05Z</time>
      </trkpt>
      <trkpt lat="44.79971" lon="6.69314">
        <ele>2191.94</ele>
        <time>2016-01-26T12:43:22Z</time>
      </trkpt>
      <trkpt lat="44.79981" lon="6.69328">
        <ele>2188.58</ele>
        <time>2016-01-26T12:43:37Z</time>
      </trkpt>
      <trkpt lat="44.79991" lon="6.69347">
        <ele>2186.18</ele>
        <time>2016-01-26T12:43:55Z</time>
      </trkpt>
      <trkpt lat="44.80001" lon="6.69361">
        <ele>2183.77</ele>
        <time>2016-01-26T12:44:11Z</time>
      </trkpt>
      <trkpt lat="44.80012" lon="6.69382">
        <ele>2181.85</ele>
        <time>2016-01-26T12:44:28Z</time>
      </trkpt>
      <trkpt lat="44.80021" lon="6.69397">
        <ele>2180.41</ele>
        <time>2016-01-26T12:44:43Z</time>
      </trkpt>
      <trkpt lat="44.80034" lon="6.69413">
        <ele>2178</ele>
        <time>2016-01-26T12:45:01Z</time>
      </trkpt>
      <trkpt lat="44.80042" lon="6.69425">
        <ele>2177.04</ele>
        <time>2016-01-26T12:45:15Z</time>
      </trkpt>
      <trkpt lat="44.80043" lon="6.69428">
        <ele>2177.04</ele>
        <time>2016-01-26T12:45:18Z</time>
      </trkpt>
      <trkpt lat="44.80041" lon="6.69432">
        <ele>2176.56</ele>
        <time>2016-01-26T12:45:22Z</time>
      </trkpt>
      <trkpt lat="44.80038" lon="6.69434">
        <ele>2175.6</ele>
        <time>2016-01-26T12:45:25Z</time>
      </trkpt>
      <trkpt lat="44.80026" lon="6.69426">
        <ele>2172.72</ele>
        <time>2016-01-26T12:45:41Z</time>
      </trkpt>
      <trkpt lat="44.80025" lon="6.69425">
        <ele>2172.72</ele>
        <time>2016-01-26T12:45:43Z</time>
      </trkpt>
      <trkpt lat="44.80014" lon="6.69419">
        <ele>2171.76</ele>
        <time>2016-01-26T12:45:58Z</time>
      </trkpt>
      <trkpt lat="44.80012" lon="6.69422">
        <ele>2171.76</ele>
        <time>2016-01-26T12:46:11Z</time>
      </trkpt>
      <trkpt lat="44.8001" lon="6.69421">
        <ele>2170.79</ele>
        <time>2016-01-26T12:46:26Z</time>
      </trkpt>
      <trkpt lat="44.8001" lon="6.69423">
        <ele>2170.31</ele>
        <time>2016-01-26T12:46:45Z</time>
      </trkpt>
      <trkpt lat="44.80009" lon="6.69425">
        <ele>2168.39</ele>
        <time>2016-01-26T12:46:59Z</time>
      </trkpt>
      <trkpt lat="44.80005" lon="6.69424">
        <ele>2168.39</ele>
        <time>2016-01-26T12:47:12Z</time>
      </trkpt>
      <trkpt lat="44.79998" lon="6.69417">
        <ele>2165.99</ele>
        <time>2016-01-26T12:47:23Z</time>
      </trkpt>
      <trkpt lat="44.79992" lon="6.69405">
        <ele>2165.51</ele>
        <time>2016-01-26T12:47:34Z</time>
      </trkpt>
      <trkpt lat="44.79977" lon="6.69405">
        <ele>2164.55</ele>
        <time>2016-01-26T12:47:49Z</time>
      </trkpt>
      <trkpt lat="44.79962" lon="6.69418">
        <ele>2163.1</ele>
        <time>2016-01-26T12:48:05Z</time>
      </trkpt>
      <trkpt lat="44.79948" lon="6.69432">
        <ele>2163.1</ele>
        <time>2016-01-26T12:48:22Z</time>
      </trkpt>
      <trkpt lat="44.79938" lon="6.69441">
        <ele>2165.51</ele>
        <time>2016-01-26T12:48:36Z</time>
      </trkpt>
      <trkpt lat="44.7993" lon="6.69451">
        <ele>2165.51</ele>
        <time>2016-01-26T12:48:50Z</time>
      </trkpt>
      <trkpt lat="44.7992" lon="6.69461">
        <ele>2166.47</ele>
        <time>2016-01-26T12:49:07Z</time>
      </trkpt>
      <trkpt lat="44.79913" lon="6.69464">
        <ele>2168.39</ele>
        <time>2016-01-26T12:49:22Z</time>
      </trkpt>
      <trkpt lat="44.79907" lon="6.6947">
        <ele>2170.31</ele>
        <time>2016-01-26T12:49:38Z</time>
      </trkpt>
      <trkpt lat="44.79899" lon="6.69475">
        <ele>2171.76</ele>
        <time>2016-01-26T12:49:53Z</time>
      </trkpt>
      <trkpt lat="44.79893" lon="6.6948">
        <ele>2173.2</ele>
        <time>2016-01-26T12:50:08Z</time>
      </trkpt>
      <trkpt lat="44.79886" lon="6.69487">
        <ele>2175.12</ele>
        <time>2016-01-26T12:50:28Z</time>
      </trkpt>
      <trkpt lat="44.79881" lon="6.69491">
        <ele>2176.08</ele>
        <time>2016-01-26T12:50:41Z</time>
      </trkpt>
      <trkpt lat="44.79884" lon="6.69488">
        <ele>2176.56</ele>
        <time>2016-01-26T12:51:03Z</time>
      </trkpt>
      <trkpt lat="44.79882" lon="6.69489">
        <ele>2176.56</ele>
        <time>2016-01-26T12:51:21Z</time>
      </trkpt>
      <trkpt lat="44.79874" lon="6.69496">
        <ele>2178.97</ele>
        <time>2016-01-26T12:51:38Z</time>
      </trkpt>
      <trkpt lat="44.79864" lon="6.695">
        <ele>2181.37</ele>
        <time>2016-01-26T12:51:55Z</time>
      </trkpt>
      <trkpt lat="44.79855" lon="6.69506">
        <ele>2183.77</ele>
        <time>2016-01-26T12:52:10Z</time>
      </trkpt>
      <trkpt lat="44.79848" lon="6.69515">
        <ele>2185.21</ele>
        <time>2016-01-26T12:52:26Z</time>
      </trkpt>
      <trkpt lat="44.79845" lon="6.69516">
        <ele>2186.18</ele>
        <time>2016-01-26T12:52:42Z</time>
      </trkpt>
      <trkpt lat="44.79845" lon="6.69513">
        <ele>2186.18</ele>
        <time>2016-01-26T12:53:00Z</time>
      </trkpt>
      <trkpt lat="44.79842" lon="6.69515">
        <ele>2186.18</ele>
        <time>2016-01-26T12:53:22Z</time>
      </trkpt>
      <trkpt lat="44.79836" lon="6.69515">
        <ele>2186.66</ele>
        <time>2016-01-26T12:53:30Z</time>
      </trkpt>
      <trkpt lat="44.7982" lon="6.69517">
        <ele>2189.06</ele>
        <time>2016-01-26T12:53:46Z</time>
      </trkpt>
      <trkpt lat="44.79814" lon="6.69517">
        <ele>2190.02</ele>
        <time>2016-01-26T12:53:53Z</time>
      </trkpt>
      <trkpt lat="44.79801" lon="6.69515">
        <ele>2190.98</ele>
        <time>2016-01-26T12:54:06Z</time>
      </trkpt>
      <trkpt lat="44.79797" lon="6.69515">
        <ele>2192.42</ele>
        <time>2016-01-26T12:54:20Z</time>
      </trkpt>
      <trkpt lat="44.79795" lon="6.69516">
        <ele>2192.9</ele>
        <time>2016-01-26T12:54:39Z</time>
      </trkpt>
      <trkpt lat="44.79796" lon="6.69515">
        <ele>2192.9</ele>
        <time>2016-01-26T12:54:56Z</time>
      </trkpt>
      <trkpt lat="44.79795" lon="6.69514">
        <ele>2192.9</ele>
        <time>2016-01-26T12:55:17Z</time>
      </trkpt>
      <trkpt lat="44.79796" lon="6.69513">
        <ele>2192.9</ele>
        <time>2016-01-26T12:55:39Z</time>
      </trkpt>
      <trkpt lat="44.79795" lon="6.69513">
        <ele>2192.9</ele>
        <time>2016-01-26T12:56:08Z</time>
      </trkpt>
      <trkpt lat="44.79795" lon="6.69514">
        <ele>2192.9</ele>
        <time>2016-01-26T12:56:27Z</time>
      </trkpt>
      <trkpt lat="44.79794" lon="6.69513">
        <ele>2192.9</ele>
        <time>2016-01-26T12:56:45Z</time>
      </trkpt>
      <trkpt lat="44.79787" lon="6.69514">
        <ele>2192.9</ele>
        <time>2016-01-26T12:57:00Z</time>
      </trkpt>
      <trkpt lat="44.79786" lon="6.69514">
        <ele>2193.39</ele>
        <time>2016-01-26T12:57:02Z</time>
      </trkpt>
      <trkpt lat="44.79778" lon="6.69523">
        <ele>2194.35</ele>
        <time>2016-01-26T12:57:18Z</time>
      </trkpt>
      <trkpt lat="44.79783" lon="6.69529">
        <ele>2195.79</ele>
        <time>2016-01-26T12:57:32Z</time>
      </trkpt>
      <trkpt lat="44.79788" lon="6.69535">
        <ele>2197.71</ele>
        <time>2016-01-26T12:57:49Z</time>
      </trkpt>
      <trkpt lat="44.79785" lon="6.69541">
        <ele>2199.63</ele>
        <time>2016-01-26T12:58:08Z</time>
      </trkpt>
      <trkpt lat="44.79781" lon="6.69545">
        <ele>2202.04</ele>
        <time>2016-01-26T12:58:19Z</time>
      </trkpt>
      <trkpt lat="44.79777" lon="6.69556">
        <ele>2202.04</ele>
        <time>2016-01-26T12:58:33Z</time>
      </trkpt>
      <trkpt lat="44.79779" lon="6.69554">
        <ele>2202.52</ele>
        <time>2016-01-26T12:58:56Z</time>
      </trkpt>
      <trkpt lat="44.79774" lon="6.69567">
        <ele>2203.96</ele>
        <time>2016-01-26T12:59:10Z</time>
      </trkpt>
      <trkpt lat="44.7977" lon="6.69584">
        <ele>2205.4</ele>
        <time>2016-01-26T12:59:28Z</time>
      </trkpt>
      <trkpt lat="44.79768" lon="6.6959">
        <ele>2205.88</ele>
        <time>2016-01-26T12:59:34Z</time>
      </trkpt>
      <trkpt lat="44.79764" lon="6.696">
        <ele>2205.88</ele>
        <time>2016-01-26T12:59:43Z</time>
      </trkpt>
      <trkpt lat="44.79758" lon="6.69616">
        <ele>2206.84</ele>
        <time>2016-01-26T12:59:59Z</time>
      </trkpt>
      <trkpt lat="44.79759" lon="6.69625">
        <ele>2206.84</ele>
        <time>2016-01-26T13:00:16Z</time>
      </trkpt>
      <trkpt lat="44.79758" lon="6.69625">
        <ele>2205.88</ele>
        <time>2016-01-26T13:00:34Z</time>
      </trkpt>
      <trkpt lat="44.7976" lon="6.69633">
        <ele>2205.4</ele>
        <time>2016-01-26T13:00:49Z</time>
      </trkpt>
      <trkpt lat="44.79767" lon="6.69641">
        <ele>2204.44</ele>
        <time>2016-01-26T13:01:07Z</time>
      </trkpt>
      <trkpt lat="44.79765" lon="6.69646">
        <ele>2203.96</ele>
        <time>2016-01-26T13:01:22Z</time>
      </trkpt>
      <trkpt lat="44.79765" lon="6.69644">
        <ele>2203.48</ele>
        <time>2016-01-26T13:01:44Z</time>
      </trkpt>
      <trkpt lat="44.79765" lon="6.69644">
        <ele>2203.48</ele>
        <time>2016-01-26T13:02:06Z</time>
      </trkpt>
      <trkpt lat="44.79765" lon="6.69646">
        <ele>2203.48</ele>
        <time>2016-01-26T13:02:19Z</time>
      </trkpt>
      <trkpt lat="44.79765" lon="6.69644">
        <ele>2203.48</ele>
        <time>2016-01-26T13:02:43Z</time>
      </trkpt>
      <trkpt lat="44.79766" lon="6.69652">
        <ele>2203.48</ele>
        <time>2016-01-26T13:02:57Z</time>
      </trkpt>
      <trkpt lat="44.79764" lon="6.69653">
        <ele>2203</ele>
        <time>2016-01-26T13:03:13Z</time>
      </trkpt>
      <trkpt lat="44.79764" lon="6.69654">
        <ele>2203</ele>
        <time>2016-01-26T13:03:14Z</time>
      </trkpt>
      <trkpt lat="44.79767" lon="6.69671">
        <ele>2200.11</ele>
        <time>2016-01-26T13:03:28Z</time>
      </trkpt>
      <trkpt lat="44.79768" lon="6.69686">
        <ele>2197.71</ele>
        <time>2016-01-26T13:03:41Z</time>
      </trkpt>
      <trkpt lat="44.79771" lon="6.69703">
        <ele>2197.23</ele>
        <time>2016-01-26T13:03:56Z</time>
      </trkpt>
      <trkpt lat="44.79775" lon="6.69717">
        <ele>2196.75</ele>
        <time>2016-01-26T13:04:09Z</time>
      </trkpt>
      <trkpt lat="44.79779" lon="6.69731">
        <ele>2196.27</ele>
        <time>2016-01-26T13:04:22Z</time>
      </trkpt>
      <trkpt lat="44.79784" lon="6.69745">
        <ele>2194.35</ele>
        <time>2016-01-26T13:04:37Z</time>
      </trkpt>
      <trkpt lat="44.79788" lon="6.69757">
        <ele>2191.94</ele>
        <time>2016-01-26T13:04:51Z</time>
      </trkpt>
      <trkpt lat="44.79787" lon="6.69761">
        <ele>2190.98</ele>
        <time>2016-01-26T13:04:55Z</time>
      </trkpt>
      <trkpt lat="44.79788" lon="6.69777">
        <ele>2188.58</ele>
        <time>2016-01-26T13:05:10Z</time>
      </trkpt>
      <trkpt lat="44.79794" lon="6.69786">
        <ele>2187.14</ele>
        <time>2016-01-26T13:05:24Z</time>
      </trkpt>
      <trkpt lat="44.79799" lon="6.6979">
        <ele>2185.69</ele>
        <time>2016-01-26T13:05:37Z</time>
      </trkpt>
      <trkpt lat="44.79804" lon="6.69792">
        <ele>2185.21</ele>
        <time>2016-01-26T13:05:53Z</time>
      </trkpt>
      <trkpt lat="44.79808" lon="6.69793">
        <ele>2184.73</ele>
        <time>2016-01-26T13:06:10Z</time>
      </trkpt>
      <trkpt lat="44.79823" lon="6.69804">
        <ele>2182.33</ele>
        <time>2016-01-26T13:06:25Z</time>
      </trkpt>
      <trkpt lat="44.79834" lon="6.6982">
        <ele>2179.93</ele>
        <time>2016-01-26T13:06:40Z</time>
      </trkpt>
      <trkpt lat="44.79836" lon="6.69823">
        <ele>2179.93</ele>
        <time>2016-01-26T13:06:42Z</time>
      </trkpt>
      <trkpt lat="44.79842" lon="6.69833">
        <ele>2177.52</ele>
        <time>2016-01-26T13:06:57Z</time>
      </trkpt>
      <trkpt lat="44.7985" lon="6.69841">
        <ele>2174.16</ele>
        <time>2016-01-26T13:07:11Z</time>
      </trkpt>
      <trkpt lat="44.79855" lon="6.69853">
        <ele>2171.27</ele>
        <time>2016-01-26T13:07:27Z</time>
      </trkpt>
      <trkpt lat="44.79856" lon="6.69856">
        <ele>2170.79</ele>
        <time>2016-01-26T13:07:31Z</time>
      </trkpt>
      <trkpt lat="44.79864" lon="6.69867">
        <ele>2167.43</ele>
        <time>2016-01-26T13:07:46Z</time>
      </trkpt>
      <trkpt lat="44.79872" lon="6.6988">
        <ele>2165.03</ele>
        <time>2016-01-26T13:08:01Z</time>
      </trkpt>
      <trkpt lat="44.79874" lon="6.69882">
        <ele>2164.55</ele>
        <time>2016-01-26T13:08:03Z</time>
      </trkpt>
      <trkpt lat="44.79875" lon="6.69884">
        <ele>2164.55</ele>
        <time>2016-01-26T13:08:05Z</time>
      </trkpt>
      <trkpt lat="44.79877" lon="6.69887">
        <ele>2163.58</ele>
        <time>2016-01-26T13:08:09Z</time>
      </trkpt>
      <trkpt lat="44.79885" lon="6.69891">
        <ele>2162.14</ele>
        <time>2016-01-26T13:08:21Z</time>
      </trkpt>
      <trkpt lat="44.79892" lon="6.699">
        <ele>2160.22</ele>
        <time>2016-01-26T13:08:34Z</time>
      </trkpt>
      <trkpt lat="44.79897" lon="6.6991">
        <ele>2158.78</ele>
        <time>2016-01-26T13:08:48Z</time>
      </trkpt>
      <trkpt lat="44.79902" lon="6.6992">
        <ele>2156.37</ele>
        <time>2016-01-26T13:09:02Z</time>
      </trkpt>
      <trkpt lat="44.79905" lon="6.69929">
        <ele>2154.93</ele>
        <time>2016-01-26T13:09:11Z</time>
      </trkpt>
      <trkpt lat="44.79911" lon="6.69939">
        <ele>2151.57</ele>
        <time>2016-01-26T13:09:21Z</time>
      </trkpt>
      <trkpt lat="44.79911" lon="6.69949">
        <ele>2149.16</ele>
        <time>2016-01-26T13:09:35Z</time>
      </trkpt>
      <trkpt lat="44.79914" lon="6.6996">
        <ele>2146.28</ele>
        <time>2016-01-26T13:09:51Z</time>
      </trkpt>
      <trkpt lat="44.79909" lon="6.69966">
        <ele>2145.32</ele>
        <time>2016-01-26T13:10:06Z</time>
      </trkpt>
      <trkpt lat="44.79911" lon="6.69974">
        <ele>2143.4</ele>
        <time>2016-01-26T13:10:23Z</time>
      </trkpt>
      <trkpt lat="44.79915" lon="6.69983">
        <ele>2140.99</ele>
        <time>2016-01-26T13:10:39Z</time>
      </trkpt>
      <trkpt lat="44.79921" lon="6.69992">
        <ele>2138.11</ele>
        <time>2016-01-26T13:10:56Z</time>
      </trkpt>
      <trkpt lat="44.79928" lon="6.70001">
        <ele>2135.71</ele>
        <time>2016-01-26T13:11:13Z</time>
      </trkpt>
      <trkpt lat="44.79932" lon="6.70006">
        <ele>2133.3</ele>
        <time>2016-01-26T13:11:29Z</time>
      </trkpt>
      <trkpt lat="44.79938" lon="6.7001">
        <ele>2130.42</ele>
        <time>2016-01-26T13:11:46Z</time>
      </trkpt>
      <trkpt lat="44.79947" lon="6.70014">
        <ele>2128.02</ele>
        <time>2016-01-26T13:12:03Z</time>
      </trkpt>
      <trkpt lat="44.79955" lon="6.70018">
        <ele>2126.09</ele>
        <time>2016-01-26T13:12:17Z</time>
      </trkpt>
      <trkpt lat="44.79969" lon="6.70016">
        <ele>2124.17</ele>
        <time>2016-01-26T13:12:34Z</time>
      </trkpt>
      <trkpt lat="44.79978" lon="6.70014">
        <ele>2124.17</ele>
        <time>2016-01-26T13:12:50Z</time>
      </trkpt>
      <trkpt lat="44.79985" lon="6.70019">
        <ele>2124.17</ele>
        <time>2016-01-26T13:13:11Z</time>
      </trkpt>
      <trkpt lat="44.79988" lon="6.70021">
        <ele>2124.17</ele>
        <time>2016-01-26T13:13:35Z</time>
      </trkpt>
      <trkpt lat="44.79986" lon="6.70021">
        <ele>2124.17</ele>
        <time>2016-01-26T13:13:53Z</time>
      </trkpt>
      <trkpt lat="44.79988" lon="6.70018">
        <ele>2124.17</ele>
        <time>2016-01-26T13:14:15Z</time>
      </trkpt>
      <trkpt lat="44.7999" lon="6.70021">
        <ele>2124.17</ele>
        <time>2016-01-26T13:14:36Z</time>
      </trkpt>
      <trkpt lat="44.79993" lon="6.70019">
        <ele>2124.17</ele>
        <time>2016-01-26T13:15:02Z</time>
      </trkpt>
      <trkpt lat="44.79991" lon="6.70015">
        <ele>2123.69</ele>
        <time>2016-01-26T13:15:28Z</time>
      </trkpt>
      <trkpt lat="44.79988" lon="6.70016">
        <ele>2123.69</ele>
        <time>2016-01-26T13:15:53Z</time>
      </trkpt>
      <trkpt lat="44.7999" lon="6.70013">
        <ele>2123.69</ele>
        <time>2016-01-26T13:16:21Z</time>
      </trkpt>
      <trkpt lat="44.79992" lon="6.70018">
        <ele>2123.69</ele>
        <time>2016-01-26T13:16:41Z</time>
      </trkpt>
      <trkpt lat="44.79991" lon="6.70019">
        <ele>2123.69</ele>
        <time>2016-01-26T13:17:06Z</time>
      </trkpt>
      <trkpt lat="44.79993" lon="6.70019">
        <ele>2123.69</ele>
        <time>2016-01-26T13:17:30Z</time>
      </trkpt>
      <trkpt lat="44.79997" lon="6.70017">
        <ele>2123.21</ele>
        <time>2016-01-26T13:17:43Z</time>
      </trkpt>
      <trkpt lat="44.80002" lon="6.70019">
        <ele>2121.77</ele>
        <time>2016-01-26T13:17:53Z</time>
      </trkpt>
      <trkpt lat="44.80013" lon="6.70017">
        <ele>2119.84</ele>
        <time>2016-01-26T13:18:09Z</time>
      </trkpt>
      <trkpt lat="44.8002" lon="6.70021">
        <ele>2117.92</ele>
        <time>2016-01-26T13:18:25Z</time>
      </trkpt>
      <trkpt lat="44.80032" lon="6.7002">
        <ele>2116</ele>
        <time>2016-01-26T13:18:41Z</time>
      </trkpt>
      <trkpt lat="44.8004" lon="6.70021">
        <ele>2114.56</ele>
        <time>2016-01-26T13:18:53Z</time>
      </trkpt>
      <trkpt lat="44.80049" lon="6.70017">
        <ele>2113.6</ele>
        <time>2016-01-26T13:19:11Z</time>
      </trkpt>
      <trkpt lat="44.80055" lon="6.70026">
        <ele>2113.12</ele>
        <time>2016-01-26T13:19:27Z</time>
      </trkpt>
      <trkpt lat="44.80065" lon="6.70031">
        <ele>2111.67</ele>
        <time>2016-01-26T13:19:41Z</time>
      </trkpt>
      <trkpt lat="44.80074" lon="6.70033">
        <ele>2109.27</ele>
        <time>2016-01-26T13:19:57Z</time>
      </trkpt>
      <trkpt lat="44.80076" lon="6.70036">
        <ele>2107.83</ele>
        <time>2016-01-26T13:20:10Z</time>
      </trkpt>
      <trkpt lat="44.80086" lon="6.70044">
        <ele>2106.39</ele>
        <time>2016-01-26T13:20:25Z</time>
      </trkpt>
      <trkpt lat="44.80095" lon="6.70046">
        <ele>2104.94</ele>
        <time>2016-01-26T13:20:39Z</time>
      </trkpt>
      <trkpt lat="44.80104" lon="6.70047">
        <ele>2103.5</ele>
        <time>2016-01-26T13:20:52Z</time>
      </trkpt>
      <trkpt lat="44.80118" lon="6.70039">
        <ele>2101.58</ele>
        <time>2016-01-26T13:21:07Z</time>
      </trkpt>
      <trkpt lat="44.80128" lon="6.70033">
        <ele>2100.62</ele>
        <time>2016-01-26T13:21:21Z</time>
      </trkpt>
      <trkpt lat="44.80134" lon="6.70043">
        <ele>2099.66</ele>
        <time>2016-01-26T13:21:36Z</time>
      </trkpt>
      <trkpt lat="44.80141" lon="6.70034">
        <ele>2098.21</ele>
        <time>2016-01-26T13:21:49Z</time>
      </trkpt>
      <trkpt lat="44.80151" lon="6.70042">
        <ele>2095.81</ele>
        <time>2016-01-26T13:22:04Z</time>
      </trkpt>
      <trkpt lat="44.80157" lon="6.70043">
        <ele>2093.41</ele>
        <time>2016-01-26T13:22:21Z</time>
      </trkpt>
      <trkpt lat="44.80159" lon="6.70039">
        <ele>2092.93</ele>
        <time>2016-01-26T13:22:36Z</time>
      </trkpt>
      <trkpt lat="44.80159" lon="6.70033">
        <ele>2092.45</ele>
        <time>2016-01-26T13:22:58Z</time>
      </trkpt>
      <trkpt lat="44.80167" lon="6.70036">
        <ele>2092.45</ele>
        <time>2016-01-26T13:23:19Z</time>
      </trkpt>
      <trkpt lat="44.80172" lon="6.70038">
        <ele>2091.97</ele>
        <time>2016-01-26T13:23:40Z</time>
      </trkpt>
      <trkpt lat="44.80168" lon="6.70039">
        <ele>2091.97</ele>
        <time>2016-01-26T13:24:04Z</time>
      </trkpt>
      <trkpt lat="44.80173" lon="6.70035">
        <ele>2091</ele>
        <time>2016-01-26T13:24:20Z</time>
      </trkpt>
      <trkpt lat="44.80184" lon="6.70032">
        <ele>2089.56</ele>
        <time>2016-01-26T13:24:34Z</time>
      </trkpt>
      <trkpt lat="44.80196" lon="6.70035">
        <ele>2087.64</ele>
        <time>2016-01-26T13:24:49Z</time>
      </trkpt>
      <trkpt lat="44.80207" lon="6.7003">
        <ele>2085.72</ele>
        <time>2016-01-26T13:25:04Z</time>
      </trkpt>
      <trkpt lat="44.80215" lon="6.70028">
        <ele>2084.28</ele>
        <time>2016-01-26T13:25:17Z</time>
      </trkpt>
      <trkpt lat="44.80224" lon="6.70029">
        <ele>2081.87</ele>
        <time>2016-01-26T13:25:30Z</time>
      </trkpt>
      <trkpt lat="44.80229" lon="6.70033">
        <ele>2079.95</ele>
        <time>2016-01-26T13:25:44Z</time>
      </trkpt>
      <trkpt lat="44.80236" lon="6.70035">
        <ele>2077.07</ele>
        <time>2016-01-26T13:26:01Z</time>
      </trkpt>
      <trkpt lat="44.80236" lon="6.70035">
        <ele>2077.07</ele>
        <time>2016-01-26T13:26:02Z</time>
      </trkpt>
      <trkpt lat="44.80238" lon="6.70039">
        <ele>2075.62</ele>
        <time>2016-01-26T13:26:15Z</time>
      </trkpt>
      <trkpt lat="44.80247" lon="6.70043">
        <ele>2074.66</ele>
        <time>2016-01-26T13:26:30Z</time>
      </trkpt>
      <trkpt lat="44.8026" lon="6.70042">
        <ele>2072.26</ele>
        <time>2016-01-26T13:26:48Z</time>
      </trkpt>
      <trkpt lat="44.80265" lon="6.70047">
        <ele>2070.34</ele>
        <time>2016-01-26T13:27:04Z</time>
      </trkpt>
      <trkpt lat="44.8027" lon="6.70047">
        <ele>2069.38</ele>
        <time>2016-01-26T13:27:16Z</time>
      </trkpt>
      <trkpt lat="44.80271" lon="6.70035">
        <ele>2067.45</ele>
        <time>2016-01-26T13:27:32Z</time>
      </trkpt>
      <trkpt lat="44.80277" lon="6.70023">
        <ele>2065.53</ele>
        <time>2016-01-26T13:27:48Z</time>
      </trkpt>
      <trkpt lat="44.80277" lon="6.70021">
        <ele>2064.57</ele>
        <time>2016-01-26T13:28:01Z</time>
      </trkpt>
      <trkpt lat="44.80277" lon="6.70019">
        <ele>2063.13</ele>
        <time>2016-01-26T13:28:14Z</time>
      </trkpt>
      <trkpt lat="44.80275" lon="6.70023">
        <ele>2061.68</ele>
        <time>2016-01-26T13:28:29Z</time>
      </trkpt>
      <trkpt lat="44.80283" lon="6.70015">
        <ele>2059.76</ele>
        <time>2016-01-26T13:28:45Z</time>
      </trkpt>
      <trkpt lat="44.80288" lon="6.70018">
        <ele>2058.32</ele>
        <time>2016-01-26T13:29:01Z</time>
      </trkpt>
      <trkpt lat="44.80294" lon="6.70017">
        <ele>2056.88</ele>
        <time>2016-01-26T13:29:13Z</time>
      </trkpt>
      <trkpt lat="44.80295" lon="6.7002">
        <ele>2055.44</ele>
        <time>2016-01-26T13:29:26Z</time>
      </trkpt>
      <trkpt lat="44.80296" lon="6.70031">
        <ele>2053.51</ele>
        <time>2016-01-26T13:29:41Z</time>
      </trkpt>
      <trkpt lat="44.80301" lon="6.70042">
        <ele>2053.03</ele>
        <time>2016-01-26T13:29:54Z</time>
      </trkpt>
      <trkpt lat="44.80305" lon="6.70048">
        <ele>2053.03</ele>
        <time>2016-01-26T13:30:07Z</time>
      </trkpt>
      <trkpt lat="44.80305" lon="6.70051">
        <ele>2053.03</ele>
        <time>2016-01-26T13:30:14Z</time>
      </trkpt>
      <trkpt lat="44.80318" lon="6.70057">
        <ele>2053.03</ele>
        <time>2016-01-26T13:30:28Z</time>
      </trkpt>
      <trkpt lat="44.80321" lon="6.70058">
        <ele>2053.03</ele>
        <time>2016-01-26T13:30:31Z</time>
      </trkpt>
      <trkpt lat="44.80331" lon="6.70064">
        <ele>2053.03</ele>
        <time>2016-01-26T13:30:47Z</time>
      </trkpt>
      <trkpt lat="44.80347" lon="6.70065">
        <ele>2053.03</ele>
        <time>2016-01-26T13:31:05Z</time>
      </trkpt>
      <trkpt lat="44.80352" lon="6.70068">
        <ele>2053.03</ele>
        <time>2016-01-26T13:31:17Z</time>
      </trkpt>
      <trkpt lat="44.80366" lon="6.70069">
        <ele>2052.55</ele>
        <time>2016-01-26T13:31:32Z</time>
      </trkpt>
      <trkpt lat="44.80372" lon="6.70074">
        <ele>2052.55</ele>
        <time>2016-01-26T13:31:41Z</time>
      </trkpt>
      <trkpt lat="44.80376" lon="6.70083">
        <ele>2052.55</ele>
        <time>2016-01-26T13:31:55Z</time>
      </trkpt>
      <trkpt lat="44.80387" lon="6.70091">
        <ele>2052.07</ele>
        <time>2016-01-26T13:32:09Z</time>
      </trkpt>
      <trkpt lat="44.80406" lon="6.701">
        <ele>2052.07</ele>
        <time>2016-01-26T13:32:25Z</time>
      </trkpt>
      <trkpt lat="44.8042" lon="6.70109">
        <ele>2052.07</ele>
        <time>2016-01-26T13:32:38Z</time>
      </trkpt>
      <trkpt lat="44.80421" lon="6.70111">
        <ele>2051.59</ele>
        <time>2016-01-26T13:32:42Z</time>
      </trkpt>
      <trkpt lat="44.80441" lon="6.70121">
        <ele>2051.59</ele>
        <time>2016-01-26T13:32:59Z</time>
      </trkpt>
      <trkpt lat="44.80447" lon="6.70125">
        <ele>2051.59</ele>
        <time>2016-01-26T13:33:06Z</time>
      </trkpt>
      <trkpt lat="44.80447" lon="6.70126">
        <ele>2051.59</ele>
        <time>2016-01-26T13:33:08Z</time>
      </trkpt>
      <trkpt lat="44.80462" lon="6.70135">
        <ele>2051.59</ele>
        <time>2016-01-26T13:33:22Z</time>
      </trkpt>
      <trkpt lat="44.80464" lon="6.70137">
        <ele>2051.11</ele>
        <time>2016-01-26T13:33:26Z</time>
      </trkpt>
      <trkpt lat="44.80465" lon="6.70139">
        <ele>2051.11</ele>
        <time>2016-01-26T13:33:32Z</time>
      </trkpt>
      <trkpt lat="44.80474" lon="6.70149">
        <ele>2051.59</ele>
        <time>2016-01-26T13:33:48Z</time>
      </trkpt>
      <trkpt lat="44.80485" lon="6.70153">
        <ele>2051.59</ele>
        <time>2016-01-26T13:34:00Z</time>
      </trkpt>
      <trkpt lat="44.80505" lon="6.70162">
        <ele>2051.59</ele>
        <time>2016-01-26T13:34:14Z</time>
      </trkpt>
      <trkpt lat="44.80513" lon="6.70169">
        <ele>2051.11</ele>
        <time>2016-01-26T13:34:27Z</time>
      </trkpt>
      <trkpt lat="44.80531" lon="6.70177">
        <ele>2051.11</ele>
        <time>2016-01-26T13:34:41Z</time>
      </trkpt>
      <trkpt lat="44.80539" lon="6.70185">
        <ele>2051.59</ele>
        <time>2016-01-26T13:34:52Z</time>
      </trkpt>
      <trkpt lat="44.80549" lon="6.70205">
        <ele>2051.59</ele>
        <time>2016-01-26T13:35:08Z</time>
      </trkpt>
      <trkpt lat="44.80558" lon="6.70214">
        <ele>2051.11</ele>
        <time>2016-01-26T13:35:15Z</time>
      </trkpt>
      <trkpt lat="44.8056" lon="6.70223">
        <ele>2051.11</ele>
        <time>2016-01-26T13:35:29Z</time>
      </trkpt>
      <trkpt lat="44.8056" lon="6.70225">
        <ele>2051.59</ele>
        <time>2016-01-26T13:35:48Z</time>
      </trkpt>
      <trkpt lat="44.80562" lon="6.70225">
        <ele>2052.07</ele>
        <time>2016-01-26T13:36:09Z</time>
      </trkpt>
      <trkpt lat="44.80564" lon="6.70222">
        <ele>2050.63</ele>
        <time>2016-01-26T13:36:29Z</time>
      </trkpt>
      <trkpt lat="44.8056" lon="6.70218">
        <ele>2051.11</ele>
        <time>2016-01-26T13:36:54Z</time>
      </trkpt>
      <trkpt lat="44.80561" lon="6.70214">
        <ele>2051.11</ele>
        <time>2016-01-26T13:37:18Z</time>
      </trkpt>
      <trkpt lat="44.80562" lon="6.70222">
        <ele>2052.55</ele>
        <time>2016-01-26T13:37:35Z</time>
      </trkpt>
      <trkpt lat="44.80563" lon="6.70221">
        <ele>2052.55</ele>
        <time>2016-01-26T13:37:58Z</time>
      </trkpt>
      <trkpt lat="44.80566" lon="6.70226">
        <ele>2052.55</ele>
        <time>2016-01-26T13:38:18Z</time>
      </trkpt>
      <trkpt lat="44.80567" lon="6.70223">
        <ele>2051.59</ele>
        <time>2016-01-26T13:38:32Z</time>
      </trkpt>
      <trkpt lat="44.80565" lon="6.7023">
        <ele>2051.59</ele>
        <time>2016-01-26T13:38:55Z</time>
      </trkpt>
      <trkpt lat="44.80562" lon="6.70235">
        <ele>2051.59</ele>
        <time>2016-01-26T13:39:10Z</time>
      </trkpt>
      <trkpt lat="44.80557" lon="6.70232">
        <ele>2051.59</ele>
        <time>2016-01-26T13:39:31Z</time>
      </trkpt>
      <trkpt lat="44.80557" lon="6.70235">
        <ele>2053.03</ele>
        <time>2016-01-26T13:39:34Z</time>
      </trkpt>
      <trkpt lat="44.80562" lon="6.70233">
        <ele>2053.03</ele>
        <time>2016-01-26T13:39:54Z</time>
      </trkpt>
      <trkpt lat="44.80564" lon="6.70226">
        <ele>2053.03</ele>
        <time>2016-01-26T13:40:11Z</time>
      </trkpt>
      <trkpt lat="44.8056" lon="6.70221">
        <ele>2053.03</ele>
        <time>2016-01-26T13:40:36Z</time>
      </trkpt>
      <trkpt lat="44.80555" lon="6.70224">
        <ele>2053.03</ele>
        <time>2016-01-26T13:40:52Z</time>
      </trkpt>
      <trkpt lat="44.80559" lon="6.70226">
        <ele>2053.03</ele>
        <time>2016-01-26T13:41:07Z</time>
      </trkpt>
      <trkpt lat="44.80566" lon="6.70222">
        <ele>2053.51</ele>
        <time>2016-01-26T13:41:28Z</time>
      </trkpt>
      <trkpt lat="44.80562" lon="6.70229">
        <ele>2053.51</ele>
        <time>2016-01-26T13:41:52Z</time>
      </trkpt>
      <trkpt lat="44.80557" lon="6.7023">
        <ele>2053.99</ele>
        <time>2016-01-26T13:42:14Z</time>
      </trkpt>
      <trkpt lat="44.80568" lon="6.70228">
        <ele>2052.55</ele>
        <time>2016-01-26T13:42:35Z</time>
      </trkpt>
      <trkpt lat="44.80577" lon="6.70224">
        <ele>2052.55</ele>
        <time>2016-01-26T13:42:52Z</time>
      </trkpt>
      <trkpt lat="44.80584" lon="6.70234">
        <ele>2051.59</ele>
        <time>2016-01-26T13:43:06Z</time>
      </trkpt>
      <trkpt lat="44.80599" lon="6.70245">
        <ele>2050.15</ele>
        <time>2016-01-26T13:43:21Z</time>
      </trkpt>
      <trkpt lat="44.80605" lon="6.7025">
        <ele>2049.19</ele>
        <time>2016-01-26T13:43:29Z</time>
      </trkpt>
      <trkpt lat="44.80611" lon="6.70268">
        <ele>2046.78</ele>
        <time>2016-01-26T13:43:45Z</time>
      </trkpt>
      <trkpt lat="44.80608" lon="6.70284">
        <ele>2044.86</ele>
        <time>2016-01-26T13:43:59Z</time>
      </trkpt>
      <trkpt lat="44.80614" lon="6.70303">
        <ele>2043.42</ele>
        <time>2016-01-26T13:44:13Z</time>
      </trkpt>
      <trkpt lat="44.8062" lon="6.70318">
        <ele>2042.46</ele>
        <time>2016-01-26T13:44:27Z</time>
      </trkpt>
      <trkpt lat="44.80632" lon="6.70331">
        <ele>2041.02</ele>
        <time>2016-01-26T13:44:43Z</time>
      </trkpt>
      <trkpt lat="44.80649" lon="6.70343">
        <ele>2039.57</ele>
        <time>2016-01-26T13:44:57Z</time>
      </trkpt>
      <trkpt lat="44.80655" lon="6.70356">
        <ele>2038.13</ele>
        <time>2016-01-26T13:45:12Z</time>
      </trkpt>
      <trkpt lat="44.80657" lon="6.70359">
        <ele>2035.25</ele>
        <time>2016-01-26T13:45:21Z</time>
      </trkpt>
      <trkpt lat="44.80656" lon="6.7036">
        <ele>2041.02</ele>
        <time>2016-01-26T13:45:22Z</time>
      </trkpt>
      <trkpt lat="44.80656" lon="6.70362">
        <ele>2037.17</ele>
        <time>2016-01-26T13:45:23Z</time>
      </trkpt>
      <trkpt lat="44.80656" lon="6.7038">
        <ele>2035.73</ele>
        <time>2016-01-26T13:45:38Z</time>
      </trkpt>
      <trkpt lat="44.80652" lon="6.70403">
        <ele>2032.84</ele>
        <time>2016-01-26T13:45:56Z</time>
      </trkpt>
      <trkpt lat="44.80646" lon="6.70426">
        <ele>2030.44</ele>
        <time>2016-01-26T13:46:14Z</time>
      </trkpt>
      <trkpt lat="44.80643" lon="6.70448">
        <ele>2027.56</ele>
        <time>2016-01-26T13:46:32Z</time>
      </trkpt>
      <trkpt lat="44.80639" lon="6.70467">
        <ele>2025.15</ele>
        <time>2016-01-26T13:46:49Z</time>
      </trkpt>
      <trkpt lat="44.80633" lon="6.70491">
        <ele>2022.75</ele>
        <time>2016-01-26T13:47:08Z</time>
      </trkpt>
      <trkpt lat="44.80631" lon="6.70498">
        <ele>2021.79</ele>
        <time>2016-01-26T13:47:13Z</time>
      </trkpt>
      <trkpt lat="44.80625" lon="6.70521">
        <ele>2018.91</ele>
        <time>2016-01-26T13:47:32Z</time>
      </trkpt>
      <trkpt lat="44.80623" lon="6.70535">
        <ele>2017.94</ele>
        <time>2016-01-26T13:47:42Z</time>
      </trkpt>
      <trkpt lat="44.80623" lon="6.70556">
        <ele>2015.54</ele>
        <time>2016-01-26T13:47:57Z</time>
      </trkpt>
      <trkpt lat="44.80624" lon="6.7058">
        <ele>2014.1</ele>
        <time>2016-01-26T13:48:13Z</time>
      </trkpt>
      <trkpt lat="44.80627" lon="6.706">
        <ele>2011.7</ele>
        <time>2016-01-26T13:48:30Z</time>
      </trkpt>
      <trkpt lat="44.80629" lon="6.70618">
        <ele>2009.77</ele>
        <time>2016-01-26T13:48:48Z</time>
      </trkpt>
      <trkpt lat="44.80629" lon="6.70616">
        <ele>2009.77</ele>
        <time>2016-01-26T13:48:59Z</time>
      </trkpt>
      <trkpt lat="44.80631" lon="6.70616">
        <ele>2009.29</ele>
        <time>2016-01-26T13:49:12Z</time>
      </trkpt>
      <trkpt lat="44.80631" lon="6.70619">
        <ele>2009.29</ele>
        <time>2016-01-26T13:49:23Z</time>
      </trkpt>
      <trkpt lat="44.80632" lon="6.70625">
        <ele>2009.29</ele>
        <time>2016-01-26T13:49:43Z</time>
      </trkpt>
      <trkpt lat="44.8063" lon="6.70626">
        <ele>2009.29</ele>
        <time>2016-01-26T13:50:01Z</time>
      </trkpt>
      <trkpt lat="44.80632" lon="6.70632">
        <ele>2009.29</ele>
        <time>2016-01-26T13:50:24Z</time>
      </trkpt>
      <trkpt lat="44.80633" lon="6.70634">
        <ele>2009.29</ele>
        <time>2016-01-26T13:50:27Z</time>
      </trkpt>
      <trkpt lat="44.8064" lon="6.70644">
        <ele>2008.33</ele>
        <time>2016-01-26T13:50:40Z</time>
      </trkpt>
      <trkpt lat="44.80652" lon="6.70663">
        <ele>2006.41</ele>
        <time>2016-01-26T13:50:57Z</time>
      </trkpt>
      <trkpt lat="44.80659" lon="6.70686">
        <ele>2003.52</ele>
        <time>2016-01-26T13:51:13Z</time>
      </trkpt>
      <trkpt lat="44.80652" lon="6.70717">
        <ele>2000.64</ele>
        <time>2016-01-26T13:51:32Z</time>
      </trkpt>
      <trkpt lat="44.80638" lon="6.70732">
        <ele>1997.76</ele>
        <time>2016-01-26T13:51:47Z</time>
      </trkpt>
      <trkpt lat="44.80626" lon="6.70747">
        <ele>1994.39</ele>
        <time>2016-01-26T13:52:04Z</time>
      </trkpt>
      <trkpt lat="44.80613" lon="6.7076">
        <ele>1991.03</ele>
        <time>2016-01-26T13:52:21Z</time>
      </trkpt>
      <trkpt lat="44.80602" lon="6.70762">
        <ele>1989.1</ele>
        <time>2016-01-26T13:52:33Z</time>
      </trkpt>
      <trkpt lat="44.80596" lon="6.70755">
        <ele>1987.18</ele>
        <time>2016-01-26T13:52:40Z</time>
      </trkpt>
      <trkpt lat="44.80586" lon="6.70736">
        <ele>1984.78</ele>
        <time>2016-01-26T13:52:56Z</time>
      </trkpt>
      <trkpt lat="44.8058" lon="6.70729">
        <ele>1981.9</ele>
        <time>2016-01-26T13:53:06Z</time>
      </trkpt>
      <trkpt lat="44.80573" lon="6.70722">
        <ele>1979.01</ele>
        <time>2016-01-26T13:53:19Z</time>
      </trkpt>
      <trkpt lat="44.80567" lon="6.70726">
        <ele>1979.01</ele>
        <time>2016-01-26T13:53:38Z</time>
      </trkpt>
      <trkpt lat="44.80566" lon="6.70727">
        <ele>1979.01</ele>
        <time>2016-01-26T13:53:44Z</time>
      </trkpt>
      <trkpt lat="44.80557" lon="6.70717">
        <ele>1977.09</ele>
        <time>2016-01-26T13:54:00Z</time>
      </trkpt>
      <trkpt lat="44.80555" lon="6.70713">
        <ele>1976.13</ele>
        <time>2016-01-26T13:54:20Z</time>
      </trkpt>
      <trkpt lat="44.80558" lon="6.70715">
        <ele>1976.13</ele>
        <time>2016-01-26T13:54:37Z</time>
      </trkpt>
      <trkpt lat="44.80558" lon="6.70716">
        <ele>1976.13</ele>
        <time>2016-01-26T13:54:54Z</time>
      </trkpt>
      <trkpt lat="44.80555" lon="6.70718">
        <ele>1976.13</ele>
        <time>2016-01-26T13:55:15Z</time>
      </trkpt>
      <trkpt lat="44.80554" lon="6.70721">
        <ele>1976.13</ele>
        <time>2016-01-26T13:55:33Z</time>
      </trkpt>
      <trkpt lat="44.80555" lon="6.70723">
        <ele>1976.13</ele>
        <time>2016-01-26T13:55:53Z</time>
      </trkpt>
      <trkpt lat="44.80553" lon="6.70726">
        <ele>1976.13</ele>
        <time>2016-01-26T13:56:17Z</time>
      </trkpt>
      <trkpt lat="44.8055" lon="6.70727">
        <ele>1975.65</ele>
        <time>2016-01-26T13:56:31Z</time>
      </trkpt>
      <trkpt lat="44.80549" lon="6.70724">
        <ele>1976.13</ele>
        <time>2016-01-26T13:56:49Z</time>
      </trkpt>
      <trkpt lat="44.8055" lon="6.70723">
        <ele>1976.13</ele>
        <time>2016-01-26T13:57:04Z</time>
      </trkpt>
      <trkpt lat="44.8055" lon="6.70724">
        <ele>1976.13</ele>
        <time>2016-01-26T13:57:24Z</time>
      </trkpt>
      <trkpt lat="44.80552" lon="6.70728">
        <ele>1976.61</ele>
        <time>2016-01-26T13:57:46Z</time>
      </trkpt>
      <trkpt lat="44.80551" lon="6.70734">
        <ele>1976.61</ele>
        <time>2016-01-26T13:58:04Z</time>
      </trkpt>
      <trkpt lat="44.80551" lon="6.70735">
        <ele>1976.61</ele>
        <time>2016-01-26T13:58:19Z</time>
      </trkpt>
      <trkpt lat="44.80552" lon="6.70738">
        <ele>1976.61</ele>
        <time>2016-01-26T13:58:33Z</time>
      </trkpt>
      <trkpt lat="44.80552" lon="6.70732">
        <ele>1978.05</ele>
        <time>2016-01-26T13:58:50Z</time>
      </trkpt>
      <trkpt lat="44.80552" lon="6.70728">
        <ele>1978.05</ele>
        <time>2016-01-26T13:59:12Z</time>
      </trkpt>
      <trkpt lat="44.80551" lon="6.70728">
        <ele>1979.01</ele>
        <time>2016-01-26T13:59:38Z</time>
      </trkpt>
      <trkpt lat="44.80553" lon="6.70728">
        <ele>1978.05</ele>
        <time>2016-01-26T14:00:00Z</time>
      </trkpt>
      <trkpt lat="44.80553" lon="6.7073">
        <ele>1977.09</ele>
        <time>2016-01-26T14:00:26Z</time>
      </trkpt>
      <trkpt lat="44.80553" lon="6.70726">
        <ele>1978.53</ele>
        <time>2016-01-26T14:00:42Z</time>
      </trkpt>
      <trkpt lat="44.80551" lon="6.70725">
        <ele>1978.53</ele>
        <time>2016-01-26T14:01:06Z</time>
      </trkpt>
      <trkpt lat="44.80549" lon="6.70724">
        <ele>1978.53</ele>
        <time>2016-01-26T14:01:30Z</time>
      </trkpt>
      <trkpt lat="44.8055" lon="6.7071">
        <ele>1978.05</ele>
        <time>2016-01-26T14:01:47Z</time>
      </trkpt>
      <trkpt lat="44.80548" lon="6.70686">
        <ele>1977.09</ele>
        <time>2016-01-26T14:02:04Z</time>
      </trkpt>
      <trkpt lat="44.80544" lon="6.70675">
        <ele>1976.61</ele>
        <time>2016-01-26T14:02:18Z</time>
      </trkpt>
      <trkpt lat="44.80534" lon="6.70674">
        <ele>1975.17</ele>
        <time>2016-01-26T14:02:28Z</time>
      </trkpt>
      <trkpt lat="44.80525" lon="6.707">
        <ele>1971.8</ele>
        <time>2016-01-26T14:02:43Z</time>
      </trkpt>
      <trkpt lat="44.80515" lon="6.70725">
        <ele>1968.92</ele>
        <time>2016-01-26T14:03:00Z</time>
      </trkpt>
      <trkpt lat="44.80513" lon="6.7073">
        <ele>1967.96</ele>
        <time>2016-01-26T14:03:04Z</time>
      </trkpt>
      <trkpt lat="44.80502" lon="6.70753">
        <ele>1965.55</ele>
        <time>2016-01-26T14:03:23Z</time>
      </trkpt>
      <trkpt lat="44.80489" lon="6.70775">
        <ele>1962.19</ele>
        <time>2016-01-26T14:03:42Z</time>
      </trkpt>
      <trkpt lat="44.80486" lon="6.70787">
        <ele>1961.23</ele>
        <time>2016-01-26T14:03:52Z</time>
      </trkpt>
      <trkpt lat="44.80474" lon="6.70807">
        <ele>1957.86</ele>
        <time>2016-01-26T14:04:11Z</time>
      </trkpt>
      <trkpt lat="44.80472" lon="6.7082">
        <ele>1956.42</ele>
        <time>2016-01-26T14:04:21Z</time>
      </trkpt>
      <trkpt lat="44.80471" lon="6.70843">
        <ele>1954.5</ele>
        <time>2016-01-26T14:04:36Z</time>
      </trkpt>
      <trkpt lat="44.8047" lon="6.7085">
        <ele>1953.54</ele>
        <time>2016-01-26T14:04:41Z</time>
      </trkpt>
      <trkpt lat="44.80464" lon="6.70862">
        <ele>1952.09</ele>
        <time>2016-01-26T14:04:50Z</time>
      </trkpt>
      <trkpt lat="44.80452" lon="6.7087">
        <ele>1949.69</ele>
        <time>2016-01-26T14:05:06Z</time>
      </trkpt>
      <trkpt lat="44.80431" lon="6.70876">
        <ele>1947.29</ele>
        <time>2016-01-26T14:05:24Z</time>
      </trkpt>
      <trkpt lat="44.80428" lon="6.70875">
        <ele>1946.81</ele>
        <time>2016-01-26T14:05:27Z</time>
      </trkpt>
      <trkpt lat="44.80407" lon="6.70873">
        <ele>1944.88</ele>
        <time>2016-01-26T14:05:46Z</time>
      </trkpt>
      <trkpt lat="44.80385" lon="6.70875">
        <ele>1942</ele>
        <time>2016-01-26T14:06:06Z</time>
      </trkpt>
      <trkpt lat="44.80368" lon="6.70882">
        <ele>1940.08</ele>
        <time>2016-01-26T14:06:23Z</time>
      </trkpt>
      <trkpt lat="44.80356" lon="6.70889">
        <ele>1938.64</ele>
        <time>2016-01-26T14:06:33Z</time>
      </trkpt>
      <trkpt lat="44.8035" lon="6.70892">
        <ele>1937.67</ele>
        <time>2016-01-26T14:06:38Z</time>
      </trkpt>
      <trkpt lat="44.80331" lon="6.70908">
        <ele>1935.27</ele>
        <time>2016-01-26T14:06:56Z</time>
      </trkpt>
      <trkpt lat="44.80309" lon="6.70918">
        <ele>1932.87</ele>
        <time>2016-01-26T14:07:15Z</time>
      </trkpt>
      <trkpt lat="44.8029" lon="6.70936">
        <ele>1930.95</ele>
        <time>2016-01-26T14:07:34Z</time>
      </trkpt>
      <trkpt lat="44.80289" lon="6.70938">
        <ele>1930.46</ele>
        <time>2016-01-26T14:07:36Z</time>
      </trkpt>
      <trkpt lat="44.80275" lon="6.70956">
        <ele>1928.54</ele>
        <time>2016-01-26T14:07:52Z</time>
      </trkpt>
      <trkpt lat="44.80273" lon="6.70957">
        <ele>1928.54</ele>
        <time>2016-01-26T14:07:54Z</time>
      </trkpt>
      <trkpt lat="44.80262" lon="6.70976">
        <ele>1927.1</ele>
        <time>2016-01-26T14:08:10Z</time>
      </trkpt>
      <trkpt lat="44.8025" lon="6.70998">
        <ele>1924.7</ele>
        <time>2016-01-26T14:08:27Z</time>
      </trkpt>
      <trkpt lat="44.80242" lon="6.71021">
        <ele>1923.25</ele>
        <time>2016-01-26T14:08:43Z</time>
      </trkpt>
      <trkpt lat="44.80232" lon="6.71045">
        <ele>1921.81</ele>
        <time>2016-01-26T14:08:59Z</time>
      </trkpt>
      <trkpt lat="44.80215" lon="6.7106">
        <ele>1919.41</ele>
        <time>2016-01-26T14:09:15Z</time>
      </trkpt>
      <trkpt lat="44.80211" lon="6.71064">
        <ele>1918.45</ele>
        <time>2016-01-26T14:09:19Z</time>
      </trkpt>
      <trkpt lat="44.80201" lon="6.71084">
        <ele>1916.04</ele>
        <time>2016-01-26T14:09:35Z</time>
      </trkpt>
      <trkpt lat="44.80187" lon="6.71102">
        <ele>1913.64</ele>
        <time>2016-01-26T14:09:52Z</time>
      </trkpt>
      <trkpt lat="44.80171" lon="6.7112">
        <ele>1910.76</ele>
        <time>2016-01-26T14:10:10Z</time>
      </trkpt>
      <trkpt lat="44.80164" lon="6.7113">
        <ele>1909.32</ele>
        <time>2016-01-26T14:10:19Z</time>
      </trkpt>
      <trkpt lat="44.80144" lon="6.71138">
        <ele>1905.95</ele>
        <time>2016-01-26T14:10:36Z</time>
      </trkpt>
      <trkpt lat="44.80125" lon="6.71154">
        <ele>1904.03</ele>
        <time>2016-01-26T14:10:54Z</time>
      </trkpt>
      <trkpt lat="44.80105" lon="6.71162">
        <ele>1900.18</ele>
        <time>2016-01-26T14:11:12Z</time>
      </trkpt>
      <trkpt lat="44.80087" lon="6.71167">
        <ele>1898.26</ele>
        <time>2016-01-26T14:11:27Z</time>
      </trkpt>
      <trkpt lat="44.80078" lon="6.71178">
        <ele>1896.82</ele>
        <time>2016-01-26T14:11:36Z</time>
      </trkpt>
      <trkpt lat="44.80077" lon="6.71181">
        <ele>1896.82</ele>
        <time>2016-01-26T14:11:38Z</time>
      </trkpt>
      <trkpt lat="44.80065" lon="6.71194">
        <ele>1894.9</ele>
        <time>2016-01-26T14:11:53Z</time>
      </trkpt>
      <trkpt lat="44.80064" lon="6.71198">
        <ele>1894.42</ele>
        <time>2016-01-26T14:11:56Z</time>
      </trkpt>
      <trkpt lat="44.80055" lon="6.71212">
        <ele>1891.53</ele>
        <time>2016-01-26T14:12:09Z</time>
      </trkpt>
      <trkpt lat="44.80045" lon="6.71239">
        <ele>1888.65</ele>
        <time>2016-01-26T14:12:29Z</time>
      </trkpt>
      <trkpt lat="44.80035" lon="6.71261">
        <ele>1885.28</ele>
        <time>2016-01-26T14:12:46Z</time>
      </trkpt>
      <trkpt lat="44.80028" lon="6.71276">
        <ele>1883.36</ele>
        <time>2016-01-26T14:12:56Z</time>
      </trkpt>
      <trkpt lat="44.80022" lon="6.71291">
        <ele>1880.96</ele>
        <time>2016-01-26T14:13:07Z</time>
      </trkpt>
      <trkpt lat="44.80022" lon="6.71319">
        <ele>1878.07</ele>
        <time>2016-01-26T14:13:24Z</time>
      </trkpt>
      <trkpt lat="44.80023" lon="6.71351">
        <ele>1875.19</ele>
        <time>2016-01-26T14:13:41Z</time>
      </trkpt>
      <trkpt lat="44.80023" lon="6.71374">
        <ele>1871.82</ele>
        <time>2016-01-26T14:14:00Z</time>
      </trkpt>
      <trkpt lat="44.80018" lon="6.71399">
        <ele>1869.9</ele>
        <time>2016-01-26T14:14:17Z</time>
      </trkpt>
      <trkpt lat="44.80009" lon="6.71429">
        <ele>1867.02</ele>
        <time>2016-01-26T14:14:37Z</time>
      </trkpt>
      <trkpt lat="44.8" lon="6.71459">
        <ele>1864.13</ele>
        <time>2016-01-26T14:14:58Z</time>
      </trkpt>
      <trkpt lat="44.79991" lon="6.71488">
        <ele>1861.73</ele>
        <time>2016-01-26T14:15:17Z</time>
      </trkpt>
      <trkpt lat="44.79982" lon="6.71518">
        <ele>1859.81</ele>
        <time>2016-01-26T14:15:36Z</time>
      </trkpt>
      <trkpt lat="44.79975" lon="6.71543">
        <ele>1857.4</ele>
        <time>2016-01-26T14:15:53Z</time>
      </trkpt>
      <trkpt lat="44.7997" lon="6.71559">
        <ele>1855.48</ele>
        <time>2016-01-26T14:16:05Z</time>
      </trkpt>
      <trkpt lat="44.79962" lon="6.71582">
        <ele>1853.08</ele>
        <time>2016-01-26T14:16:21Z</time>
      </trkpt>
      <trkpt lat="44.79951" lon="6.71615">
        <ele>1849.71</ele>
        <time>2016-01-26T14:16:41Z</time>
      </trkpt>
      <trkpt lat="44.79939" lon="6.71654">
        <ele>1847.79</ele>
        <time>2016-01-26T14:17:01Z</time>
      </trkpt>
      <trkpt lat="44.79935" lon="6.71672">
        <ele>1846.83</ele>
        <time>2016-01-26T14:17:19Z</time>
      </trkpt>
      <trkpt lat="44.79933" lon="6.71671">
        <ele>1846.83</ele>
        <time>2016-01-26T14:17:38Z</time>
      </trkpt>
      <trkpt lat="44.79933" lon="6.71673">
        <ele>1845.87</ele>
        <time>2016-01-26T14:18:01Z</time>
      </trkpt>
      <trkpt lat="44.79932" lon="6.71678">
        <ele>1845.87</ele>
        <time>2016-01-26T14:18:29Z</time>
      </trkpt>
      <trkpt lat="44.79933" lon="6.71677">
        <ele>1845.87</ele>
        <time>2016-01-26T14:18:53Z</time>
      </trkpt>
      <trkpt lat="44.79934" lon="6.71676">
        <ele>1845.39</ele>
        <time>2016-01-26T14:19:18Z</time>
      </trkpt>
      <trkpt lat="44.79932" lon="6.7168">
        <ele>1845.39</ele>
        <time>2016-01-26T14:19:47Z</time>
      </trkpt>
      <trkpt lat="44.79924" lon="6.71704">
        <ele>1844.43</ele>
        <time>2016-01-26T14:20:05Z</time>
      </trkpt>
      <trkpt lat="44.7991" lon="6.71718">
        <ele>1842.02</ele>
        <time>2016-01-26T14:20:22Z</time>
      </trkpt>
      <trkpt lat="44.79893" lon="6.71729">
        <ele>1841.06</ele>
        <time>2016-01-26T14:20:39Z</time>
      </trkpt>
      <trkpt lat="44.79883" lon="6.71749">
        <ele>1841.06</ele>
        <time>2016-01-26T14:20:55Z</time>
      </trkpt>
      <trkpt lat="44.79868" lon="6.7177">
        <ele>1839.62</ele>
        <time>2016-01-26T14:21:16Z</time>
      </trkpt>
      <trkpt lat="44.79856" lon="6.71797">
        <ele>1838.18</ele>
        <time>2016-01-26T14:21:34Z</time>
      </trkpt>
      <trkpt lat="44.79842" lon="6.71826">
        <ele>1836.74</ele>
        <time>2016-01-26T14:21:53Z</time>
      </trkpt>
      <trkpt lat="44.7984" lon="6.71842">
        <ele>1835.77</ele>
        <time>2016-01-26T14:22:02Z</time>
      </trkpt>
      <trkpt lat="44.79838" lon="6.71866">
        <ele>1834.81</ele>
        <time>2016-01-26T14:22:18Z</time>
      </trkpt>
      <trkpt lat="44.79831" lon="6.71893">
        <ele>1834.33</ele>
        <time>2016-01-26T14:22:36Z</time>
      </trkpt>
      <trkpt lat="44.79834" lon="6.71922">
        <ele>1833.37</ele>
        <time>2016-01-26T14:22:52Z</time>
      </trkpt>
      <trkpt lat="44.79835" lon="6.71936">
        <ele>1832.89</ele>
        <time>2016-01-26T14:23:03Z</time>
      </trkpt>
      <trkpt lat="44.79832" lon="6.71968">
        <ele>1831.45</ele>
        <time>2016-01-26T14:23:24Z</time>
      </trkpt>
      <trkpt lat="44.79828" lon="6.71989">
        <ele>1830.97</ele>
        <time>2016-01-26T14:23:41Z</time>
      </trkpt>
      <trkpt lat="44.79819" lon="6.72013">
        <ele>1830.49</ele>
        <time>2016-01-26T14:23:58Z</time>
      </trkpt>
      <trkpt lat="44.79801" lon="6.72041">
        <ele>1828.56</ele>
        <time>2016-01-26T14:24:20Z</time>
      </trkpt>
      <trkpt lat="44.79784" lon="6.72069">
        <ele>1827.6</ele>
        <time>2016-01-26T14:24:42Z</time>
      </trkpt>
      <trkpt lat="44.7977" lon="6.72093">
        <ele>1826.16</ele>
        <time>2016-01-26T14:25:01Z</time>
      </trkpt>
      <trkpt lat="44.79751" lon="6.72113">
        <ele>1824.72</ele>
        <time>2016-01-26T14:25:21Z</time>
      </trkpt>
      <trkpt lat="44.79742" lon="6.72126">
        <ele>1824.24</ele>
        <time>2016-01-26T14:25:36Z</time>
      </trkpt>
      <trkpt lat="44.79726" lon="6.72142">
        <ele>1823.28</ele>
        <time>2016-01-26T14:25:55Z</time>
      </trkpt>
      <trkpt lat="44.79705" lon="6.72161">
        <ele>1822.32</ele>
        <time>2016-01-26T14:26:15Z</time>
      </trkpt>
      <trkpt lat="44.79694" lon="6.72186">
        <ele>1821.35</ele>
        <time>2016-01-26T14:26:33Z</time>
      </trkpt>
      <trkpt lat="44.79681" lon="6.72214">
        <ele>1820.39</ele>
        <time>2016-01-26T14:26:53Z</time>
      </trkpt>
      <trkpt lat="44.79664" lon="6.72232">
        <ele>1818.47</ele>
        <time>2016-01-26T14:27:11Z</time>
      </trkpt>
      <trkpt lat="44.79646" lon="6.72249">
        <ele>1817.51</ele>
        <time>2016-01-26T14:27:30Z</time>
      </trkpt>
      <trkpt lat="44.79625" lon="6.7227">
        <ele>1816.55</ele>
        <time>2016-01-26T14:27:51Z</time>
      </trkpt>
      <trkpt lat="44.7961" lon="6.72285">
        <ele>1816.55</ele>
        <time>2016-01-26T14:28:09Z</time>
      </trkpt>
      <trkpt lat="44.79595" lon="6.72298">
        <ele>1816.07</ele>
        <time>2016-01-26T14:28:28Z</time>
      </trkpt>
      <trkpt lat="44.79583" lon="6.72312">
        <ele>1816.07</ele>
        <time>2016-01-26T14:28:44Z</time>
      </trkpt>
      <trkpt lat="44.79569" lon="6.72327">
        <ele>1816.07</ele>
        <time>2016-01-26T14:29:01Z</time>
      </trkpt>
      <trkpt lat="44.79556" lon="6.72343">
        <ele>1816.07</ele>
        <time>2016-01-26T14:29:18Z</time>
      </trkpt>
      <trkpt lat="44.79542" lon="6.72354">
        <ele>1816.07</ele>
        <time>2016-01-26T14:29:36Z</time>
      </trkpt>
      <trkpt lat="44.79531" lon="6.72368">
        <ele>1816.07</ele>
        <time>2016-01-26T14:29:53Z</time>
      </trkpt>
      <trkpt lat="44.79519" lon="6.72382">
        <ele>1815.59</ele>
        <time>2016-01-26T14:30:12Z</time>
      </trkpt>
      <trkpt lat="44.79506" lon="6.72397">
        <ele>1814.15</ele>
        <time>2016-01-26T14:30:30Z</time>
      </trkpt>
      <trkpt lat="44.79496" lon="6.72415">
        <ele>1813.66</ele>
        <time>2016-01-26T14:30:46Z</time>
      </trkpt>
      <trkpt lat="44.79489" lon="6.72438">
        <ele>1813.18</ele>
        <time>2016-01-26T14:31:05Z</time>
      </trkpt>
      <trkpt lat="44.79488" lon="6.72443">
        <ele>1812.7</ele>
        <time>2016-01-26T14:31:21Z</time>
      </trkpt>
      <trkpt lat="44.79486" lon="6.72441">
        <ele>1813.18</ele>
        <time>2016-01-26T14:31:36Z</time>
      </trkpt>
      <trkpt lat="44.79485" lon="6.72441">
        <ele>1813.18</ele>
        <time>2016-01-26T14:31:44Z</time>
      </trkpt>
    </trkseg>
  </trk>
</gpx>